<?xml version="1.0" encoding="UTF-8" standalone="no" ?>
<gpx xmlns="http://www.topografix.com/GPX/1/1" xmlns:xsi="http://www.w3.org/2001/XMLSchema-instance" xsi:schemaLocation="http://www.topografix.com/GPX/1/1 http://www.topografix.com/GPX/1/1/gpx.xsd" version="1.1" creator="VisuGPX - https://www.visugpx.com">
  <metadata>
    <name>428_Circuit 89 km Les Herbiers_Les Herbiers édité par cth85.com</name>
    <desc><![CDATA[Circuit de 89 km passant par:
Les Herbiers
D48 direction Mouchamps
D48 Sainte Cécile
D47 Saint Martin des Noyers
D60 Torigny
D60, D88 Les Pineaux
D48 Bournezeau
D48 Saint Hilaire le Vouhis
D48 sur 4 km le bodin, à droite
D98 la marzelle, les fournils, la sangle
D97 Rochetrejoux
direction la jonchère sur 2 km
à droite, la basse daudière
àdroite puis première à gauche
le moulin à tan, la pillaudière
D23 Les Herbiers]]></desc>
  </metadata>
  <trk>
    <name><![CDATA[89_428-19102356]]></name>
    <trkseg>
      <trkpt lat="46.86338" lon="-1.00611">
        <ele>119</ele>
        <time>2024-05-29T16:14:14Z</time>
      </trkpt>
      <trkpt lat="46.86324" lon="-1.00626">
        <ele>119</ele>
        <time>2024-05-29T16:14:17Z</time>
      </trkpt>
      <trkpt lat="46.86271" lon="-1.00663">
        <ele>118</ele>
        <time>2024-05-29T16:14:28Z</time>
      </trkpt>
      <trkpt lat="46.86183" lon="-1.00705">
        <ele>116</ele>
        <time>2024-05-29T16:14:44Z</time>
      </trkpt>
      <trkpt lat="46.86141" lon="-1.00728">
        <ele>116</ele>
        <time>2024-05-29T16:14:52Z</time>
      </trkpt>
      <trkpt lat="46.86095" lon="-1.00768">
        <ele>115</ele>
        <time>2024-05-29T16:15:02Z</time>
      </trkpt>
      <trkpt lat="46.86071" lon="-1.00794">
        <ele>114</ele>
        <time>2024-05-29T16:15:07Z</time>
      </trkpt>
      <trkpt lat="46.85999" lon="-1.00892">
        <ele>112</ele>
        <time>2024-05-29T16:15:24Z</time>
      </trkpt>
      <trkpt lat="46.85956" lon="-1.00964">
        <ele>113</ele>
        <time>2024-05-29T16:15:36Z</time>
      </trkpt>
      <trkpt lat="46.85951" lon="-1.00979">
        <ele>113</ele>
        <time>2024-05-29T16:15:38Z</time>
      </trkpt>
      <trkpt lat="46.85879" lon="-1.00946">
        <ele>113</ele>
        <time>2024-05-29T16:15:51Z</time>
      </trkpt>
      <trkpt lat="46.85858" lon="-1.00941">
        <ele>113</ele>
        <time>2024-05-29T16:15:55Z</time>
      </trkpt>
      <trkpt lat="46.85854" lon="-1.00943">
        <ele>113</ele>
        <time>2024-05-29T16:15:56Z</time>
      </trkpt>
      <trkpt lat="46.85846" lon="-1.00942">
        <ele>113</ele>
        <time>2024-05-29T16:15:57Z</time>
      </trkpt>
      <trkpt lat="46.8584" lon="-1.00934">
        <ele>113</ele>
        <time>2024-05-29T16:15:59Z</time>
      </trkpt>
      <trkpt lat="46.85837" lon="-1.00923">
        <ele>113</ele>
        <time>2024-05-29T16:16:00Z</time>
      </trkpt>
      <trkpt lat="46.85838" lon="-1.00917">
        <ele>113</ele>
        <time>2024-05-29T16:16:01Z</time>
      </trkpt>
      <trkpt lat="46.8569" lon="-1.00829">
        <ele>112</ele>
        <time>2024-05-29T16:16:29Z</time>
      </trkpt>
      <trkpt lat="46.85562" lon="-1.00711">
        <ele>108</ele>
        <time>2024-05-29T16:16:56Z</time>
      </trkpt>
      <trkpt lat="46.85539" lon="-1.00693">
        <ele>108</ele>
        <time>2024-05-29T16:17:01Z</time>
      </trkpt>
      <trkpt lat="46.85509" lon="-1.00674">
        <ele>108</ele>
        <time>2024-05-29T16:17:07Z</time>
      </trkpt>
      <trkpt lat="46.85483" lon="-1.00655">
        <ele>108</ele>
        <time>2024-05-29T16:17:12Z</time>
      </trkpt>
      <trkpt lat="46.8546" lon="-1.00641">
        <ele>108</ele>
        <time>2024-05-29T16:17:16Z</time>
      </trkpt>
      <trkpt lat="46.8534" lon="-1.00587">
        <ele>109</ele>
        <time>2024-05-29T16:17:39Z</time>
      </trkpt>
      <trkpt lat="46.85285" lon="-1.00572">
        <ele>110</ele>
        <time>2024-05-29T16:17:49Z</time>
      </trkpt>
      <trkpt lat="46.85261" lon="-1.00556">
        <ele>110</ele>
        <time>2024-05-29T16:17:53Z</time>
      </trkpt>
      <trkpt lat="46.85102" lon="-1.00439">
        <ele>110</ele>
        <time>2024-05-29T16:18:25Z</time>
      </trkpt>
      <trkpt lat="46.85054" lon="-1.0041">
        <ele>111</ele>
        <time>2024-05-29T16:18:34Z</time>
      </trkpt>
      <trkpt lat="46.85025" lon="-1.00397">
        <ele>112</ele>
        <time>2024-05-29T16:18:40Z</time>
      </trkpt>
      <trkpt lat="46.84987" lon="-1.00387">
        <ele>113</ele>
        <time>2024-05-29T16:18:47Z</time>
      </trkpt>
      <trkpt lat="46.84956" lon="-1.00381">
        <ele>113</ele>
        <time>2024-05-29T16:18:52Z</time>
      </trkpt>
      <trkpt lat="46.84918" lon="-1.00379">
        <ele>114</ele>
        <time>2024-05-29T16:18:59Z</time>
      </trkpt>
      <trkpt lat="46.8487" lon="-1.00381">
        <ele>114</ele>
        <time>2024-05-29T16:19:07Z</time>
      </trkpt>
      <trkpt lat="46.84774" lon="-1.00404">
        <ele>116</ele>
        <time>2024-05-29T16:19:25Z</time>
      </trkpt>
      <trkpt lat="46.84773" lon="-1.0041">
        <ele>116</ele>
        <time>2024-05-29T16:19:26Z</time>
      </trkpt>
      <trkpt lat="46.84767" lon="-1.00416">
        <ele>116</ele>
        <time>2024-05-29T16:19:27Z</time>
      </trkpt>
      <trkpt lat="46.84763" lon="-1.00414">
        <ele>116</ele>
        <time>2024-05-29T16:19:28Z</time>
      </trkpt>
      <trkpt lat="46.8476" lon="-1.00409">
        <ele>116</ele>
        <time>2024-05-29T16:19:28Z</time>
      </trkpt>
      <trkpt lat="46.84738" lon="-1.0042">
        <ele>116</ele>
        <time>2024-05-29T16:19:33Z</time>
      </trkpt>
      <trkpt lat="46.84625" lon="-1.00458">
        <ele>112</ele>
        <time>2024-05-29T16:19:53Z</time>
      </trkpt>
      <trkpt lat="46.84571" lon="-1.00469">
        <ele>111</ele>
        <time>2024-05-29T16:20:03Z</time>
      </trkpt>
      <trkpt lat="46.84532" lon="-1.00471">
        <ele>111</ele>
        <time>2024-05-29T16:20:10Z</time>
      </trkpt>
      <trkpt lat="46.84501" lon="-1.00484">
        <ele>111</ele>
        <time>2024-05-29T16:20:16Z</time>
      </trkpt>
      <trkpt lat="46.84496" lon="-1.00493">
        <ele>111</ele>
        <time>2024-05-29T16:20:17Z</time>
      </trkpt>
      <trkpt lat="46.84487" lon="-1.00498">
        <ele>111</ele>
        <time>2024-05-29T16:20:19Z</time>
      </trkpt>
      <trkpt lat="46.84478" lon="-1.00494">
        <ele>112</ele>
        <time>2024-05-29T16:20:20Z</time>
      </trkpt>
      <trkpt lat="46.84474" lon="-1.0049">
        <ele>112</ele>
        <time>2024-05-29T16:20:21Z</time>
      </trkpt>
      <trkpt lat="46.84471" lon="-1.00482">
        <ele>112</ele>
        <time>2024-05-29T16:20:22Z</time>
      </trkpt>
      <trkpt lat="46.84446" lon="-1.00468">
        <ele>113</ele>
        <time>2024-05-29T16:20:27Z</time>
      </trkpt>
      <trkpt lat="46.83972" lon="-1.0043">
        <ele>123</ele>
        <time>2024-05-29T16:21:52Z</time>
      </trkpt>
      <trkpt lat="46.83871" lon="-1.00422">
        <ele>126</ele>
        <time>2024-05-29T16:22:10Z</time>
      </trkpt>
      <trkpt lat="46.83875" lon="-1.00435">
        <ele>125</ele>
        <time>2024-05-29T16:22:11Z</time>
      </trkpt>
      <trkpt lat="46.83858" lon="-1.00435">
        <ele>126</ele>
        <time>2024-05-29T16:22:14Z</time>
      </trkpt>
      <trkpt lat="46.83853" lon="-1.00435">
        <ele>126</ele>
        <time>2024-05-29T16:22:15Z</time>
      </trkpt>
      <trkpt lat="46.8385" lon="-1.0043">
        <ele>126</ele>
        <time>2024-05-29T16:22:16Z</time>
      </trkpt>
      <trkpt lat="46.8384" lon="-1.00426">
        <ele>127</ele>
        <time>2024-05-29T16:22:18Z</time>
      </trkpt>
      <trkpt lat="46.83612" lon="-1.0041">
        <ele>129</ele>
        <time>2024-05-29T16:22:58Z</time>
      </trkpt>
      <trkpt lat="46.83613" lon="-1.00403">
        <ele>129</ele>
        <time>2024-05-29T16:22:59Z</time>
      </trkpt>
      <trkpt lat="46.83506" lon="-1.00398">
        <ele>127</ele>
        <time>2024-05-29T16:23:18Z</time>
      </trkpt>
      <trkpt lat="46.83326" lon="-1.00377">
        <ele>126</ele>
        <time>2024-05-29T16:23:50Z</time>
      </trkpt>
      <trkpt lat="46.83322" lon="-1.00408">
        <ele>126</ele>
        <time>2024-05-29T16:23:54Z</time>
      </trkpt>
      <trkpt lat="46.83318" lon="-1.00426">
        <ele>126</ele>
        <time>2024-05-29T16:23:57Z</time>
      </trkpt>
      <trkpt lat="46.83311" lon="-1.00442">
        <ele>126</ele>
        <time>2024-05-29T16:23:59Z</time>
      </trkpt>
      <trkpt lat="46.83304" lon="-1.00453">
        <ele>126</ele>
        <time>2024-05-29T16:24:01Z</time>
      </trkpt>
      <trkpt lat="46.83289" lon="-1.00467">
        <ele>125</ele>
        <time>2024-05-29T16:24:04Z</time>
      </trkpt>
      <trkpt lat="46.83273" lon="-1.00479">
        <ele>125</ele>
        <time>2024-05-29T16:24:07Z</time>
      </trkpt>
      <trkpt lat="46.83224" lon="-1.00507">
        <ele>123</ele>
        <time>2024-05-29T16:24:17Z</time>
      </trkpt>
      <trkpt lat="46.83178" lon="-1.00524">
        <ele>122</ele>
        <time>2024-05-29T16:24:25Z</time>
      </trkpt>
      <trkpt lat="46.83142" lon="-1.00545">
        <ele>121</ele>
        <time>2024-05-29T16:24:32Z</time>
      </trkpt>
      <trkpt lat="46.83104" lon="-1.00575">
        <ele>120</ele>
        <time>2024-05-29T16:24:40Z</time>
      </trkpt>
      <trkpt lat="46.83025" lon="-1.00646">
        <ele>120</ele>
        <time>2024-05-29T16:24:56Z</time>
      </trkpt>
      <trkpt lat="46.83005" lon="-1.00668">
        <ele>121</ele>
        <time>2024-05-29T16:25:00Z</time>
      </trkpt>
      <trkpt lat="46.82978" lon="-1.00711">
        <ele>121</ele>
        <time>2024-05-29T16:25:08Z</time>
      </trkpt>
      <trkpt lat="46.82898" lon="-1.00868">
        <ele>121</ele>
        <time>2024-05-29T16:25:31Z</time>
      </trkpt>
      <trkpt lat="46.82873" lon="-1.00913">
        <ele>121</ele>
        <time>2024-05-29T16:25:38Z</time>
      </trkpt>
      <trkpt lat="46.82859" lon="-1.00936">
        <ele>120</ele>
        <time>2024-05-29T16:25:42Z</time>
      </trkpt>
      <trkpt lat="46.8266" lon="-1.0117">
        <ele>118</ele>
        <time>2024-05-29T16:26:28Z</time>
      </trkpt>
      <trkpt lat="46.82632" lon="-1.01197">
        <ele>119</ele>
        <time>2024-05-29T16:26:34Z</time>
      </trkpt>
      <trkpt lat="46.826" lon="-1.01214">
        <ele>119</ele>
        <time>2024-05-29T16:26:40Z</time>
      </trkpt>
      <trkpt lat="46.82206" lon="-1.01385">
        <ele>121</ele>
        <time>2024-05-29T16:27:53Z</time>
      </trkpt>
      <trkpt lat="46.82172" lon="-1.01403">
        <ele>119</ele>
        <time>2024-05-29T16:27:59Z</time>
      </trkpt>
      <trkpt lat="46.8193" lon="-1.01574">
        <ele>118</ele>
        <time>2024-05-29T16:28:47Z</time>
      </trkpt>
      <trkpt lat="46.81783" lon="-1.01678">
        <ele>114</ele>
        <time>2024-05-29T16:29:16Z</time>
      </trkpt>
      <trkpt lat="46.81719" lon="-1.0174">
        <ele>114</ele>
        <time>2024-05-29T16:29:30Z</time>
      </trkpt>
      <trkpt lat="46.81539" lon="-1.01936">
        <ele>116</ele>
        <time>2024-05-29T16:30:10Z</time>
      </trkpt>
      <trkpt lat="46.81506" lon="-1.01967">
        <ele>117</ele>
        <time>2024-05-29T16:30:17Z</time>
      </trkpt>
      <trkpt lat="46.81483" lon="-1.01977">
        <ele>117</ele>
        <time>2024-05-29T16:30:21Z</time>
      </trkpt>
      <trkpt lat="46.81469" lon="-1.01979">
        <ele>117</ele>
        <time>2024-05-29T16:30:24Z</time>
      </trkpt>
      <trkpt lat="46.81453" lon="-1.01978">
        <ele>117</ele>
        <time>2024-05-29T16:30:26Z</time>
      </trkpt>
      <trkpt lat="46.81365" lon="-1.01945">
        <ele>117</ele>
        <time>2024-05-29T16:30:43Z</time>
      </trkpt>
      <trkpt lat="46.81349" lon="-1.01942">
        <ele>117</ele>
        <time>2024-05-29T16:30:45Z</time>
      </trkpt>
      <trkpt lat="46.81316" lon="-1.01944">
        <ele>118</ele>
        <time>2024-05-29T16:30:51Z</time>
      </trkpt>
      <trkpt lat="46.81176" lon="-1.01966">
        <ele>120</ele>
        <time>2024-05-29T16:31:16Z</time>
      </trkpt>
      <trkpt lat="46.81164" lon="-1.0197">
        <ele>120</ele>
        <time>2024-05-29T16:31:19Z</time>
      </trkpt>
      <trkpt lat="46.81142" lon="-1.01982">
        <ele>119</ele>
        <time>2024-05-29T16:31:23Z</time>
      </trkpt>
      <trkpt lat="46.81117" lon="-1.02005">
        <ele>119</ele>
        <time>2024-05-29T16:31:28Z</time>
      </trkpt>
      <trkpt lat="46.81106" lon="-1.02018">
        <ele>119</ele>
        <time>2024-05-29T16:31:30Z</time>
      </trkpt>
      <trkpt lat="46.81093" lon="-1.02041">
        <ele>119</ele>
        <time>2024-05-29T16:31:34Z</time>
      </trkpt>
      <trkpt lat="46.80996" lon="-1.02233">
        <ele>116</ele>
        <time>2024-05-29T16:32:03Z</time>
      </trkpt>
      <trkpt lat="46.80971" lon="-1.02287">
        <ele>115</ele>
        <time>2024-05-29T16:32:11Z</time>
      </trkpt>
      <trkpt lat="46.80946" lon="-1.0235">
        <ele>115</ele>
        <time>2024-05-29T16:32:20Z</time>
      </trkpt>
      <trkpt lat="46.80913" lon="-1.02447">
        <ele>115</ele>
        <time>2024-05-29T16:32:33Z</time>
      </trkpt>
      <trkpt lat="46.80882" lon="-1.02535">
        <ele>114</ele>
        <time>2024-05-29T16:32:45Z</time>
      </trkpt>
      <trkpt lat="46.80843" lon="-1.02641">
        <ele>115</ele>
        <time>2024-05-29T16:33:00Z</time>
      </trkpt>
      <trkpt lat="46.80675" lon="-1.02966">
        <ele>111</ele>
        <time>2024-05-29T16:33:49Z</time>
      </trkpt>
      <trkpt lat="46.80433" lon="-1.03468">
        <ele>110</ele>
        <time>2024-05-29T16:35:04Z</time>
      </trkpt>
      <trkpt lat="46.80407" lon="-1.03538">
        <ele>109</ele>
        <time>2024-05-29T16:35:14Z</time>
      </trkpt>
      <trkpt lat="46.80228" lon="-1.04115">
        <ele>107</ele>
        <time>2024-05-29T16:36:31Z</time>
      </trkpt>
      <trkpt lat="46.80184" lon="-1.04252">
        <ele>105</ele>
        <time>2024-05-29T16:36:50Z</time>
      </trkpt>
      <trkpt lat="46.8017" lon="-1.04284">
        <ele>105</ele>
        <time>2024-05-29T16:36:54Z</time>
      </trkpt>
      <trkpt lat="46.80155" lon="-1.04316">
        <ele>105</ele>
        <time>2024-05-29T16:36:59Z</time>
      </trkpt>
      <trkpt lat="46.80052" lon="-1.04519">
        <ele>106</ele>
        <time>2024-05-29T16:37:30Z</time>
      </trkpt>
      <trkpt lat="46.80029" lon="-1.04557">
        <ele>105</ele>
        <time>2024-05-29T16:37:36Z</time>
      </trkpt>
      <trkpt lat="46.80002" lon="-1.0459">
        <ele>104</ele>
        <time>2024-05-29T16:37:42Z</time>
      </trkpt>
      <trkpt lat="46.79971" lon="-1.04612">
        <ele>104</ele>
        <time>2024-05-29T16:37:48Z</time>
      </trkpt>
      <trkpt lat="46.79931" lon="-1.04628">
        <ele>104</ele>
        <time>2024-05-29T16:37:56Z</time>
      </trkpt>
      <trkpt lat="46.79783" lon="-1.04679">
        <ele>102</ele>
        <time>2024-05-29T16:38:23Z</time>
      </trkpt>
      <trkpt lat="46.79754" lon="-1.04692">
        <ele>102</ele>
        <time>2024-05-29T16:38:28Z</time>
      </trkpt>
      <trkpt lat="46.79711" lon="-1.04718">
        <ele>102</ele>
        <time>2024-05-29T16:38:36Z</time>
      </trkpt>
      <trkpt lat="46.79486" lon="-1.04864">
        <ele>101</ele>
        <time>2024-05-29T16:39:20Z</time>
      </trkpt>
      <trkpt lat="46.79399" lon="-1.04937">
        <ele>101</ele>
        <time>2024-05-29T16:39:38Z</time>
      </trkpt>
      <trkpt lat="46.79346" lon="-1.04991">
        <ele>102</ele>
        <time>2024-05-29T16:39:49Z</time>
      </trkpt>
      <trkpt lat="46.7918" lon="-1.05188">
        <ele>102</ele>
        <time>2024-05-29T16:40:28Z</time>
      </trkpt>
      <trkpt lat="46.79086" lon="-1.05295">
        <ele>100</ele>
        <time>2024-05-29T16:40:49Z</time>
      </trkpt>
      <trkpt lat="46.79064" lon="-1.05332">
        <ele>99</ele>
        <time>2024-05-29T16:40:55Z</time>
      </trkpt>
      <trkpt lat="46.78945" lon="-1.05576">
        <ele>103</ele>
        <time>2024-05-29T16:41:31Z</time>
      </trkpt>
      <trkpt lat="46.78929" lon="-1.05601">
        <ele>103</ele>
        <time>2024-05-29T16:41:35Z</time>
      </trkpt>
      <trkpt lat="46.7891" lon="-1.05624">
        <ele>104</ele>
        <time>2024-05-29T16:41:40Z</time>
      </trkpt>
      <trkpt lat="46.78878" lon="-1.05654">
        <ele>105</ele>
        <time>2024-05-29T16:41:47Z</time>
      </trkpt>
      <trkpt lat="46.78853" lon="-1.0567">
        <ele>106</ele>
        <time>2024-05-29T16:41:51Z</time>
      </trkpt>
      <trkpt lat="46.78833" lon="-1.05678">
        <ele>107</ele>
        <time>2024-05-29T16:41:55Z</time>
      </trkpt>
      <trkpt lat="46.78768" lon="-1.05703">
        <ele>110</ele>
        <time>2024-05-29T16:42:07Z</time>
      </trkpt>
      <trkpt lat="46.78769" lon="-1.05712">
        <ele>110</ele>
        <time>2024-05-29T16:42:08Z</time>
      </trkpt>
      <trkpt lat="46.78767" lon="-1.05721">
        <ele>110</ele>
        <time>2024-05-29T16:42:09Z</time>
      </trkpt>
      <trkpt lat="46.78764" lon="-1.05728">
        <ele>110</ele>
        <time>2024-05-29T16:42:10Z</time>
      </trkpt>
      <trkpt lat="46.78759" lon="-1.05734">
        <ele>111</ele>
        <time>2024-05-29T16:42:11Z</time>
      </trkpt>
      <trkpt lat="46.78754" lon="-1.05736">
        <ele>111</ele>
        <time>2024-05-29T16:42:12Z</time>
      </trkpt>
      <trkpt lat="46.78748" lon="-1.05736">
        <ele>111</ele>
        <time>2024-05-29T16:42:13Z</time>
      </trkpt>
      <trkpt lat="46.7874" lon="-1.05812">
        <ele>109</ele>
        <time>2024-05-29T16:42:23Z</time>
      </trkpt>
      <trkpt lat="46.78708" lon="-1.05966">
        <ele>109</ele>
        <time>2024-05-29T16:42:42Z</time>
      </trkpt>
      <trkpt lat="46.78702" lon="-1.06008">
        <ele>109</ele>
        <time>2024-05-29T16:42:48Z</time>
      </trkpt>
      <trkpt lat="46.78698" lon="-1.06051">
        <ele>109</ele>
        <time>2024-05-29T16:42:53Z</time>
      </trkpt>
      <trkpt lat="46.78695" lon="-1.06163">
        <ele>109</ele>
        <time>2024-05-29T16:43:07Z</time>
      </trkpt>
      <trkpt lat="46.78689" lon="-1.06237">
        <ele>108</ele>
        <time>2024-05-29T16:43:16Z</time>
      </trkpt>
      <trkpt lat="46.7867" lon="-1.06386">
        <ele>109</ele>
        <time>2024-05-29T16:43:34Z</time>
      </trkpt>
      <trkpt lat="46.78644" lon="-1.06522">
        <ele>107</ele>
        <time>2024-05-29T16:43:51Z</time>
      </trkpt>
      <trkpt lat="46.78609" lon="-1.0664">
        <ele>103</ele>
        <time>2024-05-29T16:44:07Z</time>
      </trkpt>
      <trkpt lat="46.78558" lon="-1.06798">
        <ele>97</ele>
        <time>2024-05-29T16:44:28Z</time>
      </trkpt>
      <trkpt lat="46.7854" lon="-1.06836">
        <ele>96</ele>
        <time>2024-05-29T16:44:34Z</time>
      </trkpt>
      <trkpt lat="46.78516" lon="-1.06879">
        <ele>94</ele>
        <time>2024-05-29T16:44:41Z</time>
      </trkpt>
      <trkpt lat="46.78488" lon="-1.06919">
        <ele>93</ele>
        <time>2024-05-29T16:44:48Z</time>
      </trkpt>
      <trkpt lat="46.78465" lon="-1.06947">
        <ele>93</ele>
        <time>2024-05-29T16:44:53Z</time>
      </trkpt>
      <trkpt lat="46.78434" lon="-1.06976">
        <ele>93</ele>
        <time>2024-05-29T16:45:00Z</time>
      </trkpt>
      <trkpt lat="46.78401" lon="-1.07001">
        <ele>94</ele>
        <time>2024-05-29T16:45:06Z</time>
      </trkpt>
      <trkpt lat="46.78339" lon="-1.07035">
        <ele>99</ele>
        <time>2024-05-29T16:45:18Z</time>
      </trkpt>
      <trkpt lat="46.78243" lon="-1.07071">
        <ele>101</ele>
        <time>2024-05-29T16:45:36Z</time>
      </trkpt>
      <trkpt lat="46.78243" lon="-1.07084">
        <ele>101</ele>
        <time>2024-05-29T16:45:37Z</time>
      </trkpt>
      <trkpt lat="46.7824" lon="-1.07096">
        <ele>101</ele>
        <time>2024-05-29T16:45:39Z</time>
      </trkpt>
      <trkpt lat="46.78232" lon="-1.07105">
        <ele>101</ele>
        <time>2024-05-29T16:45:41Z</time>
      </trkpt>
      <trkpt lat="46.78223" lon="-1.07107">
        <ele>101</ele>
        <time>2024-05-29T16:45:42Z</time>
      </trkpt>
      <trkpt lat="46.78217" lon="-1.07104">
        <ele>101</ele>
        <time>2024-05-29T16:45:43Z</time>
      </trkpt>
      <trkpt lat="46.78212" lon="-1.07099">
        <ele>101</ele>
        <time>2024-05-29T16:45:44Z</time>
      </trkpt>
      <trkpt lat="46.78208" lon="-1.07091">
        <ele>101</ele>
        <time>2024-05-29T16:45:46Z</time>
      </trkpt>
      <trkpt lat="46.78192" lon="-1.07097">
        <ele>102</ele>
        <time>2024-05-29T16:45:48Z</time>
      </trkpt>
      <trkpt lat="46.78155" lon="-1.07106">
        <ele>102</ele>
        <time>2024-05-29T16:45:55Z</time>
      </trkpt>
      <trkpt lat="46.7799" lon="-1.07158">
        <ele>99</ele>
        <time>2024-05-29T16:46:25Z</time>
      </trkpt>
      <trkpt lat="46.77729" lon="-1.07237">
        <ele>92</ele>
        <time>2024-05-29T16:47:13Z</time>
      </trkpt>
      <trkpt lat="46.77688" lon="-1.07247">
        <ele>90</ele>
        <time>2024-05-29T16:47:20Z</time>
      </trkpt>
      <trkpt lat="46.7766" lon="-1.07251">
        <ele>90</ele>
        <time>2024-05-29T16:47:25Z</time>
      </trkpt>
      <trkpt lat="46.77411" lon="-1.07265">
        <ele>77</ele>
        <time>2024-05-29T16:48:09Z</time>
      </trkpt>
      <trkpt lat="46.77368" lon="-1.07277">
        <ele>77</ele>
        <time>2024-05-29T16:48:17Z</time>
      </trkpt>
      <trkpt lat="46.77324" lon="-1.07297">
        <ele>77</ele>
        <time>2024-05-29T16:48:25Z</time>
      </trkpt>
      <trkpt lat="46.77298" lon="-1.07313">
        <ele>76</ele>
        <time>2024-05-29T16:48:30Z</time>
      </trkpt>
      <trkpt lat="46.7725" lon="-1.07354">
        <ele>75</ele>
        <time>2024-05-29T16:48:40Z</time>
      </trkpt>
      <trkpt lat="46.77207" lon="-1.07402">
        <ele>73</ele>
        <time>2024-05-29T16:48:50Z</time>
      </trkpt>
      <trkpt lat="46.7718" lon="-1.07441">
        <ele>72</ele>
        <time>2024-05-29T16:48:57Z</time>
      </trkpt>
      <trkpt lat="46.77156" lon="-1.07488">
        <ele>70</ele>
        <time>2024-05-29T16:49:04Z</time>
      </trkpt>
      <trkpt lat="46.77122" lon="-1.07559">
        <ele>70</ele>
        <time>2024-05-29T16:49:14Z</time>
      </trkpt>
      <trkpt lat="46.77112" lon="-1.07579">
        <ele>70</ele>
        <time>2024-05-29T16:49:17Z</time>
      </trkpt>
      <trkpt lat="46.77091" lon="-1.07611">
        <ele>70</ele>
        <time>2024-05-29T16:49:23Z</time>
      </trkpt>
      <trkpt lat="46.77062" lon="-1.07642">
        <ele>70</ele>
        <time>2024-05-29T16:49:29Z</time>
      </trkpt>
      <trkpt lat="46.76883" lon="-1.07815">
        <ele>66</ele>
        <time>2024-05-29T16:50:07Z</time>
      </trkpt>
      <trkpt lat="46.76791" lon="-1.07904">
        <ele>63</ele>
        <time>2024-05-29T16:50:27Z</time>
      </trkpt>
      <trkpt lat="46.76778" lon="-1.07917">
        <ele>64</ele>
        <time>2024-05-29T16:50:30Z</time>
      </trkpt>
      <trkpt lat="46.7675" lon="-1.07947">
        <ele>65</ele>
        <time>2024-05-29T16:50:36Z</time>
      </trkpt>
      <trkpt lat="46.76727" lon="-1.07979">
        <ele>67</ele>
        <time>2024-05-29T16:50:42Z</time>
      </trkpt>
      <trkpt lat="46.76701" lon="-1.08019">
        <ele>68</ele>
        <time>2024-05-29T16:50:48Z</time>
      </trkpt>
      <trkpt lat="46.76402" lon="-1.08539">
        <ele>79</ele>
        <time>2024-05-29T16:52:11Z</time>
      </trkpt>
      <trkpt lat="46.7638" lon="-1.08569">
        <ele>78</ele>
        <time>2024-05-29T16:52:16Z</time>
      </trkpt>
      <trkpt lat="46.76367" lon="-1.08584">
        <ele>77</ele>
        <time>2024-05-29T16:52:19Z</time>
      </trkpt>
      <trkpt lat="46.76105" lon="-1.08809">
        <ele>79</ele>
        <time>2024-05-29T16:53:13Z</time>
      </trkpt>
      <trkpt lat="46.76075" lon="-1.08843">
        <ele>80</ele>
        <time>2024-05-29T16:53:20Z</time>
      </trkpt>
      <trkpt lat="46.75787" lon="-1.09246">
        <ele>66</ele>
        <time>2024-05-29T16:54:31Z</time>
      </trkpt>
      <trkpt lat="46.7569" lon="-1.09384">
        <ele>68</ele>
        <time>2024-05-29T16:54:55Z</time>
      </trkpt>
      <trkpt lat="46.75667" lon="-1.09409">
        <ele>68</ele>
        <time>2024-05-29T16:55:00Z</time>
      </trkpt>
      <trkpt lat="46.75642" lon="-1.09432">
        <ele>68</ele>
        <time>2024-05-29T16:55:06Z</time>
      </trkpt>
      <trkpt lat="46.75623" lon="-1.09442">
        <ele>68</ele>
        <time>2024-05-29T16:55:09Z</time>
      </trkpt>
      <trkpt lat="46.75585" lon="-1.09454">
        <ele>68</ele>
        <time>2024-05-29T16:55:16Z</time>
      </trkpt>
      <trkpt lat="46.75232" lon="-1.09542">
        <ele>62</ele>
        <time>2024-05-29T16:56:20Z</time>
      </trkpt>
      <trkpt lat="46.75224" lon="-1.09551">
        <ele>62</ele>
        <time>2024-05-29T16:56:22Z</time>
      </trkpt>
      <trkpt lat="46.75218" lon="-1.09574">
        <ele>63</ele>
        <time>2024-05-29T16:56:25Z</time>
      </trkpt>
      <trkpt lat="46.75201" lon="-1.09591">
        <ele>62</ele>
        <time>2024-05-29T16:56:28Z</time>
      </trkpt>
      <trkpt lat="46.75193" lon="-1.096">
        <ele>62</ele>
        <time>2024-05-29T16:56:30Z</time>
      </trkpt>
      <trkpt lat="46.75163" lon="-1.09609">
        <ele>61</ele>
        <time>2024-05-29T16:56:36Z</time>
      </trkpt>
      <trkpt lat="46.75145" lon="-1.09617">
        <ele>60</ele>
        <time>2024-05-29T16:56:39Z</time>
      </trkpt>
      <trkpt lat="46.75135" lon="-1.09624">
        <ele>59</ele>
        <time>2024-05-29T16:56:41Z</time>
      </trkpt>
      <trkpt lat="46.75126" lon="-1.09634">
        <ele>59</ele>
        <time>2024-05-29T16:56:43Z</time>
      </trkpt>
      <trkpt lat="46.75073" lon="-1.09699">
        <ele>57</ele>
        <time>2024-05-29T16:56:55Z</time>
      </trkpt>
      <trkpt lat="46.75055" lon="-1.09724">
        <ele>56</ele>
        <time>2024-05-29T16:57:00Z</time>
      </trkpt>
      <trkpt lat="46.75042" lon="-1.09749">
        <ele>55</ele>
        <time>2024-05-29T16:57:04Z</time>
      </trkpt>
      <trkpt lat="46.75032" lon="-1.09774">
        <ele>55</ele>
        <time>2024-05-29T16:57:07Z</time>
      </trkpt>
      <trkpt lat="46.75025" lon="-1.09806">
        <ele>56</ele>
        <time>2024-05-29T16:57:11Z</time>
      </trkpt>
      <trkpt lat="46.75015" lon="-1.09903">
        <ele>57</ele>
        <time>2024-05-29T16:57:23Z</time>
      </trkpt>
      <trkpt lat="46.74952" lon="-1.10601">
        <ele>55</ele>
        <time>2024-05-29T16:58:49Z</time>
      </trkpt>
      <trkpt lat="46.74951" lon="-1.10626">
        <ele>55</ele>
        <time>2024-05-29T16:58:52Z</time>
      </trkpt>
      <trkpt lat="46.74952" lon="-1.10655">
        <ele>56</ele>
        <time>2024-05-29T16:58:56Z</time>
      </trkpt>
      <trkpt lat="46.74958" lon="-1.10686">
        <ele>56</ele>
        <time>2024-05-29T16:58:59Z</time>
      </trkpt>
      <trkpt lat="46.75002" lon="-1.10809">
        <ele>58</ele>
        <time>2024-05-29T16:59:16Z</time>
      </trkpt>
      <trkpt lat="46.75008" lon="-1.1083">
        <ele>58</ele>
        <time>2024-05-29T16:59:19Z</time>
      </trkpt>
      <trkpt lat="46.75013" lon="-1.10859">
        <ele>58</ele>
        <time>2024-05-29T16:59:23Z</time>
      </trkpt>
      <trkpt lat="46.75017" lon="-1.10898">
        <ele>58</ele>
        <time>2024-05-29T16:59:28Z</time>
      </trkpt>
      <trkpt lat="46.75018" lon="-1.10977">
        <ele>59</ele>
        <time>2024-05-29T16:59:37Z</time>
      </trkpt>
      <trkpt lat="46.75016" lon="-1.11158">
        <ele>59</ele>
        <time>2024-05-29T16:59:59Z</time>
      </trkpt>
      <trkpt lat="46.75011" lon="-1.1121">
        <ele>59</ele>
        <time>2024-05-29T17:00:06Z</time>
      </trkpt>
      <trkpt lat="46.75006" lon="-1.11232">
        <ele>58</ele>
        <time>2024-05-29T17:00:09Z</time>
      </trkpt>
      <trkpt lat="46.75" lon="-1.11255">
        <ele>58</ele>
        <time>2024-05-29T17:00:12Z</time>
      </trkpt>
      <trkpt lat="46.74982" lon="-1.113">
        <ele>56</ele>
        <time>2024-05-29T17:00:18Z</time>
      </trkpt>
      <trkpt lat="46.7495" lon="-1.1136">
        <ele>52</ele>
        <time>2024-05-29T17:00:27Z</time>
      </trkpt>
      <trkpt lat="46.74931" lon="-1.11388">
        <ele>51</ele>
        <time>2024-05-29T17:00:32Z</time>
      </trkpt>
      <trkpt lat="46.7491" lon="-1.1141">
        <ele>50</ele>
        <time>2024-05-29T17:00:37Z</time>
      </trkpt>
      <trkpt lat="46.74885" lon="-1.11429">
        <ele>50</ele>
        <time>2024-05-29T17:00:42Z</time>
      </trkpt>
      <trkpt lat="46.74859" lon="-1.11442">
        <ele>49</ele>
        <time>2024-05-29T17:00:46Z</time>
      </trkpt>
      <trkpt lat="46.74837" lon="-1.11446">
        <ele>49</ele>
        <time>2024-05-29T17:00:50Z</time>
      </trkpt>
      <trkpt lat="46.74591" lon="-1.11424">
        <ele>50</ele>
        <time>2024-05-29T17:01:34Z</time>
      </trkpt>
      <trkpt lat="46.74567" lon="-1.11422">
        <ele>51</ele>
        <time>2024-05-29T17:01:39Z</time>
      </trkpt>
      <trkpt lat="46.74539" lon="-1.11419">
        <ele>52</ele>
        <time>2024-05-29T17:01:44Z</time>
      </trkpt>
      <trkpt lat="46.74473" lon="-1.11433">
        <ele>53</ele>
        <time>2024-05-29T17:01:55Z</time>
      </trkpt>
      <trkpt lat="46.74441" lon="-1.11438">
        <ele>53</ele>
        <time>2024-05-29T17:02:01Z</time>
      </trkpt>
      <trkpt lat="46.74396" lon="-1.11431">
        <ele>53</ele>
        <time>2024-05-29T17:02:09Z</time>
      </trkpt>
      <trkpt lat="46.74367" lon="-1.11421">
        <ele>53</ele>
        <time>2024-05-29T17:02:14Z</time>
      </trkpt>
      <trkpt lat="46.74327" lon="-1.11423">
        <ele>53</ele>
        <time>2024-05-29T17:02:22Z</time>
      </trkpt>
      <trkpt lat="46.74319" lon="-1.11421">
        <ele>53</ele>
        <time>2024-05-29T17:02:23Z</time>
      </trkpt>
      <trkpt lat="46.74312" lon="-1.1144">
        <ele>53</ele>
        <time>2024-05-29T17:02:26Z</time>
      </trkpt>
      <trkpt lat="46.74306" lon="-1.11448">
        <ele>53</ele>
        <time>2024-05-29T17:02:27Z</time>
      </trkpt>
      <trkpt lat="46.74249" lon="-1.11493">
        <ele>53</ele>
        <time>2024-05-29T17:02:39Z</time>
      </trkpt>
      <trkpt lat="46.74121" lon="-1.1161">
        <ele>53</ele>
        <time>2024-05-29T17:03:06Z</time>
      </trkpt>
      <trkpt lat="46.74093" lon="-1.11638">
        <ele>53</ele>
        <time>2024-05-29T17:03:12Z</time>
      </trkpt>
      <trkpt lat="46.7393" lon="-1.11808">
        <ele>57</ele>
        <time>2024-05-29T17:03:47Z</time>
      </trkpt>
      <trkpt lat="46.73779" lon="-1.11975">
        <ele>55</ele>
        <time>2024-05-29T17:04:21Z</time>
      </trkpt>
      <trkpt lat="46.73708" lon="-1.12049">
        <ele>51</ele>
        <time>2024-05-29T17:04:36Z</time>
      </trkpt>
      <trkpt lat="46.73681" lon="-1.12088">
        <ele>49</ele>
        <time>2024-05-29T17:04:43Z</time>
      </trkpt>
      <trkpt lat="46.73656" lon="-1.12126">
        <ele>48</ele>
        <time>2024-05-29T17:04:50Z</time>
      </trkpt>
      <trkpt lat="46.73626" lon="-1.12177">
        <ele>47</ele>
        <time>2024-05-29T17:04:58Z</time>
      </trkpt>
      <trkpt lat="46.73462" lon="-1.12441">
        <ele>46</ele>
        <time>2024-05-29T17:05:41Z</time>
      </trkpt>
      <trkpt lat="46.73452" lon="-1.12464">
        <ele>46</ele>
        <time>2024-05-29T17:05:45Z</time>
      </trkpt>
      <trkpt lat="46.73433" lon="-1.12514">
        <ele>46</ele>
        <time>2024-05-29T17:05:52Z</time>
      </trkpt>
      <trkpt lat="46.73421" lon="-1.12551">
        <ele>46</ele>
        <time>2024-05-29T17:05:57Z</time>
      </trkpt>
      <trkpt lat="46.733" lon="-1.12908">
        <ele>46</ele>
        <time>2024-05-29T17:06:45Z</time>
      </trkpt>
      <trkpt lat="46.73291" lon="-1.12938">
        <ele>46</ele>
        <time>2024-05-29T17:06:49Z</time>
      </trkpt>
      <trkpt lat="46.73287" lon="-1.1297">
        <ele>46</ele>
        <time>2024-05-29T17:06:53Z</time>
      </trkpt>
      <trkpt lat="46.73277" lon="-1.13127">
        <ele>46</ele>
        <time>2024-05-29T17:07:12Z</time>
      </trkpt>
      <trkpt lat="46.73261" lon="-1.1334">
        <ele>48</ele>
        <time>2024-05-29T17:07:38Z</time>
      </trkpt>
      <trkpt lat="46.73259" lon="-1.1335">
        <ele>48</ele>
        <time>2024-05-29T17:07:40Z</time>
      </trkpt>
      <trkpt lat="46.73251" lon="-1.13392">
        <ele>49</ele>
        <time>2024-05-29T17:07:45Z</time>
      </trkpt>
      <trkpt lat="46.73073" lon="-1.14029">
        <ele>76</ele>
        <time>2024-05-29T17:09:09Z</time>
      </trkpt>
      <trkpt lat="46.73069" lon="-1.1407">
        <ele>77</ele>
        <time>2024-05-29T17:09:14Z</time>
      </trkpt>
      <trkpt lat="46.73072" lon="-1.14103">
        <ele>79</ele>
        <time>2024-05-29T17:09:18Z</time>
      </trkpt>
      <trkpt lat="46.73082" lon="-1.14136">
        <ele>80</ele>
        <time>2024-05-29T17:09:22Z</time>
      </trkpt>
      <trkpt lat="46.73093" lon="-1.14158">
        <ele>81</ele>
        <time>2024-05-29T17:09:26Z</time>
      </trkpt>
      <trkpt lat="46.73122" lon="-1.14193">
        <ele>81</ele>
        <time>2024-05-29T17:09:32Z</time>
      </trkpt>
      <trkpt lat="46.73133" lon="-1.1421">
        <ele>81</ele>
        <time>2024-05-29T17:09:35Z</time>
      </trkpt>
      <trkpt lat="46.7314" lon="-1.14234">
        <ele>81</ele>
        <time>2024-05-29T17:09:39Z</time>
      </trkpt>
      <trkpt lat="46.73141" lon="-1.1426">
        <ele>82</ele>
        <time>2024-05-29T17:09:42Z</time>
      </trkpt>
      <trkpt lat="46.73136" lon="-1.14287">
        <ele>85</ele>
        <time>2024-05-29T17:09:45Z</time>
      </trkpt>
      <trkpt lat="46.73127" lon="-1.14312">
        <ele>87</ele>
        <time>2024-05-29T17:09:49Z</time>
      </trkpt>
      <trkpt lat="46.73113" lon="-1.14334">
        <ele>89</ele>
        <time>2024-05-29T17:09:52Z</time>
      </trkpt>
      <trkpt lat="46.73094" lon="-1.14348">
        <ele>90</ele>
        <time>2024-05-29T17:09:56Z</time>
      </trkpt>
      <trkpt lat="46.73074" lon="-1.14353">
        <ele>91</ele>
        <time>2024-05-29T17:10:00Z</time>
      </trkpt>
      <trkpt lat="46.72961" lon="-1.14331">
        <ele>96</ele>
        <time>2024-05-29T17:10:20Z</time>
      </trkpt>
      <trkpt lat="46.72944" lon="-1.14332">
        <ele>97</ele>
        <time>2024-05-29T17:10:23Z</time>
      </trkpt>
      <trkpt lat="46.72929" lon="-1.14336">
        <ele>98</ele>
        <time>2024-05-29T17:10:26Z</time>
      </trkpt>
      <trkpt lat="46.72912" lon="-1.14343">
        <ele>99</ele>
        <time>2024-05-29T17:10:29Z</time>
      </trkpt>
      <trkpt lat="46.72893" lon="-1.14357">
        <ele>100</ele>
        <time>2024-05-29T17:10:33Z</time>
      </trkpt>
      <trkpt lat="46.72869" lon="-1.14385">
        <ele>101</ele>
        <time>2024-05-29T17:10:38Z</time>
      </trkpt>
      <trkpt lat="46.72857" lon="-1.14407">
        <ele>102</ele>
        <time>2024-05-29T17:10:41Z</time>
      </trkpt>
      <trkpt lat="46.72848" lon="-1.14431">
        <ele>102</ele>
        <time>2024-05-29T17:10:45Z</time>
      </trkpt>
      <trkpt lat="46.72841" lon="-1.14461">
        <ele>101</ele>
        <time>2024-05-29T17:10:49Z</time>
      </trkpt>
      <trkpt lat="46.72765" lon="-1.14957">
        <ele>89</ele>
        <time>2024-05-29T17:11:51Z</time>
      </trkpt>
      <trkpt lat="46.72752" lon="-1.15018">
        <ele>87</ele>
        <time>2024-05-29T17:11:58Z</time>
      </trkpt>
      <trkpt lat="46.72741" lon="-1.15046">
        <ele>86</ele>
        <time>2024-05-29T17:12:02Z</time>
      </trkpt>
      <trkpt lat="46.72664" lon="-1.15211">
        <ele>81</ele>
        <time>2024-05-29T17:12:27Z</time>
      </trkpt>
      <trkpt lat="46.72617" lon="-1.15324">
        <ele>84</ele>
        <time>2024-05-29T17:12:43Z</time>
      </trkpt>
      <trkpt lat="46.72602" lon="-1.15368">
        <ele>85</ele>
        <time>2024-05-29T17:12:49Z</time>
      </trkpt>
      <trkpt lat="46.72533" lon="-1.15553">
        <ele>89</ele>
        <time>2024-05-29T17:13:15Z</time>
      </trkpt>
      <trkpt lat="46.72518" lon="-1.15601">
        <ele>90</ele>
        <time>2024-05-29T17:13:21Z</time>
      </trkpt>
      <trkpt lat="46.725" lon="-1.15669">
        <ele>92</ele>
        <time>2024-05-29T17:13:30Z</time>
      </trkpt>
      <trkpt lat="46.72483" lon="-1.15745">
        <ele>93</ele>
        <time>2024-05-29T17:13:40Z</time>
      </trkpt>
      <trkpt lat="46.72437" lon="-1.15944">
        <ele>97</ele>
        <time>2024-05-29T17:14:05Z</time>
      </trkpt>
      <trkpt lat="46.72419" lon="-1.16029">
        <ele>98</ele>
        <time>2024-05-29T17:14:16Z</time>
      </trkpt>
      <trkpt lat="46.72407" lon="-1.16106">
        <ele>98</ele>
        <time>2024-05-29T17:14:26Z</time>
      </trkpt>
      <trkpt lat="46.72369" lon="-1.16488">
        <ele>97</ele>
        <time>2024-05-29T17:15:13Z</time>
      </trkpt>
      <trkpt lat="46.72363" lon="-1.16535">
        <ele>97</ele>
        <time>2024-05-29T17:15:19Z</time>
      </trkpt>
      <trkpt lat="46.72353" lon="-1.16581">
        <ele>97</ele>
        <time>2024-05-29T17:15:24Z</time>
      </trkpt>
      <trkpt lat="46.72202" lon="-1.17092">
        <ele>89</ele>
        <time>2024-05-29T17:16:32Z</time>
      </trkpt>
      <trkpt lat="46.72195" lon="-1.17123">
        <ele>89</ele>
        <time>2024-05-29T17:16:36Z</time>
      </trkpt>
      <trkpt lat="46.72192" lon="-1.17152">
        <ele>89</ele>
        <time>2024-05-29T17:16:40Z</time>
      </trkpt>
      <trkpt lat="46.7219" lon="-1.17188">
        <ele>88</ele>
        <time>2024-05-29T17:16:44Z</time>
      </trkpt>
      <trkpt lat="46.72192" lon="-1.17218">
        <ele>88</ele>
        <time>2024-05-29T17:16:48Z</time>
      </trkpt>
      <trkpt lat="46.72262" lon="-1.17603">
        <ele>86</ele>
        <time>2024-05-29T17:17:37Z</time>
      </trkpt>
      <trkpt lat="46.72263" lon="-1.1762">
        <ele>86</ele>
        <time>2024-05-29T17:17:39Z</time>
      </trkpt>
      <trkpt lat="46.7226" lon="-1.17649">
        <ele>86</ele>
        <time>2024-05-29T17:17:42Z</time>
      </trkpt>
      <trkpt lat="46.72252" lon="-1.17677">
        <ele>85</ele>
        <time>2024-05-29T17:17:46Z</time>
      </trkpt>
      <trkpt lat="46.7224" lon="-1.177">
        <ele>86</ele>
        <time>2024-05-29T17:17:49Z</time>
      </trkpt>
      <trkpt lat="46.7223" lon="-1.17713">
        <ele>86</ele>
        <time>2024-05-29T17:17:52Z</time>
      </trkpt>
      <trkpt lat="46.72189" lon="-1.1775">
        <ele>87</ele>
        <time>2024-05-29T17:18:00Z</time>
      </trkpt>
      <trkpt lat="46.72137" lon="-1.17801">
        <ele>90</ele>
        <time>2024-05-29T17:18:12Z</time>
      </trkpt>
      <trkpt lat="46.7215" lon="-1.17879">
        <ele>90</ele>
        <time>2024-05-29T17:18:21Z</time>
      </trkpt>
      <trkpt lat="46.72161" lon="-1.17875">
        <ele>89</ele>
        <time>2024-05-29T17:18:23Z</time>
      </trkpt>
      <trkpt lat="46.72162" lon="-1.17881">
        <ele>89</ele>
        <time>2024-05-29T17:18:24Z</time>
      </trkpt>
      <trkpt lat="46.72151" lon="-1.17885">
        <ele>90</ele>
        <time>2024-05-29T17:18:26Z</time>
      </trkpt>
      <trkpt lat="46.72137" lon="-1.17897">
        <ele>90</ele>
        <time>2024-05-29T17:18:29Z</time>
      </trkpt>
      <trkpt lat="46.72133" lon="-1.17907">
        <ele>90</ele>
        <time>2024-05-29T17:18:30Z</time>
      </trkpt>
      <trkpt lat="46.7213" lon="-1.17942">
        <ele>90</ele>
        <time>2024-05-29T17:18:35Z</time>
      </trkpt>
      <trkpt lat="46.72128" lon="-1.17955">
        <ele>90</ele>
        <time>2024-05-29T17:18:36Z</time>
      </trkpt>
      <trkpt lat="46.72103" lon="-1.18012">
        <ele>91</ele>
        <time>2024-05-29T17:18:45Z</time>
      </trkpt>
      <trkpt lat="46.72098" lon="-1.18031">
        <ele>91</ele>
        <time>2024-05-29T17:18:47Z</time>
      </trkpt>
      <trkpt lat="46.72095" lon="-1.18032">
        <ele>91</ele>
        <time>2024-05-29T17:18:48Z</time>
      </trkpt>
      <trkpt lat="46.72094" lon="-1.18051">
        <ele>91</ele>
        <time>2024-05-29T17:18:50Z</time>
      </trkpt>
      <trkpt lat="46.72095" lon="-1.18071">
        <ele>92</ele>
        <time>2024-05-29T17:18:52Z</time>
      </trkpt>
      <trkpt lat="46.72152" lon="-1.18286">
        <ele>94</ele>
        <time>2024-05-29T17:19:21Z</time>
      </trkpt>
      <trkpt lat="46.72162" lon="-1.18343">
        <ele>94</ele>
        <time>2024-05-29T17:19:28Z</time>
      </trkpt>
      <trkpt lat="46.72184" lon="-1.18722">
        <ele>96</ele>
        <time>2024-05-29T17:20:14Z</time>
      </trkpt>
      <trkpt lat="46.72186" lon="-1.1879">
        <ele>95</ele>
        <time>2024-05-29T17:20:22Z</time>
      </trkpt>
      <trkpt lat="46.72184" lon="-1.18859">
        <ele>95</ele>
        <time>2024-05-29T17:20:31Z</time>
      </trkpt>
      <trkpt lat="46.72176" lon="-1.18927">
        <ele>95</ele>
        <time>2024-05-29T17:20:39Z</time>
      </trkpt>
      <trkpt lat="46.72164" lon="-1.18987">
        <ele>93</ele>
        <time>2024-05-29T17:20:47Z</time>
      </trkpt>
      <trkpt lat="46.72148" lon="-1.19037">
        <ele>93</ele>
        <time>2024-05-29T17:20:54Z</time>
      </trkpt>
      <trkpt lat="46.72115" lon="-1.19115">
        <ele>95</ele>
        <time>2024-05-29T17:21:05Z</time>
      </trkpt>
      <trkpt lat="46.72095" lon="-1.19181">
        <ele>96</ele>
        <time>2024-05-29T17:21:14Z</time>
      </trkpt>
      <trkpt lat="46.72066" lon="-1.19304">
        <ele>95</ele>
        <time>2024-05-29T17:21:29Z</time>
      </trkpt>
      <trkpt lat="46.72054" lon="-1.19362">
        <ele>96</ele>
        <time>2024-05-29T17:21:37Z</time>
      </trkpt>
      <trkpt lat="46.72" lon="-1.19543">
        <ele>99</ele>
        <time>2024-05-29T17:22:01Z</time>
      </trkpt>
      <trkpt lat="46.7199" lon="-1.19581">
        <ele>99</ele>
        <time>2024-05-29T17:22:06Z</time>
      </trkpt>
      <trkpt lat="46.71974" lon="-1.19683">
        <ele>100</ele>
        <time>2024-05-29T17:22:19Z</time>
      </trkpt>
      <trkpt lat="46.7197" lon="-1.19746">
        <ele>100</ele>
        <time>2024-05-29T17:22:26Z</time>
      </trkpt>
      <trkpt lat="46.71969" lon="-1.19842">
        <ele>100</ele>
        <time>2024-05-29T17:22:38Z</time>
      </trkpt>
      <trkpt lat="46.7197" lon="-1.19894">
        <ele>100</ele>
        <time>2024-05-29T17:22:44Z</time>
      </trkpt>
      <trkpt lat="46.71971" lon="-1.19917">
        <ele>100</ele>
        <time>2024-05-29T17:22:47Z</time>
      </trkpt>
      <trkpt lat="46.71974" lon="-1.19935">
        <ele>100</ele>
        <time>2024-05-29T17:22:50Z</time>
      </trkpt>
      <trkpt lat="46.71982" lon="-1.19975">
        <ele>100</ele>
        <time>2024-05-29T17:22:55Z</time>
      </trkpt>
      <trkpt lat="46.72" lon="-1.20021">
        <ele>100</ele>
        <time>2024-05-29T17:23:01Z</time>
      </trkpt>
      <trkpt lat="46.72024" lon="-1.20075">
        <ele>100</ele>
        <time>2024-05-29T17:23:09Z</time>
      </trkpt>
      <trkpt lat="46.72031" lon="-1.2011">
        <ele>100</ele>
        <time>2024-05-29T17:23:13Z</time>
      </trkpt>
      <trkpt lat="46.72031" lon="-1.20119">
        <ele>100</ele>
        <time>2024-05-29T17:23:14Z</time>
      </trkpt>
      <trkpt lat="46.72024" lon="-1.20149">
        <ele>100</ele>
        <time>2024-05-29T17:23:18Z</time>
      </trkpt>
      <trkpt lat="46.72019" lon="-1.20163">
        <ele>99</ele>
        <time>2024-05-29T17:23:20Z</time>
      </trkpt>
      <trkpt lat="46.71986" lon="-1.20222">
        <ele>99</ele>
        <time>2024-05-29T17:23:30Z</time>
      </trkpt>
      <trkpt lat="46.71886" lon="-1.20429">
        <ele>98</ele>
        <time>2024-05-29T17:24:00Z</time>
      </trkpt>
      <trkpt lat="46.71876" lon="-1.20447">
        <ele>98</ele>
        <time>2024-05-29T17:24:03Z</time>
      </trkpt>
      <trkpt lat="46.71844" lon="-1.20488">
        <ele>97</ele>
        <time>2024-05-29T17:24:11Z</time>
      </trkpt>
      <trkpt lat="46.71692" lon="-1.20665">
        <ele>93</ele>
        <time>2024-05-29T17:24:45Z</time>
      </trkpt>
      <trkpt lat="46.71672" lon="-1.20692">
        <ele>92</ele>
        <time>2024-05-29T17:24:50Z</time>
      </trkpt>
      <trkpt lat="46.71666" lon="-1.20706">
        <ele>92</ele>
        <time>2024-05-29T17:24:52Z</time>
      </trkpt>
      <trkpt lat="46.7166" lon="-1.20736">
        <ele>91</ele>
        <time>2024-05-29T17:24:56Z</time>
      </trkpt>
      <trkpt lat="46.71652" lon="-1.20824">
        <ele>90</ele>
        <time>2024-05-29T17:25:07Z</time>
      </trkpt>
      <trkpt lat="46.71645" lon="-1.20869">
        <ele>90</ele>
        <time>2024-05-29T17:25:13Z</time>
      </trkpt>
      <trkpt lat="46.71641" lon="-1.20885">
        <ele>89</ele>
        <time>2024-05-29T17:25:15Z</time>
      </trkpt>
      <trkpt lat="46.7163" lon="-1.20905">
        <ele>89</ele>
        <time>2024-05-29T17:25:18Z</time>
      </trkpt>
      <trkpt lat="46.71616" lon="-1.20923">
        <ele>88</ele>
        <time>2024-05-29T17:25:21Z</time>
      </trkpt>
      <trkpt lat="46.7157" lon="-1.20964">
        <ele>88</ele>
        <time>2024-05-29T17:25:31Z</time>
      </trkpt>
      <trkpt lat="46.71532" lon="-1.21032">
        <ele>89</ele>
        <time>2024-05-29T17:25:41Z</time>
      </trkpt>
      <trkpt lat="46.71523" lon="-1.21043">
        <ele>90</ele>
        <time>2024-05-29T17:25:43Z</time>
      </trkpt>
      <trkpt lat="46.71513" lon="-1.21051">
        <ele>90</ele>
        <time>2024-05-29T17:25:46Z</time>
      </trkpt>
      <trkpt lat="46.7148" lon="-1.21073">
        <ele>90</ele>
        <time>2024-05-29T17:25:52Z</time>
      </trkpt>
      <trkpt lat="46.7145" lon="-1.21082">
        <ele>91</ele>
        <time>2024-05-29T17:25:57Z</time>
      </trkpt>
      <trkpt lat="46.71396" lon="-1.21089">
        <ele>92</ele>
        <time>2024-05-29T17:26:07Z</time>
      </trkpt>
      <trkpt lat="46.71388" lon="-1.21095">
        <ele>92</ele>
        <time>2024-05-29T17:26:09Z</time>
      </trkpt>
      <trkpt lat="46.71384" lon="-1.21101">
        <ele>92</ele>
        <time>2024-05-29T17:26:10Z</time>
      </trkpt>
      <trkpt lat="46.7137" lon="-1.21092">
        <ele>92</ele>
        <time>2024-05-29T17:26:12Z</time>
      </trkpt>
      <trkpt lat="46.71362" lon="-1.2109">
        <ele>92</ele>
        <time>2024-05-29T17:26:14Z</time>
      </trkpt>
      <trkpt lat="46.71349" lon="-1.21091">
        <ele>93</ele>
        <time>2024-05-29T17:26:16Z</time>
      </trkpt>
      <trkpt lat="46.7134" lon="-1.21094">
        <ele>93</ele>
        <time>2024-05-29T17:26:18Z</time>
      </trkpt>
      <trkpt lat="46.71266" lon="-1.21132">
        <ele>94</ele>
        <time>2024-05-29T17:26:32Z</time>
      </trkpt>
      <trkpt lat="46.71166" lon="-1.21167">
        <ele>98</ele>
        <time>2024-05-29T17:26:50Z</time>
      </trkpt>
      <trkpt lat="46.71027" lon="-1.21208">
        <ele>99</ele>
        <time>2024-05-29T17:27:15Z</time>
      </trkpt>
      <trkpt lat="46.70997" lon="-1.2122">
        <ele>98</ele>
        <time>2024-05-29T17:27:21Z</time>
      </trkpt>
      <trkpt lat="46.70909" lon="-1.21266">
        <ele>100</ele>
        <time>2024-05-29T17:27:37Z</time>
      </trkpt>
      <trkpt lat="46.70871" lon="-1.21281">
        <ele>99</ele>
        <time>2024-05-29T17:27:44Z</time>
      </trkpt>
      <trkpt lat="46.7082" lon="-1.21295">
        <ele>99</ele>
        <time>2024-05-29T17:27:54Z</time>
      </trkpt>
      <trkpt lat="46.70742" lon="-1.21305">
        <ele>99</ele>
        <time>2024-05-29T17:28:08Z</time>
      </trkpt>
      <trkpt lat="46.70692" lon="-1.21306">
        <ele>101</ele>
        <time>2024-05-29T17:28:17Z</time>
      </trkpt>
      <trkpt lat="46.70663" lon="-1.21305">
        <ele>102</ele>
        <time>2024-05-29T17:28:22Z</time>
      </trkpt>
      <trkpt lat="46.70507" lon="-1.21286">
        <ele>104</ele>
        <time>2024-05-29T17:28:50Z</time>
      </trkpt>
      <trkpt lat="46.70242" lon="-1.2124">
        <ele>103</ele>
        <time>2024-05-29T17:29:37Z</time>
      </trkpt>
      <trkpt lat="46.70205" lon="-1.21241">
        <ele>102</ele>
        <time>2024-05-29T17:29:44Z</time>
      </trkpt>
      <trkpt lat="46.70185" lon="-1.21247">
        <ele>102</ele>
        <time>2024-05-29T17:29:47Z</time>
      </trkpt>
      <trkpt lat="46.70164" lon="-1.21257">
        <ele>102</ele>
        <time>2024-05-29T17:29:51Z</time>
      </trkpt>
      <trkpt lat="46.69904" lon="-1.21413">
        <ele>100</ele>
        <time>2024-05-29T17:30:41Z</time>
      </trkpt>
      <trkpt lat="46.69547" lon="-1.21572">
        <ele>84</ele>
        <time>2024-05-29T17:31:48Z</time>
      </trkpt>
      <trkpt lat="46.69531" lon="-1.21578">
        <ele>82</ele>
        <time>2024-05-29T17:31:51Z</time>
      </trkpt>
      <trkpt lat="46.69518" lon="-1.2158">
        <ele>81</ele>
        <time>2024-05-29T17:31:53Z</time>
      </trkpt>
      <trkpt lat="46.69507" lon="-1.21579">
        <ele>80</ele>
        <time>2024-05-29T17:31:55Z</time>
      </trkpt>
      <trkpt lat="46.69403" lon="-1.21539">
        <ele>79</ele>
        <time>2024-05-29T17:32:14Z</time>
      </trkpt>
      <trkpt lat="46.69383" lon="-1.21535">
        <ele>80</ele>
        <time>2024-05-29T17:32:18Z</time>
      </trkpt>
      <trkpt lat="46.69372" lon="-1.21537">
        <ele>81</ele>
        <time>2024-05-29T17:32:20Z</time>
      </trkpt>
      <trkpt lat="46.69354" lon="-1.21551">
        <ele>81</ele>
        <time>2024-05-29T17:32:23Z</time>
      </trkpt>
      <trkpt lat="46.6926" lon="-1.21677">
        <ele>85</ele>
        <time>2024-05-29T17:32:46Z</time>
      </trkpt>
      <trkpt lat="46.69242" lon="-1.21693">
        <ele>86</ele>
        <time>2024-05-29T17:32:50Z</time>
      </trkpt>
      <trkpt lat="46.69234" lon="-1.21698">
        <ele>86</ele>
        <time>2024-05-29T17:32:51Z</time>
      </trkpt>
      <trkpt lat="46.69225" lon="-1.217">
        <ele>86</ele>
        <time>2024-05-29T17:32:53Z</time>
      </trkpt>
      <trkpt lat="46.69202" lon="-1.21698">
        <ele>88</ele>
        <time>2024-05-29T17:32:57Z</time>
      </trkpt>
      <trkpt lat="46.69191" lon="-1.21693">
        <ele>88</ele>
        <time>2024-05-29T17:32:59Z</time>
      </trkpt>
      <trkpt lat="46.68999" lon="-1.2161">
        <ele>101</ele>
        <time>2024-05-29T17:33:35Z</time>
      </trkpt>
      <trkpt lat="46.68975" lon="-1.21612">
        <ele>101</ele>
        <time>2024-05-29T17:33:39Z</time>
      </trkpt>
      <trkpt lat="46.68919" lon="-1.21633">
        <ele>101</ele>
        <time>2024-05-29T17:33:49Z</time>
      </trkpt>
      <trkpt lat="46.68801" lon="-1.21683">
        <ele>102</ele>
        <time>2024-05-29T17:34:11Z</time>
      </trkpt>
      <trkpt lat="46.68784" lon="-1.21685">
        <ele>102</ele>
        <time>2024-05-29T17:34:14Z</time>
      </trkpt>
      <trkpt lat="46.68775" lon="-1.21683">
        <ele>102</ele>
        <time>2024-05-29T17:34:16Z</time>
      </trkpt>
      <trkpt lat="46.68686" lon="-1.21618">
        <ele>102</ele>
        <time>2024-05-29T17:34:33Z</time>
      </trkpt>
      <trkpt lat="46.68674" lon="-1.21611">
        <ele>102</ele>
        <time>2024-05-29T17:34:36Z</time>
      </trkpt>
      <trkpt lat="46.6848" lon="-1.21585">
        <ele>104</ele>
        <time>2024-05-29T17:35:10Z</time>
      </trkpt>
      <trkpt lat="46.68431" lon="-1.21583">
        <ele>104</ele>
        <time>2024-05-29T17:35:19Z</time>
      </trkpt>
      <trkpt lat="46.68395" lon="-1.21588">
        <ele>103</ele>
        <time>2024-05-29T17:35:26Z</time>
      </trkpt>
      <trkpt lat="46.68336" lon="-1.21604">
        <ele>101</ele>
        <time>2024-05-29T17:35:36Z</time>
      </trkpt>
      <trkpt lat="46.68237" lon="-1.21639">
        <ele>103</ele>
        <time>2024-05-29T17:35:54Z</time>
      </trkpt>
      <trkpt lat="46.68178" lon="-1.21671">
        <ele>105</ele>
        <time>2024-05-29T17:36:06Z</time>
      </trkpt>
      <trkpt lat="46.68153" lon="-1.21691">
        <ele>105</ele>
        <time>2024-05-29T17:36:11Z</time>
      </trkpt>
      <trkpt lat="46.68069" lon="-1.21768">
        <ele>106</ele>
        <time>2024-05-29T17:36:28Z</time>
      </trkpt>
      <trkpt lat="46.68032" lon="-1.21794">
        <ele>106</ele>
        <time>2024-05-29T17:36:36Z</time>
      </trkpt>
      <trkpt lat="46.67993" lon="-1.21815">
        <ele>105</ele>
        <time>2024-05-29T17:36:43Z</time>
      </trkpt>
      <trkpt lat="46.67977" lon="-1.21819">
        <ele>105</ele>
        <time>2024-05-29T17:36:46Z</time>
      </trkpt>
      <trkpt lat="46.67911" lon="-1.21831">
        <ele>103</ele>
        <time>2024-05-29T17:36:58Z</time>
      </trkpt>
      <trkpt lat="46.67883" lon="-1.21841">
        <ele>103</ele>
        <time>2024-05-29T17:37:03Z</time>
      </trkpt>
      <trkpt lat="46.67852" lon="-1.21856">
        <ele>103</ele>
        <time>2024-05-29T17:37:09Z</time>
      </trkpt>
      <trkpt lat="46.678" lon="-1.21899">
        <ele>101</ele>
        <time>2024-05-29T17:37:19Z</time>
      </trkpt>
      <trkpt lat="46.67656" lon="-1.22019">
        <ele>97</ele>
        <time>2024-05-29T17:37:49Z</time>
      </trkpt>
      <trkpt lat="46.67616" lon="-1.22045">
        <ele>97</ele>
        <time>2024-05-29T17:37:57Z</time>
      </trkpt>
      <trkpt lat="46.6752" lon="-1.22091">
        <ele>98</ele>
        <time>2024-05-29T17:38:15Z</time>
      </trkpt>
      <trkpt lat="46.6748" lon="-1.22121">
        <ele>99</ele>
        <time>2024-05-29T17:38:23Z</time>
      </trkpt>
      <trkpt lat="46.67452" lon="-1.22148">
        <ele>99</ele>
        <time>2024-05-29T17:38:29Z</time>
      </trkpt>
      <trkpt lat="46.67358" lon="-1.22265">
        <ele>100</ele>
        <time>2024-05-29T17:38:51Z</time>
      </trkpt>
      <trkpt lat="46.67324" lon="-1.22305">
        <ele>99</ele>
        <time>2024-05-29T17:38:58Z</time>
      </trkpt>
      <trkpt lat="46.67291" lon="-1.22334">
        <ele>98</ele>
        <time>2024-05-29T17:39:05Z</time>
      </trkpt>
      <trkpt lat="46.67238" lon="-1.22373">
        <ele>98</ele>
        <time>2024-05-29T17:39:16Z</time>
      </trkpt>
      <trkpt lat="46.67224" lon="-1.22391">
        <ele>98</ele>
        <time>2024-05-29T17:39:19Z</time>
      </trkpt>
      <trkpt lat="46.67215" lon="-1.22411">
        <ele>99</ele>
        <time>2024-05-29T17:39:22Z</time>
      </trkpt>
      <trkpt lat="46.67208" lon="-1.22434">
        <ele>99</ele>
        <time>2024-05-29T17:39:25Z</time>
      </trkpt>
      <trkpt lat="46.67178" lon="-1.22588">
        <ele>103</ele>
        <time>2024-05-29T17:39:45Z</time>
      </trkpt>
      <trkpt lat="46.67169" lon="-1.22614">
        <ele>103</ele>
        <time>2024-05-29T17:39:48Z</time>
      </trkpt>
      <trkpt lat="46.67155" lon="-1.22645">
        <ele>104</ele>
        <time>2024-05-29T17:39:53Z</time>
      </trkpt>
      <trkpt lat="46.67134" lon="-1.22685">
        <ele>104</ele>
        <time>2024-05-29T17:39:59Z</time>
      </trkpt>
      <trkpt lat="46.67118" lon="-1.22711">
        <ele>105</ele>
        <time>2024-05-29T17:40:03Z</time>
      </trkpt>
      <trkpt lat="46.67097" lon="-1.22735">
        <ele>105</ele>
        <time>2024-05-29T17:40:08Z</time>
      </trkpt>
      <trkpt lat="46.67048" lon="-1.22781">
        <ele>106</ele>
        <time>2024-05-29T17:40:18Z</time>
      </trkpt>
      <trkpt lat="46.67033" lon="-1.22802">
        <ele>107</ele>
        <time>2024-05-29T17:40:22Z</time>
      </trkpt>
      <trkpt lat="46.66975" lon="-1.22906">
        <ele>107</ele>
        <time>2024-05-29T17:40:38Z</time>
      </trkpt>
      <trkpt lat="46.66959" lon="-1.22931">
        <ele>107</ele>
        <time>2024-05-29T17:40:42Z</time>
      </trkpt>
      <trkpt lat="46.6694" lon="-1.2295">
        <ele>106</ele>
        <time>2024-05-29T17:40:47Z</time>
      </trkpt>
      <trkpt lat="46.66917" lon="-1.22966">
        <ele>106</ele>
        <time>2024-05-29T17:40:51Z</time>
      </trkpt>
      <trkpt lat="46.66893" lon="-1.22977">
        <ele>106</ele>
        <time>2024-05-29T17:40:56Z</time>
      </trkpt>
      <trkpt lat="46.66813" lon="-1.23">
        <ele>104</ele>
        <time>2024-05-29T17:41:10Z</time>
      </trkpt>
      <trkpt lat="46.66794" lon="-1.23012">
        <ele>103</ele>
        <time>2024-05-29T17:41:14Z</time>
      </trkpt>
      <trkpt lat="46.66783" lon="-1.23023">
        <ele>103</ele>
        <time>2024-05-29T17:41:16Z</time>
      </trkpt>
      <trkpt lat="46.66738" lon="-1.23089">
        <ele>102</ele>
        <time>2024-05-29T17:41:27Z</time>
      </trkpt>
      <trkpt lat="46.66724" lon="-1.23107">
        <ele>102</ele>
        <time>2024-05-29T17:41:31Z</time>
      </trkpt>
      <trkpt lat="46.66706" lon="-1.23125">
        <ele>103</ele>
        <time>2024-05-29T17:41:35Z</time>
      </trkpt>
      <trkpt lat="46.66651" lon="-1.23169">
        <ele>104</ele>
        <time>2024-05-29T17:41:46Z</time>
      </trkpt>
      <trkpt lat="46.66609" lon="-1.23195">
        <ele>102</ele>
        <time>2024-05-29T17:41:54Z</time>
      </trkpt>
      <trkpt lat="46.66596" lon="-1.23201">
        <ele>102</ele>
        <time>2024-05-29T17:41:56Z</time>
      </trkpt>
      <trkpt lat="46.66565" lon="-1.23211">
        <ele>100</ele>
        <time>2024-05-29T17:42:02Z</time>
      </trkpt>
      <trkpt lat="46.66449" lon="-1.23232">
        <ele>98</ele>
        <time>2024-05-29T17:42:23Z</time>
      </trkpt>
      <trkpt lat="46.66418" lon="-1.23232">
        <ele>98</ele>
        <time>2024-05-29T17:42:28Z</time>
      </trkpt>
      <trkpt lat="46.66361" lon="-1.23226">
        <ele>96</ele>
        <time>2024-05-29T17:42:39Z</time>
      </trkpt>
      <trkpt lat="46.66329" lon="-1.23226">
        <ele>94</ele>
        <time>2024-05-29T17:42:44Z</time>
      </trkpt>
      <trkpt lat="46.66276" lon="-1.23233">
        <ele>93</ele>
        <time>2024-05-29T17:42:54Z</time>
      </trkpt>
      <trkpt lat="46.66188" lon="-1.23239">
        <ele>92</ele>
        <time>2024-05-29T17:43:09Z</time>
      </trkpt>
      <trkpt lat="46.66157" lon="-1.23238">
        <ele>92</ele>
        <time>2024-05-29T17:43:15Z</time>
      </trkpt>
      <trkpt lat="46.66143" lon="-1.23239">
        <ele>93</ele>
        <time>2024-05-29T17:43:17Z</time>
      </trkpt>
      <trkpt lat="46.66124" lon="-1.23235">
        <ele>93</ele>
        <time>2024-05-29T17:43:21Z</time>
      </trkpt>
      <trkpt lat="46.66098" lon="-1.23222">
        <ele>93</ele>
        <time>2024-05-29T17:43:26Z</time>
      </trkpt>
      <trkpt lat="46.66072" lon="-1.23205">
        <ele>94</ele>
        <time>2024-05-29T17:43:31Z</time>
      </trkpt>
      <trkpt lat="46.66045" lon="-1.23194">
        <ele>94</ele>
        <time>2024-05-29T17:43:36Z</time>
      </trkpt>
      <trkpt lat="46.66021" lon="-1.23193">
        <ele>95</ele>
        <time>2024-05-29T17:43:40Z</time>
      </trkpt>
      <trkpt lat="46.65962" lon="-1.23205">
        <ele>96</ele>
        <time>2024-05-29T17:43:51Z</time>
      </trkpt>
      <trkpt lat="46.65956" lon="-1.23207">
        <ele>96</ele>
        <time>2024-05-29T17:43:52Z</time>
      </trkpt>
      <trkpt lat="46.65945" lon="-1.23215">
        <ele>96</ele>
        <time>2024-05-29T17:43:54Z</time>
      </trkpt>
      <trkpt lat="46.65855" lon="-1.23322">
        <ele>95</ele>
        <time>2024-05-29T17:44:15Z</time>
      </trkpt>
      <trkpt lat="46.65839" lon="-1.23303">
        <ele>95</ele>
        <time>2024-05-29T17:44:18Z</time>
      </trkpt>
      <trkpt lat="46.6578" lon="-1.23247">
        <ele>93</ele>
        <time>2024-05-29T17:44:31Z</time>
      </trkpt>
      <trkpt lat="46.6573" lon="-1.23196">
        <ele>92</ele>
        <time>2024-05-29T17:44:42Z</time>
      </trkpt>
      <trkpt lat="46.6571" lon="-1.23182">
        <ele>92</ele>
        <time>2024-05-29T17:44:46Z</time>
      </trkpt>
      <trkpt lat="46.65623" lon="-1.23139">
        <ele>92</ele>
        <time>2024-05-29T17:45:02Z</time>
      </trkpt>
      <trkpt lat="46.65609" lon="-1.23129">
        <ele>92</ele>
        <time>2024-05-29T17:45:05Z</time>
      </trkpt>
      <trkpt lat="46.6559" lon="-1.23111">
        <ele>93</ele>
        <time>2024-05-29T17:45:09Z</time>
      </trkpt>
      <trkpt lat="46.65493" lon="-1.23001">
        <ele>95</ele>
        <time>2024-05-29T17:45:31Z</time>
      </trkpt>
      <trkpt lat="46.65486" lon="-1.22995">
        <ele>95</ele>
        <time>2024-05-29T17:45:32Z</time>
      </trkpt>
      <trkpt lat="46.65474" lon="-1.2299">
        <ele>95</ele>
        <time>2024-05-29T17:45:34Z</time>
      </trkpt>
      <trkpt lat="46.65425" lon="-1.22982">
        <ele>96</ele>
        <time>2024-05-29T17:45:43Z</time>
      </trkpt>
      <trkpt lat="46.65412" lon="-1.22984">
        <ele>96</ele>
        <time>2024-05-29T17:45:45Z</time>
      </trkpt>
      <trkpt lat="46.65386" lon="-1.22995">
        <ele>96</ele>
        <time>2024-05-29T17:45:50Z</time>
      </trkpt>
      <trkpt lat="46.65376" lon="-1.23006">
        <ele>95</ele>
        <time>2024-05-29T17:45:52Z</time>
      </trkpt>
      <trkpt lat="46.6537" lon="-1.23008">
        <ele>95</ele>
        <time>2024-05-29T17:45:53Z</time>
      </trkpt>
      <trkpt lat="46.65357" lon="-1.23004">
        <ele>95</ele>
        <time>2024-05-29T17:45:56Z</time>
      </trkpt>
      <trkpt lat="46.65334" lon="-1.23008">
        <ele>95</ele>
        <time>2024-05-29T17:46:00Z</time>
      </trkpt>
      <trkpt lat="46.6532" lon="-1.23016">
        <ele>95</ele>
        <time>2024-05-29T17:46:03Z</time>
      </trkpt>
      <trkpt lat="46.65285" lon="-1.23038">
        <ele>95</ele>
        <time>2024-05-29T17:46:09Z</time>
      </trkpt>
      <trkpt lat="46.65247" lon="-1.23061">
        <ele>95</ele>
        <time>2024-05-29T17:46:17Z</time>
      </trkpt>
      <trkpt lat="46.65227" lon="-1.23067">
        <ele>94</ele>
        <time>2024-05-29T17:46:20Z</time>
      </trkpt>
      <trkpt lat="46.65206" lon="-1.23068">
        <ele>94</ele>
        <time>2024-05-29T17:46:24Z</time>
      </trkpt>
      <trkpt lat="46.65184" lon="-1.23063">
        <ele>93</ele>
        <time>2024-05-29T17:46:28Z</time>
      </trkpt>
      <trkpt lat="46.65165" lon="-1.23052">
        <ele>93</ele>
        <time>2024-05-29T17:46:32Z</time>
      </trkpt>
      <trkpt lat="46.65155" lon="-1.23044">
        <ele>93</ele>
        <time>2024-05-29T17:46:34Z</time>
      </trkpt>
      <trkpt lat="46.65103" lon="-1.22985">
        <ele>93</ele>
        <time>2024-05-29T17:46:45Z</time>
      </trkpt>
      <trkpt lat="46.65083" lon="-1.2297">
        <ele>93</ele>
        <time>2024-05-29T17:46:49Z</time>
      </trkpt>
      <trkpt lat="46.65062" lon="-1.22961">
        <ele>93</ele>
        <time>2024-05-29T17:46:53Z</time>
      </trkpt>
      <trkpt lat="46.65023" lon="-1.2296">
        <ele>93</ele>
        <time>2024-05-29T17:47:00Z</time>
      </trkpt>
      <trkpt lat="46.64914" lon="-1.22967">
        <ele>92</ele>
        <time>2024-05-29T17:47:20Z</time>
      </trkpt>
      <trkpt lat="46.64881" lon="-1.22973">
        <ele>93</ele>
        <time>2024-05-29T17:47:26Z</time>
      </trkpt>
      <trkpt lat="46.64847" lon="-1.22987">
        <ele>94</ele>
        <time>2024-05-29T17:47:32Z</time>
      </trkpt>
      <trkpt lat="46.6466" lon="-1.23086">
        <ele>97</ele>
        <time>2024-05-29T17:48:07Z</time>
      </trkpt>
      <trkpt lat="46.64453" lon="-1.23167">
        <ele>93</ele>
        <time>2024-05-29T17:48:45Z</time>
      </trkpt>
      <trkpt lat="46.64423" lon="-1.23177">
        <ele>93</ele>
        <time>2024-05-29T17:48:51Z</time>
      </trkpt>
      <trkpt lat="46.64369" lon="-1.2319">
        <ele>92</ele>
        <time>2024-05-29T17:49:01Z</time>
      </trkpt>
      <trkpt lat="46.64281" lon="-1.23206">
        <ele>92</ele>
        <time>2024-05-29T17:49:16Z</time>
      </trkpt>
      <trkpt lat="46.64227" lon="-1.23221">
        <ele>92</ele>
        <time>2024-05-29T17:49:26Z</time>
      </trkpt>
      <trkpt lat="46.64083" lon="-1.2329">
        <ele>92</ele>
        <time>2024-05-29T17:49:53Z</time>
      </trkpt>
      <trkpt lat="46.6406" lon="-1.23298">
        <ele>92</ele>
        <time>2024-05-29T17:49:57Z</time>
      </trkpt>
      <trkpt lat="46.63885" lon="-1.23319">
        <ele>88</ele>
        <time>2024-05-29T17:50:29Z</time>
      </trkpt>
      <trkpt lat="46.63835" lon="-1.23316">
        <ele>87</ele>
        <time>2024-05-29T17:50:38Z</time>
      </trkpt>
      <trkpt lat="46.6372" lon="-1.23294">
        <ele>87</ele>
        <time>2024-05-29T17:50:58Z</time>
      </trkpt>
      <trkpt lat="46.63684" lon="-1.23291">
        <ele>88</ele>
        <time>2024-05-29T17:51:05Z</time>
      </trkpt>
      <trkpt lat="46.63659" lon="-1.23296">
        <ele>88</ele>
        <time>2024-05-29T17:51:09Z</time>
      </trkpt>
      <trkpt lat="46.63594" lon="-1.23327">
        <ele>89</ele>
        <time>2024-05-29T17:51:21Z</time>
      </trkpt>
      <trkpt lat="46.63566" lon="-1.23339">
        <ele>89</ele>
        <time>2024-05-29T17:51:26Z</time>
      </trkpt>
      <trkpt lat="46.63479" lon="-1.23364">
        <ele>87</ele>
        <time>2024-05-29T17:51:42Z</time>
      </trkpt>
      <trkpt lat="46.63452" lon="-1.23368">
        <ele>87</ele>
        <time>2024-05-29T17:51:47Z</time>
      </trkpt>
      <trkpt lat="46.63437" lon="-1.23367">
        <ele>86</ele>
        <time>2024-05-29T17:51:50Z</time>
      </trkpt>
      <trkpt lat="46.63403" lon="-1.23361">
        <ele>85</ele>
        <time>2024-05-29T17:51:56Z</time>
      </trkpt>
      <trkpt lat="46.63253" lon="-1.23309">
        <ele>80</ele>
        <time>2024-05-29T17:52:23Z</time>
      </trkpt>
      <trkpt lat="46.63217" lon="-1.233">
        <ele>78</ele>
        <time>2024-05-29T17:52:30Z</time>
      </trkpt>
      <trkpt lat="46.63169" lon="-1.23301">
        <ele>76</ele>
        <time>2024-05-29T17:52:38Z</time>
      </trkpt>
      <trkpt lat="46.63056" lon="-1.23316">
        <ele>74</ele>
        <time>2024-05-29T17:52:59Z</time>
      </trkpt>
      <trkpt lat="46.6303" lon="-1.23317">
        <ele>74</ele>
        <time>2024-05-29T17:53:03Z</time>
      </trkpt>
      <trkpt lat="46.63016" lon="-1.23315">
        <ele>74</ele>
        <time>2024-05-29T17:53:06Z</time>
      </trkpt>
      <trkpt lat="46.62949" lon="-1.23291">
        <ele>72</ele>
        <time>2024-05-29T17:53:18Z</time>
      </trkpt>
      <trkpt lat="46.62925" lon="-1.2329">
        <ele>72</ele>
        <time>2024-05-29T17:53:22Z</time>
      </trkpt>
      <trkpt lat="46.62907" lon="-1.23293">
        <ele>72</ele>
        <time>2024-05-29T17:53:25Z</time>
      </trkpt>
      <trkpt lat="46.62751" lon="-1.23345">
        <ele>76</ele>
        <time>2024-05-29T17:53:54Z</time>
      </trkpt>
      <trkpt lat="46.62718" lon="-1.23354">
        <ele>77</ele>
        <time>2024-05-29T17:54:00Z</time>
      </trkpt>
      <trkpt lat="46.627" lon="-1.23356">
        <ele>78</ele>
        <time>2024-05-29T17:54:03Z</time>
      </trkpt>
      <trkpt lat="46.62663" lon="-1.23353">
        <ele>79</ele>
        <time>2024-05-29T17:54:10Z</time>
      </trkpt>
      <trkpt lat="46.62633" lon="-1.23341">
        <ele>79</ele>
        <time>2024-05-29T17:54:15Z</time>
      </trkpt>
      <trkpt lat="46.62547" lon="-1.23283">
        <ele>77</ele>
        <time>2024-05-29T17:54:32Z</time>
      </trkpt>
      <trkpt lat="46.62511" lon="-1.23267">
        <ele>77</ele>
        <time>2024-05-29T17:54:39Z</time>
      </trkpt>
      <trkpt lat="46.62493" lon="-1.23261">
        <ele>77</ele>
        <time>2024-05-29T17:54:42Z</time>
      </trkpt>
      <trkpt lat="46.62479" lon="-1.2326">
        <ele>77</ele>
        <time>2024-05-29T17:54:45Z</time>
      </trkpt>
      <trkpt lat="46.62454" lon="-1.23262">
        <ele>77</ele>
        <time>2024-05-29T17:54:49Z</time>
      </trkpt>
      <trkpt lat="46.6237" lon="-1.23277">
        <ele>74</ele>
        <time>2024-05-29T17:55:04Z</time>
      </trkpt>
      <trkpt lat="46.62334" lon="-1.23289">
        <ele>73</ele>
        <time>2024-05-29T17:55:11Z</time>
      </trkpt>
      <trkpt lat="46.62298" lon="-1.23308">
        <ele>73</ele>
        <time>2024-05-29T17:55:17Z</time>
      </trkpt>
      <trkpt lat="46.62204" lon="-1.2338">
        <ele>69</ele>
        <time>2024-05-29T17:55:36Z</time>
      </trkpt>
      <trkpt lat="46.62181" lon="-1.23396">
        <ele>68</ele>
        <time>2024-05-29T17:55:41Z</time>
      </trkpt>
      <trkpt lat="46.62153" lon="-1.23412">
        <ele>67</ele>
        <time>2024-05-29T17:55:46Z</time>
      </trkpt>
      <trkpt lat="46.62115" lon="-1.23429">
        <ele>65</ele>
        <time>2024-05-29T17:55:53Z</time>
      </trkpt>
      <trkpt lat="46.62101" lon="-1.23432">
        <ele>64</ele>
        <time>2024-05-29T17:55:56Z</time>
      </trkpt>
      <trkpt lat="46.62084" lon="-1.23432">
        <ele>64</ele>
        <time>2024-05-29T17:55:59Z</time>
      </trkpt>
      <trkpt lat="46.62043" lon="-1.23425">
        <ele>62</ele>
        <time>2024-05-29T17:56:06Z</time>
      </trkpt>
      <trkpt lat="46.62012" lon="-1.23427">
        <ele>62</ele>
        <time>2024-05-29T17:56:12Z</time>
      </trkpt>
      <trkpt lat="46.61991" lon="-1.23437">
        <ele>61</ele>
        <time>2024-05-29T17:56:16Z</time>
      </trkpt>
      <trkpt lat="46.61938" lon="-1.23484">
        <ele>62</ele>
        <time>2024-05-29T17:56:27Z</time>
      </trkpt>
      <trkpt lat="46.6192" lon="-1.23494">
        <ele>63</ele>
        <time>2024-05-29T17:56:30Z</time>
      </trkpt>
      <trkpt lat="46.61796" lon="-1.23551">
        <ele>64</ele>
        <time>2024-05-29T17:56:53Z</time>
      </trkpt>
      <trkpt lat="46.61774" lon="-1.23563">
        <ele>63</ele>
        <time>2024-05-29T17:56:57Z</time>
      </trkpt>
      <trkpt lat="46.61743" lon="-1.23587">
        <ele>63</ele>
        <time>2024-05-29T17:57:04Z</time>
      </trkpt>
      <trkpt lat="46.61723" lon="-1.23611">
        <ele>62</ele>
        <time>2024-05-29T17:57:08Z</time>
      </trkpt>
      <trkpt lat="46.61684" lon="-1.23669">
        <ele>61</ele>
        <time>2024-05-29T17:57:18Z</time>
      </trkpt>
      <trkpt lat="46.61618" lon="-1.23759">
        <ele>60</ele>
        <time>2024-05-29T17:57:34Z</time>
      </trkpt>
      <trkpt lat="46.61548" lon="-1.23826">
        <ele>59</ele>
        <time>2024-05-29T17:57:49Z</time>
      </trkpt>
      <trkpt lat="46.61523" lon="-1.23853">
        <ele>58</ele>
        <time>2024-05-29T17:57:55Z</time>
      </trkpt>
      <trkpt lat="46.61483" lon="-1.23906">
        <ele>59</ele>
        <time>2024-05-29T17:58:04Z</time>
      </trkpt>
      <trkpt lat="46.61436" lon="-1.2397">
        <ele>58</ele>
        <time>2024-05-29T17:58:16Z</time>
      </trkpt>
      <trkpt lat="46.61367" lon="-1.24081">
        <ele>57</ele>
        <time>2024-05-29T17:58:34Z</time>
      </trkpt>
      <trkpt lat="46.61359" lon="-1.2409">
        <ele>57</ele>
        <time>2024-05-29T17:58:36Z</time>
      </trkpt>
      <trkpt lat="46.61348" lon="-1.24096">
        <ele>57</ele>
        <time>2024-05-29T17:58:38Z</time>
      </trkpt>
      <trkpt lat="46.61306" lon="-1.24104">
        <ele>58</ele>
        <time>2024-05-29T17:58:46Z</time>
      </trkpt>
      <trkpt lat="46.61246" lon="-1.24108">
        <ele>57</ele>
        <time>2024-05-29T17:58:56Z</time>
      </trkpt>
      <trkpt lat="46.61237" lon="-1.24112">
        <ele>57</ele>
        <time>2024-05-29T17:58:58Z</time>
      </trkpt>
      <trkpt lat="46.61229" lon="-1.24104">
        <ele>56</ele>
        <time>2024-05-29T17:59:00Z</time>
      </trkpt>
      <trkpt lat="46.6122" lon="-1.24089">
        <ele>56</ele>
        <time>2024-05-29T17:59:02Z</time>
      </trkpt>
      <trkpt lat="46.61209" lon="-1.24071">
        <ele>55</ele>
        <time>2024-05-29T17:59:05Z</time>
      </trkpt>
      <trkpt lat="46.61181" lon="-1.24088">
        <ele>54</ele>
        <time>2024-05-29T17:59:10Z</time>
      </trkpt>
      <trkpt lat="46.61144" lon="-1.24116">
        <ele>53</ele>
        <time>2024-05-29T17:59:18Z</time>
      </trkpt>
      <trkpt lat="46.61133" lon="-1.24132">
        <ele>52</ele>
        <time>2024-05-29T17:59:21Z</time>
      </trkpt>
      <trkpt lat="46.61115" lon="-1.24164">
        <ele>52</ele>
        <time>2024-05-29T17:59:26Z</time>
      </trkpt>
      <trkpt lat="46.61106" lon="-1.24176">
        <ele>52</ele>
        <time>2024-05-29T17:59:28Z</time>
      </trkpt>
      <trkpt lat="46.6108" lon="-1.24191">
        <ele>51</ele>
        <time>2024-05-29T17:59:33Z</time>
      </trkpt>
      <trkpt lat="46.61063" lon="-1.24196">
        <ele>50</ele>
        <time>2024-05-29T17:59:36Z</time>
      </trkpt>
      <trkpt lat="46.61041" lon="-1.24194">
        <ele>48</ele>
        <time>2024-05-29T17:59:40Z</time>
      </trkpt>
      <trkpt lat="46.61011" lon="-1.24182">
        <ele>45</ele>
        <time>2024-05-29T17:59:45Z</time>
      </trkpt>
      <trkpt lat="46.60981" lon="-1.2416">
        <ele>43</ele>
        <time>2024-05-29T17:59:51Z</time>
      </trkpt>
      <trkpt lat="46.60918" lon="-1.24093">
        <ele>40</ele>
        <time>2024-05-29T18:00:05Z</time>
      </trkpt>
      <trkpt lat="46.60812" lon="-1.24001">
        <ele>48</ele>
        <time>2024-05-29T18:00:27Z</time>
      </trkpt>
      <trkpt lat="46.60796" lon="-1.2398">
        <ele>49</ele>
        <time>2024-05-29T18:00:31Z</time>
      </trkpt>
      <trkpt lat="46.60774" lon="-1.23941">
        <ele>51</ele>
        <time>2024-05-29T18:00:37Z</time>
      </trkpt>
      <trkpt lat="46.60765" lon="-1.23917">
        <ele>51</ele>
        <time>2024-05-29T18:00:41Z</time>
      </trkpt>
      <trkpt lat="46.60758" lon="-1.23886">
        <ele>52</ele>
        <time>2024-05-29T18:00:44Z</time>
      </trkpt>
      <trkpt lat="46.60736" lon="-1.23762">
        <ele>58</ele>
        <time>2024-05-29T18:01:00Z</time>
      </trkpt>
      <trkpt lat="46.60717" lon="-1.23686">
        <ele>60</ele>
        <time>2024-05-29T18:01:10Z</time>
      </trkpt>
      <trkpt lat="46.60698" lon="-1.23641">
        <ele>62</ele>
        <time>2024-05-29T18:01:16Z</time>
      </trkpt>
      <trkpt lat="46.60687" lon="-1.23623">
        <ele>62</ele>
        <time>2024-05-29T18:01:19Z</time>
      </trkpt>
      <trkpt lat="46.60661" lon="-1.23594">
        <ele>63</ele>
        <time>2024-05-29T18:01:25Z</time>
      </trkpt>
      <trkpt lat="46.60553" lon="-1.23535">
        <ele>64</ele>
        <time>2024-05-29T18:01:46Z</time>
      </trkpt>
      <trkpt lat="46.60553" lon="-1.23531">
        <ele>64</ele>
        <time>2024-05-29T18:01:46Z</time>
      </trkpt>
      <trkpt lat="46.6039" lon="-1.23225">
        <ele>62</ele>
        <time>2024-05-29T18:02:34Z</time>
      </trkpt>
      <trkpt lat="46.60363" lon="-1.23182">
        <ele>60</ele>
        <time>2024-05-29T18:02:41Z</time>
      </trkpt>
      <trkpt lat="46.60342" lon="-1.23157">
        <ele>58</ele>
        <time>2024-05-29T18:02:46Z</time>
      </trkpt>
      <trkpt lat="46.60324" lon="-1.23141">
        <ele>58</ele>
        <time>2024-05-29T18:02:49Z</time>
      </trkpt>
      <trkpt lat="46.60297" lon="-1.23123">
        <ele>57</ele>
        <time>2024-05-29T18:02:55Z</time>
      </trkpt>
      <trkpt lat="46.60243" lon="-1.23093">
        <ele>55</ele>
        <time>2024-05-29T18:03:05Z</time>
      </trkpt>
      <trkpt lat="46.60225" lon="-1.2308">
        <ele>55</ele>
        <time>2024-05-29T18:03:08Z</time>
      </trkpt>
      <trkpt lat="46.60204" lon="-1.23057">
        <ele>54</ele>
        <time>2024-05-29T18:03:13Z</time>
      </trkpt>
      <trkpt lat="46.60189" lon="-1.23032">
        <ele>54</ele>
        <time>2024-05-29T18:03:17Z</time>
      </trkpt>
      <trkpt lat="46.6018" lon="-1.23011">
        <ele>53</ele>
        <time>2024-05-29T18:03:20Z</time>
      </trkpt>
      <trkpt lat="46.60174" lon="-1.22997">
        <ele>53</ele>
        <time>2024-05-29T18:03:22Z</time>
      </trkpt>
      <trkpt lat="46.60142" lon="-1.22889">
        <ele>51</ele>
        <time>2024-05-29T18:03:37Z</time>
      </trkpt>
      <trkpt lat="46.60135" lon="-1.22869">
        <ele>50</ele>
        <time>2024-05-29T18:03:39Z</time>
      </trkpt>
      <trkpt lat="46.60117" lon="-1.22832">
        <ele>49</ele>
        <time>2024-05-29T18:03:45Z</time>
      </trkpt>
      <trkpt lat="46.59911" lon="-1.22553">
        <ele>46</ele>
        <time>2024-05-29T18:04:35Z</time>
      </trkpt>
      <trkpt lat="46.59899" lon="-1.22522">
        <ele>46</ele>
        <time>2024-05-29T18:04:39Z</time>
      </trkpt>
      <trkpt lat="46.5989" lon="-1.22476">
        <ele>46</ele>
        <time>2024-05-29T18:04:45Z</time>
      </trkpt>
      <trkpt lat="46.59881" lon="-1.22457">
        <ele>46</ele>
        <time>2024-05-29T18:04:48Z</time>
      </trkpt>
      <trkpt lat="46.59867" lon="-1.22438">
        <ele>45</ele>
        <time>2024-05-29T18:04:51Z</time>
      </trkpt>
      <trkpt lat="46.59838" lon="-1.22406">
        <ele>43</ele>
        <time>2024-05-29T18:04:58Z</time>
      </trkpt>
      <trkpt lat="46.59829" lon="-1.22391">
        <ele>42</ele>
        <time>2024-05-29T18:05:00Z</time>
      </trkpt>
      <trkpt lat="46.59824" lon="-1.22373">
        <ele>42</ele>
        <time>2024-05-29T18:05:03Z</time>
      </trkpt>
      <trkpt lat="46.59821" lon="-1.22338">
        <ele>42</ele>
        <time>2024-05-29T18:05:07Z</time>
      </trkpt>
      <trkpt lat="46.59818" lon="-1.22323">
        <ele>42</ele>
        <time>2024-05-29T18:05:09Z</time>
      </trkpt>
      <trkpt lat="46.59814" lon="-1.22311">
        <ele>42</ele>
        <time>2024-05-29T18:05:11Z</time>
      </trkpt>
      <trkpt lat="46.59808" lon="-1.22301">
        <ele>42</ele>
        <time>2024-05-29T18:05:12Z</time>
      </trkpt>
      <trkpt lat="46.59797" lon="-1.22288">
        <ele>43</ele>
        <time>2024-05-29T18:05:15Z</time>
      </trkpt>
      <trkpt lat="46.59791" lon="-1.22278">
        <ele>43</ele>
        <time>2024-05-29T18:05:16Z</time>
      </trkpt>
      <trkpt lat="46.59785" lon="-1.22258">
        <ele>44</ele>
        <time>2024-05-29T18:05:19Z</time>
      </trkpt>
      <trkpt lat="46.59787" lon="-1.22196">
        <ele>44</ele>
        <time>2024-05-29T18:05:27Z</time>
      </trkpt>
      <trkpt lat="46.59783" lon="-1.22172">
        <ele>45</ele>
        <time>2024-05-29T18:05:30Z</time>
      </trkpt>
      <trkpt lat="46.59777" lon="-1.22158">
        <ele>46</ele>
        <time>2024-05-29T18:05:32Z</time>
      </trkpt>
      <trkpt lat="46.59738" lon="-1.22089">
        <ele>49</ele>
        <time>2024-05-29T18:05:43Z</time>
      </trkpt>
      <trkpt lat="46.59724" lon="-1.2205">
        <ele>50</ele>
        <time>2024-05-29T18:05:48Z</time>
      </trkpt>
      <trkpt lat="46.59716" lon="-1.22008">
        <ele>51</ele>
        <time>2024-05-29T18:05:53Z</time>
      </trkpt>
      <trkpt lat="46.59712" lon="-1.21965">
        <ele>50</ele>
        <time>2024-05-29T18:05:59Z</time>
      </trkpt>
      <trkpt lat="46.59712" lon="-1.21943">
        <ele>50</ele>
        <time>2024-05-29T18:06:01Z</time>
      </trkpt>
      <trkpt lat="46.59717" lon="-1.21886">
        <ele>50</ele>
        <time>2024-05-29T18:06:08Z</time>
      </trkpt>
      <trkpt lat="46.59722" lon="-1.21849">
        <ele>51</ele>
        <time>2024-05-29T18:06:13Z</time>
      </trkpt>
      <trkpt lat="46.59724" lon="-1.21809">
        <ele>51</ele>
        <time>2024-05-29T18:06:18Z</time>
      </trkpt>
      <trkpt lat="46.59723" lon="-1.21776">
        <ele>51</ele>
        <time>2024-05-29T18:06:22Z</time>
      </trkpt>
      <trkpt lat="46.59719" lon="-1.21744">
        <ele>52</ele>
        <time>2024-05-29T18:06:26Z</time>
      </trkpt>
      <trkpt lat="46.59698" lon="-1.21626">
        <ele>56</ele>
        <time>2024-05-29T18:06:41Z</time>
      </trkpt>
      <trkpt lat="46.59694" lon="-1.21588">
        <ele>56</ele>
        <time>2024-05-29T18:06:45Z</time>
      </trkpt>
      <trkpt lat="46.5966" lon="-1.20748">
        <ele>51</ele>
        <time>2024-05-29T18:08:28Z</time>
      </trkpt>
      <trkpt lat="46.59658" lon="-1.20666">
        <ele>48</ele>
        <time>2024-05-29T18:08:38Z</time>
      </trkpt>
      <trkpt lat="46.5966" lon="-1.20613">
        <ele>49</ele>
        <time>2024-05-29T18:08:45Z</time>
      </trkpt>
      <trkpt lat="46.59664" lon="-1.20578">
        <ele>50</ele>
        <time>2024-05-29T18:08:49Z</time>
      </trkpt>
      <trkpt lat="46.59709" lon="-1.2036">
        <ele>51</ele>
        <time>2024-05-29T18:09:17Z</time>
      </trkpt>
      <trkpt lat="46.59803" lon="-1.19926">
        <ele>55</ele>
        <time>2024-05-29T18:10:13Z</time>
      </trkpt>
      <trkpt lat="46.59812" lon="-1.1988">
        <ele>55</ele>
        <time>2024-05-29T18:10:18Z</time>
      </trkpt>
      <trkpt lat="46.59821" lon="-1.19819">
        <ele>55</ele>
        <time>2024-05-29T18:10:26Z</time>
      </trkpt>
      <trkpt lat="46.59823" lon="-1.19751">
        <ele>55</ele>
        <time>2024-05-29T18:10:34Z</time>
      </trkpt>
      <trkpt lat="46.59821" lon="-1.19688">
        <ele>56</ele>
        <time>2024-05-29T18:10:42Z</time>
      </trkpt>
      <trkpt lat="46.598" lon="-1.1937">
        <ele>56</ele>
        <time>2024-05-29T18:11:21Z</time>
      </trkpt>
      <trkpt lat="46.59789" lon="-1.19299">
        <ele>55</ele>
        <time>2024-05-29T18:11:30Z</time>
      </trkpt>
      <trkpt lat="46.59777" lon="-1.19255">
        <ele>55</ele>
        <time>2024-05-29T18:11:36Z</time>
      </trkpt>
      <trkpt lat="46.59744" lon="-1.19158">
        <ele>55</ele>
        <time>2024-05-29T18:11:49Z</time>
      </trkpt>
      <trkpt lat="46.59676" lon="-1.18961">
        <ele>57</ele>
        <time>2024-05-29T18:12:16Z</time>
      </trkpt>
      <trkpt lat="46.5967" lon="-1.1894">
        <ele>56</ele>
        <time>2024-05-29T18:12:19Z</time>
      </trkpt>
      <trkpt lat="46.59666" lon="-1.18916">
        <ele>56</ele>
        <time>2024-05-29T18:12:22Z</time>
      </trkpt>
      <trkpt lat="46.59661" lon="-1.18869">
        <ele>56</ele>
        <time>2024-05-29T18:12:28Z</time>
      </trkpt>
      <trkpt lat="46.59655" lon="-1.18794">
        <ele>55</ele>
        <time>2024-05-29T18:12:37Z</time>
      </trkpt>
      <trkpt lat="46.59651" lon="-1.1877">
        <ele>54</ele>
        <time>2024-05-29T18:12:40Z</time>
      </trkpt>
      <trkpt lat="46.59642" lon="-1.18737">
        <ele>53</ele>
        <time>2024-05-29T18:12:44Z</time>
      </trkpt>
      <trkpt lat="46.59626" lon="-1.18707">
        <ele>53</ele>
        <time>2024-05-29T18:12:49Z</time>
      </trkpt>
      <trkpt lat="46.59559" lon="-1.18609">
        <ele>51</ele>
        <time>2024-05-29T18:13:06Z</time>
      </trkpt>
      <trkpt lat="46.5954" lon="-1.18579">
        <ele>50</ele>
        <time>2024-05-29T18:13:11Z</time>
      </trkpt>
      <trkpt lat="46.59525" lon="-1.18552">
        <ele>50</ele>
        <time>2024-05-29T18:13:15Z</time>
      </trkpt>
      <trkpt lat="46.59514" lon="-1.18527">
        <ele>49</ele>
        <time>2024-05-29T18:13:19Z</time>
      </trkpt>
      <trkpt lat="46.59502" lon="-1.18494">
        <ele>48</ele>
        <time>2024-05-29T18:13:23Z</time>
      </trkpt>
      <trkpt lat="46.59484" lon="-1.18418">
        <ele>50</ele>
        <time>2024-05-29T18:13:33Z</time>
      </trkpt>
      <trkpt lat="46.59479" lon="-1.18392">
        <ele>50</ele>
        <time>2024-05-29T18:13:36Z</time>
      </trkpt>
      <trkpt lat="46.59558" lon="-1.18364">
        <ele>49</ele>
        <time>2024-05-29T18:13:51Z</time>
      </trkpt>
      <trkpt lat="46.59585" lon="-1.18355">
        <ele>49</ele>
        <time>2024-05-29T18:13:56Z</time>
      </trkpt>
      <trkpt lat="46.59721" lon="-1.18319">
        <ele>51</ele>
        <time>2024-05-29T18:14:20Z</time>
      </trkpt>
      <trkpt lat="46.59737" lon="-1.1831">
        <ele>51</ele>
        <time>2024-05-29T18:14:23Z</time>
      </trkpt>
      <trkpt lat="46.59735" lon="-1.18275">
        <ele>50</ele>
        <time>2024-05-29T18:14:28Z</time>
      </trkpt>
      <trkpt lat="46.59734" lon="-1.18239">
        <ele>49</ele>
        <time>2024-05-29T18:14:32Z</time>
      </trkpt>
      <trkpt lat="46.59727" lon="-1.1818">
        <ele>49</ele>
        <time>2024-05-29T18:14:39Z</time>
      </trkpt>
      <trkpt lat="46.59695" lon="-1.17995">
        <ele>53</ele>
        <time>2024-05-29T18:15:03Z</time>
      </trkpt>
      <trkpt lat="46.59692" lon="-1.17952">
        <ele>54</ele>
        <time>2024-05-29T18:15:08Z</time>
      </trkpt>
      <trkpt lat="46.59688" lon="-1.17943">
        <ele>54</ele>
        <time>2024-05-29T18:15:09Z</time>
      </trkpt>
      <trkpt lat="46.59841" lon="-1.17744">
        <ele>55</ele>
        <time>2024-05-29T18:15:46Z</time>
      </trkpt>
      <trkpt lat="46.59875" lon="-1.17707">
        <ele>56</ele>
        <time>2024-05-29T18:15:53Z</time>
      </trkpt>
      <trkpt lat="46.59918" lon="-1.17671">
        <ele>56</ele>
        <time>2024-05-29T18:16:02Z</time>
      </trkpt>
      <trkpt lat="46.59941" lon="-1.17655">
        <ele>57</ele>
        <time>2024-05-29T18:16:07Z</time>
      </trkpt>
      <trkpt lat="46.60116" lon="-1.17541">
        <ele>61</ele>
        <time>2024-05-29T18:16:41Z</time>
      </trkpt>
      <trkpt lat="46.60385" lon="-1.17405">
        <ele>70</ele>
        <time>2024-05-29T18:17:32Z</time>
      </trkpt>
      <trkpt lat="46.60418" lon="-1.17393">
        <ele>72</ele>
        <time>2024-05-29T18:17:38Z</time>
      </trkpt>
      <trkpt lat="46.60448" lon="-1.17389">
        <ele>73</ele>
        <time>2024-05-29T18:17:43Z</time>
      </trkpt>
      <trkpt lat="46.60467" lon="-1.17389">
        <ele>73</ele>
        <time>2024-05-29T18:17:46Z</time>
      </trkpt>
      <trkpt lat="46.60499" lon="-1.17396">
        <ele>74</ele>
        <time>2024-05-29T18:17:52Z</time>
      </trkpt>
      <trkpt lat="46.60554" lon="-1.17418">
        <ele>74</ele>
        <time>2024-05-29T18:18:02Z</time>
      </trkpt>
      <trkpt lat="46.60637" lon="-1.17456">
        <ele>74</ele>
        <time>2024-05-29T18:18:18Z</time>
      </trkpt>
      <trkpt lat="46.60695" lon="-1.17479">
        <ele>74</ele>
        <time>2024-05-29T18:18:28Z</time>
      </trkpt>
      <trkpt lat="46.60729" lon="-1.17486">
        <ele>72</ele>
        <time>2024-05-29T18:18:34Z</time>
      </trkpt>
      <trkpt lat="46.60882" lon="-1.17509">
        <ele>65</ele>
        <time>2024-05-29T18:19:02Z</time>
      </trkpt>
      <trkpt lat="46.60917" lon="-1.17511">
        <ele>63</ele>
        <time>2024-05-29T18:19:08Z</time>
      </trkpt>
      <trkpt lat="46.60994" lon="-1.17502">
        <ele>57</ele>
        <time>2024-05-29T18:19:22Z</time>
      </trkpt>
      <trkpt lat="46.61031" lon="-1.17504">
        <ele>56</ele>
        <time>2024-05-29T18:19:28Z</time>
      </trkpt>
      <trkpt lat="46.61079" lon="-1.17517">
        <ele>55</ele>
        <time>2024-05-29T18:19:37Z</time>
      </trkpt>
      <trkpt lat="46.61102" lon="-1.17522">
        <ele>55</ele>
        <time>2024-05-29T18:19:41Z</time>
      </trkpt>
      <trkpt lat="46.61119" lon="-1.17522">
        <ele>56</ele>
        <time>2024-05-29T18:19:44Z</time>
      </trkpt>
      <trkpt lat="46.61151" lon="-1.17516">
        <ele>56</ele>
        <time>2024-05-29T18:19:50Z</time>
      </trkpt>
      <trkpt lat="46.61178" lon="-1.17502">
        <ele>56</ele>
        <time>2024-05-29T18:19:55Z</time>
      </trkpt>
      <trkpt lat="46.61282" lon="-1.1742">
        <ele>54</ele>
        <time>2024-05-29T18:20:16Z</time>
      </trkpt>
      <trkpt lat="46.61298" lon="-1.17411">
        <ele>54</ele>
        <time>2024-05-29T18:20:19Z</time>
      </trkpt>
      <trkpt lat="46.61338" lon="-1.17396">
        <ele>55</ele>
        <time>2024-05-29T18:20:27Z</time>
      </trkpt>
      <trkpt lat="46.61357" lon="-1.17393">
        <ele>54</ele>
        <time>2024-05-29T18:20:30Z</time>
      </trkpt>
      <trkpt lat="46.61403" lon="-1.17394">
        <ele>52</ele>
        <time>2024-05-29T18:20:38Z</time>
      </trkpt>
      <trkpt lat="46.61476" lon="-1.17401">
        <ele>51</ele>
        <time>2024-05-29T18:20:51Z</time>
      </trkpt>
      <trkpt lat="46.61509" lon="-1.17399">
        <ele>50</ele>
        <time>2024-05-29T18:20:57Z</time>
      </trkpt>
      <trkpt lat="46.61545" lon="-1.17392">
        <ele>49</ele>
        <time>2024-05-29T18:21:03Z</time>
      </trkpt>
      <trkpt lat="46.61682" lon="-1.1735">
        <ele>51</ele>
        <time>2024-05-29T18:21:28Z</time>
      </trkpt>
      <trkpt lat="46.61716" lon="-1.17343">
        <ele>54</ele>
        <time>2024-05-29T18:21:35Z</time>
      </trkpt>
      <trkpt lat="46.61788" lon="-1.17338">
        <ele>58</ele>
        <time>2024-05-29T18:21:47Z</time>
      </trkpt>
      <trkpt lat="46.61845" lon="-1.17326">
        <ele>61</ele>
        <time>2024-05-29T18:21:58Z</time>
      </trkpt>
      <trkpt lat="46.6188" lon="-1.17312">
        <ele>62</ele>
        <time>2024-05-29T18:22:04Z</time>
      </trkpt>
      <trkpt lat="46.61958" lon="-1.17274">
        <ele>64</ele>
        <time>2024-05-29T18:22:19Z</time>
      </trkpt>
      <trkpt lat="46.61981" lon="-1.17266">
        <ele>64</ele>
        <time>2024-05-29T18:22:23Z</time>
      </trkpt>
      <trkpt lat="46.62051" lon="-1.17252">
        <ele>65</ele>
        <time>2024-05-29T18:22:35Z</time>
      </trkpt>
      <trkpt lat="46.62075" lon="-1.17252">
        <ele>65</ele>
        <time>2024-05-29T18:22:40Z</time>
      </trkpt>
      <trkpt lat="46.62174" lon="-1.17269">
        <ele>66</ele>
        <time>2024-05-29T18:22:57Z</time>
      </trkpt>
      <trkpt lat="46.62197" lon="-1.17271">
        <ele>67</ele>
        <time>2024-05-29T18:23:02Z</time>
      </trkpt>
      <trkpt lat="46.623" lon="-1.17251">
        <ele>72</ele>
        <time>2024-05-29T18:23:20Z</time>
      </trkpt>
      <trkpt lat="46.62477" lon="-1.17242">
        <ele>71</ele>
        <time>2024-05-29T18:23:52Z</time>
      </trkpt>
      <trkpt lat="46.62516" lon="-1.17235">
        <ele>71</ele>
        <time>2024-05-29T18:23:59Z</time>
      </trkpt>
      <trkpt lat="46.6253" lon="-1.1723">
        <ele>72</ele>
        <time>2024-05-29T18:24:01Z</time>
      </trkpt>
      <trkpt lat="46.62547" lon="-1.17221">
        <ele>72</ele>
        <time>2024-05-29T18:24:04Z</time>
      </trkpt>
      <trkpt lat="46.62645" lon="-1.17159">
        <ele>76</ele>
        <time>2024-05-29T18:24:23Z</time>
      </trkpt>
      <trkpt lat="46.62671" lon="-1.17148">
        <ele>77</ele>
        <time>2024-05-29T18:24:28Z</time>
      </trkpt>
      <trkpt lat="46.62727" lon="-1.17134">
        <ele>78</ele>
        <time>2024-05-29T18:24:38Z</time>
      </trkpt>
      <trkpt lat="46.62764" lon="-1.1713">
        <ele>78</ele>
        <time>2024-05-29T18:24:45Z</time>
      </trkpt>
      <trkpt lat="46.62845" lon="-1.17136">
        <ele>76</ele>
        <time>2024-05-29T18:24:59Z</time>
      </trkpt>
      <trkpt lat="46.62928" lon="-1.17137">
        <ele>76</ele>
        <time>2024-05-29T18:25:14Z</time>
      </trkpt>
      <trkpt lat="46.62971" lon="-1.17135">
        <ele>76</ele>
        <time>2024-05-29T18:25:22Z</time>
      </trkpt>
      <trkpt lat="46.63129" lon="-1.17131">
        <ele>77</ele>
        <time>2024-05-29T18:25:50Z</time>
      </trkpt>
      <trkpt lat="46.63149" lon="-1.17128">
        <ele>77</ele>
        <time>2024-05-29T18:25:53Z</time>
      </trkpt>
      <trkpt lat="46.6317" lon="-1.17121">
        <ele>76</ele>
        <time>2024-05-29T18:25:57Z</time>
      </trkpt>
      <trkpt lat="46.63207" lon="-1.17105">
        <ele>76</ele>
        <time>2024-05-29T18:26:04Z</time>
      </trkpt>
      <trkpt lat="46.63228" lon="-1.171">
        <ele>75</ele>
        <time>2024-05-29T18:26:08Z</time>
      </trkpt>
      <trkpt lat="46.63258" lon="-1.17096">
        <ele>75</ele>
        <time>2024-05-29T18:26:13Z</time>
      </trkpt>
      <trkpt lat="46.63278" lon="-1.1709">
        <ele>76</ele>
        <time>2024-05-29T18:26:17Z</time>
      </trkpt>
      <trkpt lat="46.63297" lon="-1.17084">
        <ele>76</ele>
        <time>2024-05-29T18:26:20Z</time>
      </trkpt>
      <trkpt lat="46.63316" lon="-1.17082">
        <ele>77</ele>
        <time>2024-05-29T18:26:24Z</time>
      </trkpt>
      <trkpt lat="46.63401" lon="-1.17091">
        <ele>76</ele>
        <time>2024-05-29T18:26:39Z</time>
      </trkpt>
      <trkpt lat="46.63448" lon="-1.17101">
        <ele>75</ele>
        <time>2024-05-29T18:26:47Z</time>
      </trkpt>
      <trkpt lat="46.6346" lon="-1.17097">
        <ele>75</ele>
        <time>2024-05-29T18:26:50Z</time>
      </trkpt>
      <trkpt lat="46.63464" lon="-1.17089">
        <ele>75</ele>
        <time>2024-05-29T18:26:51Z</time>
      </trkpt>
      <trkpt lat="46.6346" lon="-1.17082">
        <ele>75</ele>
        <time>2024-05-29T18:26:52Z</time>
      </trkpt>
      <trkpt lat="46.63458" lon="-1.17072">
        <ele>75</ele>
        <time>2024-05-29T18:26:53Z</time>
      </trkpt>
      <trkpt lat="46.63459" lon="-1.16964">
        <ele>74</ele>
        <time>2024-05-29T18:27:06Z</time>
      </trkpt>
      <trkpt lat="46.63459" lon="-1.16954">
        <ele>74</ele>
        <time>2024-05-29T18:27:08Z</time>
      </trkpt>
      <trkpt lat="46.63459" lon="-1.16932">
        <ele>74</ele>
        <time>2024-05-29T18:27:10Z</time>
      </trkpt>
      <trkpt lat="46.63452" lon="-1.16903">
        <ele>73</ele>
        <time>2024-05-29T18:27:14Z</time>
      </trkpt>
      <trkpt lat="46.63434" lon="-1.16861">
        <ele>74</ele>
        <time>2024-05-29T18:27:20Z</time>
      </trkpt>
      <trkpt lat="46.63407" lon="-1.16816">
        <ele>75</ele>
        <time>2024-05-29T18:27:27Z</time>
      </trkpt>
      <trkpt lat="46.63358" lon="-1.16765">
        <ele>77</ele>
        <time>2024-05-29T18:27:38Z</time>
      </trkpt>
      <trkpt lat="46.63431" lon="-1.16585">
        <ele>73</ele>
        <time>2024-05-29T18:28:04Z</time>
      </trkpt>
      <trkpt lat="46.63682" lon="-1.1599">
        <ele>85</ele>
        <time>2024-05-29T18:29:29Z</time>
      </trkpt>
      <trkpt lat="46.63757" lon="-1.15809">
        <ele>88</ele>
        <time>2024-05-29T18:29:55Z</time>
      </trkpt>
      <trkpt lat="46.63825" lon="-1.15639">
        <ele>92</ele>
        <time>2024-05-29T18:30:19Z</time>
      </trkpt>
      <trkpt lat="46.6384" lon="-1.15597">
        <ele>91</ele>
        <time>2024-05-29T18:30:25Z</time>
      </trkpt>
      <trkpt lat="46.63844" lon="-1.15581">
        <ele>91</ele>
        <time>2024-05-29T18:30:27Z</time>
      </trkpt>
      <trkpt lat="46.63847" lon="-1.15541">
        <ele>92</ele>
        <time>2024-05-29T18:30:32Z</time>
      </trkpt>
      <trkpt lat="46.63847" lon="-1.15501">
        <ele>92</ele>
        <time>2024-05-29T18:30:36Z</time>
      </trkpt>
      <trkpt lat="46.63843" lon="-1.15477">
        <ele>93</ele>
        <time>2024-05-29T18:30:39Z</time>
      </trkpt>
      <trkpt lat="46.63833" lon="-1.15469">
        <ele>93</ele>
        <time>2024-05-29T18:30:42Z</time>
      </trkpt>
      <trkpt lat="46.63825" lon="-1.15457">
        <ele>93</ele>
        <time>2024-05-29T18:30:44Z</time>
      </trkpt>
      <trkpt lat="46.6382" lon="-1.15443">
        <ele>94</ele>
        <time>2024-05-29T18:30:45Z</time>
      </trkpt>
      <trkpt lat="46.63818" lon="-1.15425">
        <ele>94</ele>
        <time>2024-05-29T18:30:48Z</time>
      </trkpt>
      <trkpt lat="46.63821" lon="-1.15403">
        <ele>94</ele>
        <time>2024-05-29T18:30:50Z</time>
      </trkpt>
      <trkpt lat="46.63827" lon="-1.15386">
        <ele>94</ele>
        <time>2024-05-29T18:30:53Z</time>
      </trkpt>
      <trkpt lat="46.63835" lon="-1.15375">
        <ele>95</ele>
        <time>2024-05-29T18:30:55Z</time>
      </trkpt>
      <trkpt lat="46.63847" lon="-1.15368">
        <ele>94</ele>
        <time>2024-05-29T18:30:57Z</time>
      </trkpt>
      <trkpt lat="46.63857" lon="-1.15366">
        <ele>94</ele>
        <time>2024-05-29T18:30:59Z</time>
      </trkpt>
      <trkpt lat="46.63868" lon="-1.15367">
        <ele>94</ele>
        <time>2024-05-29T18:31:01Z</time>
      </trkpt>
      <trkpt lat="46.63878" lon="-1.15374">
        <ele>95</ele>
        <time>2024-05-29T18:31:03Z</time>
      </trkpt>
      <trkpt lat="46.63898" lon="-1.15366">
        <ele>95</ele>
        <time>2024-05-29T18:31:06Z</time>
      </trkpt>
      <trkpt lat="46.63908" lon="-1.15356">
        <ele>95</ele>
        <time>2024-05-29T18:31:09Z</time>
      </trkpt>
      <trkpt lat="46.63958" lon="-1.15291">
        <ele>94</ele>
        <time>2024-05-29T18:31:21Z</time>
      </trkpt>
      <trkpt lat="46.63988" lon="-1.15244">
        <ele>93</ele>
        <time>2024-05-29T18:31:28Z</time>
      </trkpt>
      <trkpt lat="46.64001" lon="-1.15218">
        <ele>94</ele>
        <time>2024-05-29T18:31:32Z</time>
      </trkpt>
      <trkpt lat="46.64176" lon="-1.14797">
        <ele>95</ele>
        <time>2024-05-29T18:32:32Z</time>
      </trkpt>
      <trkpt lat="46.64274" lon="-1.14561">
        <ele>95</ele>
        <time>2024-05-29T18:33:06Z</time>
      </trkpt>
      <trkpt lat="46.64384" lon="-1.14284">
        <ele>97</ele>
        <time>2024-05-29T18:33:45Z</time>
      </trkpt>
      <trkpt lat="46.64409" lon="-1.14217">
        <ele>95</ele>
        <time>2024-05-29T18:33:55Z</time>
      </trkpt>
      <trkpt lat="46.64451" lon="-1.14079">
        <ele>88</ele>
        <time>2024-05-29T18:34:13Z</time>
      </trkpt>
      <trkpt lat="46.64471" lon="-1.13984">
        <ele>86</ele>
        <time>2024-05-29T18:34:25Z</time>
      </trkpt>
      <trkpt lat="46.64518" lon="-1.14008">
        <ele>87</ele>
        <time>2024-05-29T18:34:34Z</time>
      </trkpt>
      <trkpt lat="46.64539" lon="-1.14025">
        <ele>87</ele>
        <time>2024-05-29T18:34:38Z</time>
      </trkpt>
      <trkpt lat="46.64559" lon="-1.14037">
        <ele>87</ele>
        <time>2024-05-29T18:34:42Z</time>
      </trkpt>
      <trkpt lat="46.64572" lon="-1.14042">
        <ele>87</ele>
        <time>2024-05-29T18:34:45Z</time>
      </trkpt>
      <trkpt lat="46.64596" lon="-1.14048">
        <ele>87</ele>
        <time>2024-05-29T18:34:49Z</time>
      </trkpt>
      <trkpt lat="46.64629" lon="-1.14049">
        <ele>87</ele>
        <time>2024-05-29T18:34:55Z</time>
      </trkpt>
      <trkpt lat="46.64648" lon="-1.14045">
        <ele>87</ele>
        <time>2024-05-29T18:34:58Z</time>
      </trkpt>
      <trkpt lat="46.64665" lon="-1.14038">
        <ele>87</ele>
        <time>2024-05-29T18:35:01Z</time>
      </trkpt>
      <trkpt lat="46.6468" lon="-1.14031">
        <ele>87</ele>
        <time>2024-05-29T18:35:04Z</time>
      </trkpt>
      <trkpt lat="46.64695" lon="-1.1402">
        <ele>86</ele>
        <time>2024-05-29T18:35:07Z</time>
      </trkpt>
      <trkpt lat="46.64728" lon="-1.1399">
        <ele>86</ele>
        <time>2024-05-29T18:35:14Z</time>
      </trkpt>
      <trkpt lat="46.64964" lon="-1.13753">
        <ele>72</ele>
        <time>2024-05-29T18:36:05Z</time>
      </trkpt>
      <trkpt lat="46.65026" lon="-1.13691">
        <ele>71</ele>
        <time>2024-05-29T18:36:18Z</time>
      </trkpt>
      <trkpt lat="46.65041" lon="-1.13676">
        <ele>72</ele>
        <time>2024-05-29T18:36:22Z</time>
      </trkpt>
      <trkpt lat="46.65074" lon="-1.13641">
        <ele>72</ele>
        <time>2024-05-29T18:36:29Z</time>
      </trkpt>
      <trkpt lat="46.65283" lon="-1.13362">
        <ele>78</ele>
        <time>2024-05-29T18:37:19Z</time>
      </trkpt>
      <trkpt lat="46.65303" lon="-1.13338">
        <ele>78</ele>
        <time>2024-05-29T18:37:24Z</time>
      </trkpt>
      <trkpt lat="46.65318" lon="-1.13322">
        <ele>78</ele>
        <time>2024-05-29T18:37:27Z</time>
      </trkpt>
      <trkpt lat="46.6533" lon="-1.13311">
        <ele>79</ele>
        <time>2024-05-29T18:37:30Z</time>
      </trkpt>
      <trkpt lat="46.65353" lon="-1.13297">
        <ele>78</ele>
        <time>2024-05-29T18:37:34Z</time>
      </trkpt>
      <trkpt lat="46.6539" lon="-1.13281">
        <ele>78</ele>
        <time>2024-05-29T18:37:41Z</time>
      </trkpt>
      <trkpt lat="46.65414" lon="-1.13275">
        <ele>77</ele>
        <time>2024-05-29T18:37:45Z</time>
      </trkpt>
      <trkpt lat="46.65441" lon="-1.13273">
        <ele>77</ele>
        <time>2024-05-29T18:37:50Z</time>
      </trkpt>
      <trkpt lat="46.65477" lon="-1.13278">
        <ele>76</ele>
        <time>2024-05-29T18:37:57Z</time>
      </trkpt>
      <trkpt lat="46.65504" lon="-1.13288">
        <ele>76</ele>
        <time>2024-05-29T18:38:02Z</time>
      </trkpt>
      <trkpt lat="46.65531" lon="-1.13303">
        <ele>74</ele>
        <time>2024-05-29T18:38:07Z</time>
      </trkpt>
      <trkpt lat="46.65548" lon="-1.13316">
        <ele>73</ele>
        <time>2024-05-29T18:38:10Z</time>
      </trkpt>
      <trkpt lat="46.65661" lon="-1.13408">
        <ele>67</ele>
        <time>2024-05-29T18:38:33Z</time>
      </trkpt>
      <trkpt lat="46.65698" lon="-1.13431">
        <ele>65</ele>
        <time>2024-05-29T18:38:40Z</time>
      </trkpt>
      <trkpt lat="46.65725" lon="-1.1344">
        <ele>63</ele>
        <time>2024-05-29T18:38:45Z</time>
      </trkpt>
      <trkpt lat="46.65751" lon="-1.13442">
        <ele>62</ele>
        <time>2024-05-29T18:38:50Z</time>
      </trkpt>
      <trkpt lat="46.65779" lon="-1.13438">
        <ele>59</ele>
        <time>2024-05-29T18:38:55Z</time>
      </trkpt>
      <trkpt lat="46.65793" lon="-1.13434">
        <ele>57</ele>
        <time>2024-05-29T18:38:57Z</time>
      </trkpt>
      <trkpt lat="46.6582" lon="-1.1342">
        <ele>54</ele>
        <time>2024-05-29T18:39:03Z</time>
      </trkpt>
      <trkpt lat="46.65881" lon="-1.13365">
        <ele>50</ele>
        <time>2024-05-29T18:39:15Z</time>
      </trkpt>
      <trkpt lat="46.65895" lon="-1.13353">
        <ele>49</ele>
        <time>2024-05-29T18:39:18Z</time>
      </trkpt>
      <trkpt lat="46.6608" lon="-1.13183">
        <ele>58</ele>
        <time>2024-05-29T18:39:57Z</time>
      </trkpt>
      <trkpt lat="46.66105" lon="-1.13167">
        <ele>60</ele>
        <time>2024-05-29T18:40:02Z</time>
      </trkpt>
      <trkpt lat="46.66123" lon="-1.13162">
        <ele>61</ele>
        <time>2024-05-29T18:40:05Z</time>
      </trkpt>
      <trkpt lat="46.66142" lon="-1.13159">
        <ele>62</ele>
        <time>2024-05-29T18:40:09Z</time>
      </trkpt>
      <trkpt lat="46.66168" lon="-1.1316">
        <ele>64</ele>
        <time>2024-05-29T18:40:13Z</time>
      </trkpt>
      <trkpt lat="46.66204" lon="-1.13174">
        <ele>66</ele>
        <time>2024-05-29T18:40:20Z</time>
      </trkpt>
      <trkpt lat="46.66225" lon="-1.13188">
        <ele>68</ele>
        <time>2024-05-29T18:40:24Z</time>
      </trkpt>
      <trkpt lat="46.66248" lon="-1.13213">
        <ele>71</ele>
        <time>2024-05-29T18:40:29Z</time>
      </trkpt>
      <trkpt lat="46.66274" lon="-1.13252">
        <ele>74</ele>
        <time>2024-05-29T18:40:36Z</time>
      </trkpt>
      <trkpt lat="46.66319" lon="-1.13349">
        <ele>78</ele>
        <time>2024-05-29T18:40:50Z</time>
      </trkpt>
      <trkpt lat="46.66337" lon="-1.13383">
        <ele>80</ele>
        <time>2024-05-29T18:40:55Z</time>
      </trkpt>
      <trkpt lat="46.66349" lon="-1.134">
        <ele>81</ele>
        <time>2024-05-29T18:40:58Z</time>
      </trkpt>
      <trkpt lat="46.66381" lon="-1.13435">
        <ele>83</ele>
        <time>2024-05-29T18:41:05Z</time>
      </trkpt>
      <trkpt lat="46.66534" lon="-1.13584">
        <ele>77</ele>
        <time>2024-05-29T18:41:38Z</time>
      </trkpt>
      <trkpt lat="46.66574" lon="-1.13625">
        <ele>71</ele>
        <time>2024-05-29T18:41:47Z</time>
      </trkpt>
      <trkpt lat="46.66609" lon="-1.13652">
        <ele>69</ele>
        <time>2024-05-29T18:41:54Z</time>
      </trkpt>
      <trkpt lat="46.66631" lon="-1.13662">
        <ele>69</ele>
        <time>2024-05-29T18:41:58Z</time>
      </trkpt>
      <trkpt lat="46.66659" lon="-1.13672">
        <ele>70</ele>
        <time>2024-05-29T18:42:03Z</time>
      </trkpt>
      <trkpt lat="46.66762" lon="-1.13707">
        <ele>78</ele>
        <time>2024-05-29T18:42:22Z</time>
      </trkpt>
      <trkpt lat="46.6679" lon="-1.13719">
        <ele>80</ele>
        <time>2024-05-29T18:42:27Z</time>
      </trkpt>
      <trkpt lat="46.66816" lon="-1.13732">
        <ele>82</ele>
        <time>2024-05-29T18:42:32Z</time>
      </trkpt>
      <trkpt lat="46.66858" lon="-1.13762">
        <ele>85</ele>
        <time>2024-05-29T18:42:40Z</time>
      </trkpt>
      <trkpt lat="46.66894" lon="-1.13797">
        <ele>87</ele>
        <time>2024-05-29T18:42:48Z</time>
      </trkpt>
      <trkpt lat="46.66917" lon="-1.13825">
        <ele>89</ele>
        <time>2024-05-29T18:42:53Z</time>
      </trkpt>
      <trkpt lat="46.67021" lon="-1.13962">
        <ele>98</ele>
        <time>2024-05-29T18:43:18Z</time>
      </trkpt>
      <trkpt lat="46.67038" lon="-1.13978">
        <ele>99</ele>
        <time>2024-05-29T18:43:22Z</time>
      </trkpt>
      <trkpt lat="46.67064" lon="-1.13998">
        <ele>100</ele>
        <time>2024-05-29T18:43:27Z</time>
      </trkpt>
      <trkpt lat="46.67094" lon="-1.14012">
        <ele>101</ele>
        <time>2024-05-29T18:43:33Z</time>
      </trkpt>
      <trkpt lat="46.67129" lon="-1.1402">
        <ele>102</ele>
        <time>2024-05-29T18:43:39Z</time>
      </trkpt>
      <trkpt lat="46.6716" lon="-1.1402">
        <ele>102</ele>
        <time>2024-05-29T18:43:45Z</time>
      </trkpt>
      <trkpt lat="46.67178" lon="-1.14018">
        <ele>103</ele>
        <time>2024-05-29T18:43:48Z</time>
      </trkpt>
      <trkpt lat="46.67207" lon="-1.1401">
        <ele>103</ele>
        <time>2024-05-29T18:43:53Z</time>
      </trkpt>
      <trkpt lat="46.67248" lon="-1.13987">
        <ele>104</ele>
        <time>2024-05-29T18:44:01Z</time>
      </trkpt>
      <trkpt lat="46.67294" lon="-1.13957">
        <ele>104</ele>
        <time>2024-05-29T18:44:10Z</time>
      </trkpt>
      <trkpt lat="46.67433" lon="-1.13887">
        <ele>102</ele>
        <time>2024-05-29T18:44:36Z</time>
      </trkpt>
      <trkpt lat="46.67806" lon="-1.13704">
        <ele>104</ele>
        <time>2024-05-29T18:45:46Z</time>
      </trkpt>
      <trkpt lat="46.6795" lon="-1.13631">
        <ele>105</ele>
        <time>2024-05-29T18:46:13Z</time>
      </trkpt>
      <trkpt lat="46.68025" lon="-1.13595">
        <ele>104</ele>
        <time>2024-05-29T18:46:27Z</time>
      </trkpt>
      <trkpt lat="46.68041" lon="-1.13585">
        <ele>104</ele>
        <time>2024-05-29T18:46:30Z</time>
      </trkpt>
      <trkpt lat="46.68057" lon="-1.13568">
        <ele>103</ele>
        <time>2024-05-29T18:46:34Z</time>
      </trkpt>
      <trkpt lat="46.68237" lon="-1.1329">
        <ele>90</ele>
        <time>2024-05-29T18:47:20Z</time>
      </trkpt>
      <trkpt lat="46.68269" lon="-1.13234">
        <ele>88</ele>
        <time>2024-05-29T18:47:29Z</time>
      </trkpt>
      <trkpt lat="46.68354" lon="-1.1307">
        <ele>85</ele>
        <time>2024-05-29T18:47:54Z</time>
      </trkpt>
      <trkpt lat="46.68378" lon="-1.13033">
        <ele>84</ele>
        <time>2024-05-29T18:48:01Z</time>
      </trkpt>
      <trkpt lat="46.68397" lon="-1.13016">
        <ele>84</ele>
        <time>2024-05-29T18:48:05Z</time>
      </trkpt>
      <trkpt lat="46.68404" lon="-1.13014">
        <ele>85</ele>
        <time>2024-05-29T18:48:06Z</time>
      </trkpt>
      <trkpt lat="46.68506" lon="-1.12965">
        <ele>90</ele>
        <time>2024-05-29T18:48:25Z</time>
      </trkpt>
      <trkpt lat="46.68523" lon="-1.12963">
        <ele>90</ele>
        <time>2024-05-29T18:48:28Z</time>
      </trkpt>
      <trkpt lat="46.68532" lon="-1.12964">
        <ele>91</ele>
        <time>2024-05-29T18:48:30Z</time>
      </trkpt>
      <trkpt lat="46.68552" lon="-1.12975">
        <ele>92</ele>
        <time>2024-05-29T18:48:33Z</time>
      </trkpt>
      <trkpt lat="46.68565" lon="-1.12987">
        <ele>92</ele>
        <time>2024-05-29T18:48:36Z</time>
      </trkpt>
      <trkpt lat="46.68572" lon="-1.12999">
        <ele>92</ele>
        <time>2024-05-29T18:48:38Z</time>
      </trkpt>
      <trkpt lat="46.6861" lon="-1.13077">
        <ele>94</ele>
        <time>2024-05-29T18:48:50Z</time>
      </trkpt>
      <trkpt lat="46.68633" lon="-1.13122">
        <ele>95</ele>
        <time>2024-05-29T18:48:57Z</time>
      </trkpt>
      <trkpt lat="46.68679" lon="-1.13188">
        <ele>96</ele>
        <time>2024-05-29T18:49:08Z</time>
      </trkpt>
      <trkpt lat="46.68723" lon="-1.13034">
        <ele>100</ele>
        <time>2024-05-29T18:49:28Z</time>
      </trkpt>
      <trkpt lat="46.68729" lon="-1.13017">
        <ele>100</ele>
        <time>2024-05-29T18:49:31Z</time>
      </trkpt>
      <trkpt lat="46.68744" lon="-1.12993">
        <ele>101</ele>
        <time>2024-05-29T18:49:35Z</time>
      </trkpt>
      <trkpt lat="46.68759" lon="-1.1298">
        <ele>101</ele>
        <time>2024-05-29T18:49:38Z</time>
      </trkpt>
      <trkpt lat="46.68832" lon="-1.12958">
        <ele>100</ele>
        <time>2024-05-29T18:49:51Z</time>
      </trkpt>
      <trkpt lat="46.68892" lon="-1.13047">
        <ele>101</ele>
        <time>2024-05-29T18:50:06Z</time>
      </trkpt>
      <trkpt lat="46.689" lon="-1.13052">
        <ele>101</ele>
        <time>2024-05-29T18:50:08Z</time>
      </trkpt>
      <trkpt lat="46.69047" lon="-1.13069">
        <ele>99</ele>
        <time>2024-05-29T18:50:34Z</time>
      </trkpt>
      <trkpt lat="46.69064" lon="-1.13076">
        <ele>99</ele>
        <time>2024-05-29T18:50:37Z</time>
      </trkpt>
      <trkpt lat="46.69078" lon="-1.13088">
        <ele>99</ele>
        <time>2024-05-29T18:50:40Z</time>
      </trkpt>
      <trkpt lat="46.6909" lon="-1.13071">
        <ele>99</ele>
        <time>2024-05-29T18:50:43Z</time>
      </trkpt>
      <trkpt lat="46.69098" lon="-1.13065">
        <ele>99</ele>
        <time>2024-05-29T18:50:45Z</time>
      </trkpt>
      <trkpt lat="46.69262" lon="-1.12984">
        <ele>93</ele>
        <time>2024-05-29T18:51:16Z</time>
      </trkpt>
      <trkpt lat="46.69503" lon="-1.1287">
        <ele>84</ele>
        <time>2024-05-29T18:52:01Z</time>
      </trkpt>
      <trkpt lat="46.69542" lon="-1.12853">
        <ele>84</ele>
        <time>2024-05-29T18:52:08Z</time>
      </trkpt>
      <trkpt lat="46.69581" lon="-1.12844">
        <ele>83</ele>
        <time>2024-05-29T18:52:15Z</time>
      </trkpt>
      <trkpt lat="46.69605" lon="-1.12843">
        <ele>82</ele>
        <time>2024-05-29T18:52:19Z</time>
      </trkpt>
      <trkpt lat="46.69629" lon="-1.12847">
        <ele>81</ele>
        <time>2024-05-29T18:52:23Z</time>
      </trkpt>
      <trkpt lat="46.69782" lon="-1.12893">
        <ele>72</ele>
        <time>2024-05-29T18:52:51Z</time>
      </trkpt>
      <trkpt lat="46.69806" lon="-1.12898">
        <ele>69</ele>
        <time>2024-05-29T18:52:56Z</time>
      </trkpt>
      <trkpt lat="46.69826" lon="-1.12899">
        <ele>67</ele>
        <time>2024-05-29T18:52:59Z</time>
      </trkpt>
      <trkpt lat="46.69846" lon="-1.12894">
        <ele>65</ele>
        <time>2024-05-29T18:53:03Z</time>
      </trkpt>
      <trkpt lat="46.69865" lon="-1.12885">
        <ele>62</ele>
        <time>2024-05-29T18:53:06Z</time>
      </trkpt>
      <trkpt lat="46.6988" lon="-1.1287">
        <ele>61</ele>
        <time>2024-05-29T18:53:10Z</time>
      </trkpt>
      <trkpt lat="46.6989" lon="-1.12852">
        <ele>61</ele>
        <time>2024-05-29T18:53:12Z</time>
      </trkpt>
      <trkpt lat="46.69897" lon="-1.12832">
        <ele>61</ele>
        <time>2024-05-29T18:53:15Z</time>
      </trkpt>
      <trkpt lat="46.6991" lon="-1.12775">
        <ele>62</ele>
        <time>2024-05-29T18:53:22Z</time>
      </trkpt>
      <trkpt lat="46.69926" lon="-1.12717">
        <ele>60</ele>
        <time>2024-05-29T18:53:30Z</time>
      </trkpt>
      <trkpt lat="46.69937" lon="-1.12684">
        <ele>58</ele>
        <time>2024-05-29T18:53:35Z</time>
      </trkpt>
      <trkpt lat="46.69957" lon="-1.12647">
        <ele>56</ele>
        <time>2024-05-29T18:53:40Z</time>
      </trkpt>
      <trkpt lat="46.7003" lon="-1.12556">
        <ele>48</ele>
        <time>2024-05-29T18:53:57Z</time>
      </trkpt>
      <trkpt lat="46.70071" lon="-1.12508">
        <ele>43</ele>
        <time>2024-05-29T18:54:07Z</time>
      </trkpt>
      <trkpt lat="46.70102" lon="-1.12468">
        <ele>42</ele>
        <time>2024-05-29T18:54:14Z</time>
      </trkpt>
      <trkpt lat="46.70212" lon="-1.1233">
        <ele>45</ele>
        <time>2024-05-29T18:54:40Z</time>
      </trkpt>
      <trkpt lat="46.70229" lon="-1.12303">
        <ele>46</ele>
        <time>2024-05-29T18:54:44Z</time>
      </trkpt>
      <trkpt lat="46.70239" lon="-1.12277">
        <ele>47</ele>
        <time>2024-05-29T18:54:48Z</time>
      </trkpt>
      <trkpt lat="46.70292" lon="-1.12116">
        <ele>54</ele>
        <time>2024-05-29T18:55:10Z</time>
      </trkpt>
      <trkpt lat="46.70306" lon="-1.12084">
        <ele>56</ele>
        <time>2024-05-29T18:55:14Z</time>
      </trkpt>
      <trkpt lat="46.70328" lon="-1.1205">
        <ele>57</ele>
        <time>2024-05-29T18:55:20Z</time>
      </trkpt>
      <trkpt lat="46.70344" lon="-1.12029">
        <ele>57</ele>
        <time>2024-05-29T18:55:24Z</time>
      </trkpt>
      <trkpt lat="46.70367" lon="-1.12012">
        <ele>59</ele>
        <time>2024-05-29T18:55:29Z</time>
      </trkpt>
      <trkpt lat="46.70407" lon="-1.11989">
        <ele>63</ele>
        <time>2024-05-29T18:55:36Z</time>
      </trkpt>
      <trkpt lat="46.70422" lon="-1.11977">
        <ele>64</ele>
        <time>2024-05-29T18:55:39Z</time>
      </trkpt>
      <trkpt lat="46.70433" lon="-1.11965">
        <ele>65</ele>
        <time>2024-05-29T18:55:42Z</time>
      </trkpt>
      <trkpt lat="46.70441" lon="-1.1195">
        <ele>66</ele>
        <time>2024-05-29T18:55:44Z</time>
      </trkpt>
      <trkpt lat="46.70448" lon="-1.11934">
        <ele>67</ele>
        <time>2024-05-29T18:55:46Z</time>
      </trkpt>
      <trkpt lat="46.70454" lon="-1.11912">
        <ele>68</ele>
        <time>2024-05-29T18:55:49Z</time>
      </trkpt>
      <trkpt lat="46.70457" lon="-1.11887">
        <ele>68</ele>
        <time>2024-05-29T18:55:52Z</time>
      </trkpt>
      <trkpt lat="46.70458" lon="-1.11821">
        <ele>67</ele>
        <time>2024-05-29T18:56:00Z</time>
      </trkpt>
      <trkpt lat="46.70462" lon="-1.11798">
        <ele>68</ele>
        <time>2024-05-29T18:56:03Z</time>
      </trkpt>
      <trkpt lat="46.7047" lon="-1.11783">
        <ele>69</ele>
        <time>2024-05-29T18:56:06Z</time>
      </trkpt>
      <trkpt lat="46.70479" lon="-1.11773">
        <ele>71</ele>
        <time>2024-05-29T18:56:08Z</time>
      </trkpt>
      <trkpt lat="46.70488" lon="-1.1177">
        <ele>72</ele>
        <time>2024-05-29T18:56:09Z</time>
      </trkpt>
      <trkpt lat="46.70497" lon="-1.1177">
        <ele>74</ele>
        <time>2024-05-29T18:56:11Z</time>
      </trkpt>
      <trkpt lat="46.70721" lon="-1.11825">
        <ele>80</ele>
        <time>2024-05-29T18:56:51Z</time>
      </trkpt>
      <trkpt lat="46.70745" lon="-1.11825">
        <ele>81</ele>
        <time>2024-05-29T18:56:56Z</time>
      </trkpt>
      <trkpt lat="46.7077" lon="-1.11818">
        <ele>81</ele>
        <time>2024-05-29T18:57:00Z</time>
      </trkpt>
      <trkpt lat="46.71045" lon="-1.11661">
        <ele>81</ele>
        <time>2024-05-29T18:57:53Z</time>
      </trkpt>
      <trkpt lat="46.71063" lon="-1.11656">
        <ele>81</ele>
        <time>2024-05-29T18:57:56Z</time>
      </trkpt>
      <trkpt lat="46.71083" lon="-1.11654">
        <ele>81</ele>
        <time>2024-05-29T18:57:59Z</time>
      </trkpt>
      <trkpt lat="46.71216" lon="-1.11655">
        <ele>81</ele>
        <time>2024-05-29T18:58:23Z</time>
      </trkpt>
      <trkpt lat="46.7126" lon="-1.11648">
        <ele>81</ele>
        <time>2024-05-29T18:58:31Z</time>
      </trkpt>
      <trkpt lat="46.71298" lon="-1.11635">
        <ele>81</ele>
        <time>2024-05-29T18:58:38Z</time>
      </trkpt>
      <trkpt lat="46.71389" lon="-1.11589">
        <ele>82</ele>
        <time>2024-05-29T18:58:55Z</time>
      </trkpt>
      <trkpt lat="46.71694" lon="-1.11435">
        <ele>77</ele>
        <time>2024-05-29T18:59:53Z</time>
      </trkpt>
      <trkpt lat="46.71897" lon="-1.11341">
        <ele>74</ele>
        <time>2024-05-29T19:00:30Z</time>
      </trkpt>
      <trkpt lat="46.7183" lon="-1.11223">
        <ele>75</ele>
        <time>2024-05-29T19:00:49Z</time>
      </trkpt>
      <trkpt lat="46.71689" lon="-1.11011">
        <ele>68</ele>
        <time>2024-05-29T19:01:25Z</time>
      </trkpt>
      <trkpt lat="46.71671" lon="-1.1098">
        <ele>66</ele>
        <time>2024-05-29T19:01:30Z</time>
      </trkpt>
      <trkpt lat="46.71664" lon="-1.10958">
        <ele>65</ele>
        <time>2024-05-29T19:01:33Z</time>
      </trkpt>
      <trkpt lat="46.7166" lon="-1.10928">
        <ele>64</ele>
        <time>2024-05-29T19:01:37Z</time>
      </trkpt>
      <trkpt lat="46.71662" lon="-1.10913">
        <ele>64</ele>
        <time>2024-05-29T19:01:39Z</time>
      </trkpt>
      <trkpt lat="46.71686" lon="-1.1081">
        <ele>61</ele>
        <time>2024-05-29T19:01:52Z</time>
      </trkpt>
      <trkpt lat="46.71688" lon="-1.10787">
        <ele>60</ele>
        <time>2024-05-29T19:01:55Z</time>
      </trkpt>
      <trkpt lat="46.71684" lon="-1.10765">
        <ele>60</ele>
        <time>2024-05-29T19:01:58Z</time>
      </trkpt>
      <trkpt lat="46.71678" lon="-1.10749">
        <ele>60</ele>
        <time>2024-05-29T19:02:00Z</time>
      </trkpt>
      <trkpt lat="46.71547" lon="-1.10561">
        <ele>65</ele>
        <time>2024-05-29T19:02:32Z</time>
      </trkpt>
      <trkpt lat="46.71526" lon="-1.10521">
        <ele>67</ele>
        <time>2024-05-29T19:02:39Z</time>
      </trkpt>
      <trkpt lat="46.71513" lon="-1.10486">
        <ele>69</ele>
        <time>2024-05-29T19:02:43Z</time>
      </trkpt>
      <trkpt lat="46.71477" lon="-1.10392">
        <ele>70</ele>
        <time>2024-05-29T19:02:57Z</time>
      </trkpt>
      <trkpt lat="46.71463" lon="-1.10365">
        <ele>71</ele>
        <time>2024-05-29T19:03:01Z</time>
      </trkpt>
      <trkpt lat="46.71448" lon="-1.10345">
        <ele>71</ele>
        <time>2024-05-29T19:03:04Z</time>
      </trkpt>
      <trkpt lat="46.71393" lon="-1.10288">
        <ele>72</ele>
        <time>2024-05-29T19:03:16Z</time>
      </trkpt>
      <trkpt lat="46.7133" lon="-1.1023">
        <ele>74</ele>
        <time>2024-05-29T19:03:30Z</time>
      </trkpt>
      <trkpt lat="46.71253" lon="-1.10168">
        <ele>75</ele>
        <time>2024-05-29T19:03:45Z</time>
      </trkpt>
      <trkpt lat="46.71223" lon="-1.10147">
        <ele>76</ele>
        <time>2024-05-29T19:03:51Z</time>
      </trkpt>
      <trkpt lat="46.71192" lon="-1.10131">
        <ele>78</ele>
        <time>2024-05-29T19:03:57Z</time>
      </trkpt>
      <trkpt lat="46.71105" lon="-1.10092">
        <ele>82</ele>
        <time>2024-05-29T19:04:13Z</time>
      </trkpt>
      <trkpt lat="46.71081" lon="-1.10074">
        <ele>82</ele>
        <time>2024-05-29T19:04:18Z</time>
      </trkpt>
      <trkpt lat="46.71068" lon="-1.10058">
        <ele>81</ele>
        <time>2024-05-29T19:04:21Z</time>
      </trkpt>
      <trkpt lat="46.71054" lon="-1.10036">
        <ele>81</ele>
        <time>2024-05-29T19:04:25Z</time>
      </trkpt>
      <trkpt lat="46.70998" lon="-1.09936">
        <ele>79</ele>
        <time>2024-05-29T19:04:40Z</time>
      </trkpt>
      <trkpt lat="46.70969" lon="-1.09872">
        <ele>79</ele>
        <time>2024-05-29T19:04:50Z</time>
      </trkpt>
      <trkpt lat="46.70949" lon="-1.09816">
        <ele>80</ele>
        <time>2024-05-29T19:04:58Z</time>
      </trkpt>
      <trkpt lat="46.70906" lon="-1.09688">
        <ele>80</ele>
        <time>2024-05-29T19:05:15Z</time>
      </trkpt>
      <trkpt lat="46.70829" lon="-1.09429">
        <ele>83</ele>
        <time>2024-05-29T19:05:49Z</time>
      </trkpt>
      <trkpt lat="46.70808" lon="-1.09375">
        <ele>85</ele>
        <time>2024-05-29T19:05:57Z</time>
      </trkpt>
      <trkpt lat="46.70726" lon="-1.09221">
        <ele>89</ele>
        <time>2024-05-29T19:06:21Z</time>
      </trkpt>
      <trkpt lat="46.70703" lon="-1.09165">
        <ele>89</ele>
        <time>2024-05-29T19:06:29Z</time>
      </trkpt>
      <trkpt lat="46.70659" lon="-1.0904">
        <ele>85</ele>
        <time>2024-05-29T19:06:46Z</time>
      </trkpt>
      <trkpt lat="46.70643" lon="-1.08982">
        <ele>85</ele>
        <time>2024-05-29T19:06:53Z</time>
      </trkpt>
      <trkpt lat="46.70606" lon="-1.08765">
        <ele>84</ele>
        <time>2024-05-29T19:07:21Z</time>
      </trkpt>
      <trkpt lat="46.70596" lon="-1.08731">
        <ele>84</ele>
        <time>2024-05-29T19:07:25Z</time>
      </trkpt>
      <trkpt lat="46.70524" lon="-1.08563">
        <ele>82</ele>
        <time>2024-05-29T19:07:49Z</time>
      </trkpt>
      <trkpt lat="46.7052" lon="-1.08547">
        <ele>83</ele>
        <time>2024-05-29T19:07:51Z</time>
      </trkpt>
      <trkpt lat="46.70524" lon="-1.08496">
        <ele>83</ele>
        <time>2024-05-29T19:07:58Z</time>
      </trkpt>
      <trkpt lat="46.70521" lon="-1.08486">
        <ele>83</ele>
        <time>2024-05-29T19:07:59Z</time>
      </trkpt>
      <trkpt lat="46.70525" lon="-1.08481">
        <ele>82</ele>
        <time>2024-05-29T19:08:00Z</time>
      </trkpt>
      <trkpt lat="46.70531" lon="-1.08456">
        <ele>82</ele>
        <time>2024-05-29T19:08:03Z</time>
      </trkpt>
      <trkpt lat="46.70542" lon="-1.08425">
        <ele>81</ele>
        <time>2024-05-29T19:08:08Z</time>
      </trkpt>
      <trkpt lat="46.70589" lon="-1.08357">
        <ele>80</ele>
        <time>2024-05-29T19:08:19Z</time>
      </trkpt>
      <trkpt lat="46.70606" lon="-1.08327">
        <ele>79</ele>
        <time>2024-05-29T19:08:24Z</time>
      </trkpt>
      <trkpt lat="46.70618" lon="-1.08298">
        <ele>79</ele>
        <time>2024-05-29T19:08:28Z</time>
      </trkpt>
      <trkpt lat="46.70648" lon="-1.08186">
        <ele>79</ele>
        <time>2024-05-29T19:08:43Z</time>
      </trkpt>
      <trkpt lat="46.70678" lon="-1.0804">
        <ele>74</ele>
        <time>2024-05-29T19:09:01Z</time>
      </trkpt>
      <trkpt lat="46.70707" lon="-1.07921">
        <ele>73</ele>
        <time>2024-05-29T19:09:17Z</time>
      </trkpt>
      <trkpt lat="46.7071" lon="-1.0779">
        <ele>71</ele>
        <time>2024-05-29T19:09:33Z</time>
      </trkpt>
      <trkpt lat="46.70716" lon="-1.07724">
        <ele>70</ele>
        <time>2024-05-29T19:09:41Z</time>
      </trkpt>
      <trkpt lat="46.70733" lon="-1.07606">
        <ele>67</ele>
        <time>2024-05-29T19:09:56Z</time>
      </trkpt>
      <trkpt lat="46.70737" lon="-1.0755">
        <ele>66</ele>
        <time>2024-05-29T19:10:03Z</time>
      </trkpt>
      <trkpt lat="46.70719" lon="-1.07452">
        <ele>65</ele>
        <time>2024-05-29T19:10:15Z</time>
      </trkpt>
      <trkpt lat="46.70705" lon="-1.07303">
        <ele>65</ele>
        <time>2024-05-29T19:10:33Z</time>
      </trkpt>
      <trkpt lat="46.7068" lon="-1.07098">
        <ele>62</ele>
        <time>2024-05-29T19:10:59Z</time>
      </trkpt>
      <trkpt lat="46.70676" lon="-1.07081">
        <ele>62</ele>
        <time>2024-05-29T19:11:01Z</time>
      </trkpt>
      <trkpt lat="46.70657" lon="-1.06987">
        <ele>61</ele>
        <time>2024-05-29T19:11:13Z</time>
      </trkpt>
      <trkpt lat="46.70621" lon="-1.06841">
        <ele>60</ele>
        <time>2024-05-29T19:11:32Z</time>
      </trkpt>
      <trkpt lat="46.70609" lon="-1.06825">
        <ele>61</ele>
        <time>2024-05-29T19:11:35Z</time>
      </trkpt>
      <trkpt lat="46.70594" lon="-1.06817">
        <ele>61</ele>
        <time>2024-05-29T19:11:37Z</time>
      </trkpt>
      <trkpt lat="46.70587" lon="-1.06809">
        <ele>61</ele>
        <time>2024-05-29T19:11:39Z</time>
      </trkpt>
      <trkpt lat="46.70592" lon="-1.06741">
        <ele>62</ele>
        <time>2024-05-29T19:11:47Z</time>
      </trkpt>
      <trkpt lat="46.70597" lon="-1.06724">
        <ele>62</ele>
        <time>2024-05-29T19:11:50Z</time>
      </trkpt>
      <trkpt lat="46.70688" lon="-1.06523">
        <ele>68</ele>
        <time>2024-05-29T19:12:19Z</time>
      </trkpt>
      <trkpt lat="46.70694" lon="-1.06504">
        <ele>68</ele>
        <time>2024-05-29T19:12:22Z</time>
      </trkpt>
      <trkpt lat="46.70701" lon="-1.06466">
        <ele>68</ele>
        <time>2024-05-29T19:12:26Z</time>
      </trkpt>
      <trkpt lat="46.70709" lon="-1.06369">
        <ele>70</ele>
        <time>2024-05-29T19:12:38Z</time>
      </trkpt>
      <trkpt lat="46.70875" lon="-1.06481">
        <ele>66</ele>
        <time>2024-05-29T19:13:11Z</time>
      </trkpt>
      <trkpt lat="46.70877" lon="-1.06475">
        <ele>66</ele>
        <time>2024-05-29T19:13:12Z</time>
      </trkpt>
      <trkpt lat="46.70887" lon="-1.06464">
        <ele>66</ele>
        <time>2024-05-29T19:13:14Z</time>
      </trkpt>
      <trkpt lat="46.70961" lon="-1.0639">
        <ele>66</ele>
        <time>2024-05-29T19:13:30Z</time>
      </trkpt>
      <trkpt lat="46.7099" lon="-1.06358">
        <ele>66</ele>
        <time>2024-05-29T19:13:36Z</time>
      </trkpt>
      <trkpt lat="46.71006" lon="-1.06333">
        <ele>66</ele>
        <time>2024-05-29T19:13:41Z</time>
      </trkpt>
      <trkpt lat="46.71111" lon="-1.06128">
        <ele>68</ele>
        <time>2024-05-29T19:14:12Z</time>
      </trkpt>
      <trkpt lat="46.71137" lon="-1.06065">
        <ele>68</ele>
        <time>2024-05-29T19:14:21Z</time>
      </trkpt>
      <trkpt lat="46.71168" lon="-1.05983">
        <ele>68</ele>
        <time>2024-05-29T19:14:32Z</time>
      </trkpt>
      <trkpt lat="46.712" lon="-1.05884">
        <ele>69</ele>
        <time>2024-05-29T19:14:46Z</time>
      </trkpt>
      <trkpt lat="46.71212" lon="-1.05857">
        <ele>69</ele>
        <time>2024-05-29T19:14:49Z</time>
      </trkpt>
      <trkpt lat="46.71236" lon="-1.05827">
        <ele>68</ele>
        <time>2024-05-29T19:14:55Z</time>
      </trkpt>
      <trkpt lat="46.71255" lon="-1.0578">
        <ele>68</ele>
        <time>2024-05-29T19:15:02Z</time>
      </trkpt>
      <trkpt lat="46.71272" lon="-1.05722">
        <ele>69</ele>
        <time>2024-05-29T19:15:09Z</time>
      </trkpt>
      <trkpt lat="46.71285" lon="-1.05666">
        <ele>70</ele>
        <time>2024-05-29T19:15:17Z</time>
      </trkpt>
      <trkpt lat="46.71316" lon="-1.05471">
        <ele>69</ele>
        <time>2024-05-29T19:15:41Z</time>
      </trkpt>
      <trkpt lat="46.7134" lon="-1.05382">
        <ele>70</ele>
        <time>2024-05-29T19:15:53Z</time>
      </trkpt>
      <trkpt lat="46.71352" lon="-1.05351">
        <ele>70</ele>
        <time>2024-05-29T19:15:57Z</time>
      </trkpt>
      <trkpt lat="46.71376" lon="-1.05307">
        <ele>70</ele>
        <time>2024-05-29T19:16:04Z</time>
      </trkpt>
      <trkpt lat="46.71415" lon="-1.05258">
        <ele>71</ele>
        <time>2024-05-29T19:16:13Z</time>
      </trkpt>
      <trkpt lat="46.71511" lon="-1.05164">
        <ele>73</ele>
        <time>2024-05-29T19:16:34Z</time>
      </trkpt>
      <trkpt lat="46.71526" lon="-1.05142">
        <ele>73</ele>
        <time>2024-05-29T19:16:37Z</time>
      </trkpt>
      <trkpt lat="46.71581" lon="-1.05009">
        <ele>72</ele>
        <time>2024-05-29T19:16:56Z</time>
      </trkpt>
      <trkpt lat="46.71644" lon="-1.04823">
        <ele>75</ele>
        <time>2024-05-29T19:17:22Z</time>
      </trkpt>
      <trkpt lat="46.71675" lon="-1.04756">
        <ele>76</ele>
        <time>2024-05-29T19:17:32Z</time>
      </trkpt>
      <trkpt lat="46.71686" lon="-1.04726">
        <ele>76</ele>
        <time>2024-05-29T19:17:36Z</time>
      </trkpt>
      <trkpt lat="46.71696" lon="-1.04681">
        <ele>77</ele>
        <time>2024-05-29T19:17:41Z</time>
      </trkpt>
      <trkpt lat="46.71723" lon="-1.04538">
        <ele>77</ele>
        <time>2024-05-29T19:18:00Z</time>
      </trkpt>
      <trkpt lat="46.71738" lon="-1.04484">
        <ele>77</ele>
        <time>2024-05-29T19:18:07Z</time>
      </trkpt>
      <trkpt lat="46.71755" lon="-1.04437">
        <ele>78</ele>
        <time>2024-05-29T19:18:13Z</time>
      </trkpt>
      <trkpt lat="46.71773" lon="-1.04357">
        <ele>80</ele>
        <time>2024-05-29T19:18:23Z</time>
      </trkpt>
      <trkpt lat="46.71777" lon="-1.04317">
        <ele>80</ele>
        <time>2024-05-29T19:18:28Z</time>
      </trkpt>
      <trkpt lat="46.71775" lon="-1.04298">
        <ele>80</ele>
        <time>2024-05-29T19:18:31Z</time>
      </trkpt>
      <trkpt lat="46.71761" lon="-1.04241">
        <ele>81</ele>
        <time>2024-05-29T19:18:38Z</time>
      </trkpt>
      <trkpt lat="46.71757" lon="-1.04194">
        <ele>81</ele>
        <time>2024-05-29T19:18:44Z</time>
      </trkpt>
      <trkpt lat="46.71766" lon="-1.04194">
        <ele>81</ele>
        <time>2024-05-29T19:18:45Z</time>
      </trkpt>
      <trkpt lat="46.71765" lon="-1.0418">
        <ele>81</ele>
        <time>2024-05-29T19:18:47Z</time>
      </trkpt>
      <trkpt lat="46.71756" lon="-1.04139">
        <ele>81</ele>
        <time>2024-05-29T19:18:52Z</time>
      </trkpt>
      <trkpt lat="46.71756" lon="-1.04117">
        <ele>81</ele>
        <time>2024-05-29T19:18:55Z</time>
      </trkpt>
      <trkpt lat="46.71768" lon="-1.04067">
        <ele>81</ele>
        <time>2024-05-29T19:19:02Z</time>
      </trkpt>
      <trkpt lat="46.71798" lon="-1.03972">
        <ele>82</ele>
        <time>2024-05-29T19:19:14Z</time>
      </trkpt>
      <trkpt lat="46.71826" lon="-1.0387">
        <ele>83</ele>
        <time>2024-05-29T19:19:28Z</time>
      </trkpt>
      <trkpt lat="46.71912" lon="-1.03505">
        <ele>83</ele>
        <time>2024-05-29T19:20:15Z</time>
      </trkpt>
      <trkpt lat="46.71945" lon="-1.03378">
        <ele>84</ele>
        <time>2024-05-29T19:20:31Z</time>
      </trkpt>
      <trkpt lat="46.71951" lon="-1.03341">
        <ele>84</ele>
        <time>2024-05-29T19:20:36Z</time>
      </trkpt>
      <trkpt lat="46.71953" lon="-1.03305">
        <ele>84</ele>
        <time>2024-05-29T19:20:40Z</time>
      </trkpt>
      <trkpt lat="46.71953" lon="-1.03179">
        <ele>84</ele>
        <time>2024-05-29T19:20:56Z</time>
      </trkpt>
      <trkpt lat="46.71953" lon="-1.03051">
        <ele>83</ele>
        <time>2024-05-29T19:21:11Z</time>
      </trkpt>
      <trkpt lat="46.71951" lon="-1.03015">
        <ele>82</ele>
        <time>2024-05-29T19:21:16Z</time>
      </trkpt>
      <trkpt lat="46.71947" lon="-1.02986">
        <ele>82</ele>
        <time>2024-05-29T19:21:19Z</time>
      </trkpt>
      <trkpt lat="46.7215" lon="-1.02913">
        <ele>82</ele>
        <time>2024-05-29T19:21:57Z</time>
      </trkpt>
      <trkpt lat="46.72179" lon="-1.02906">
        <ele>82</ele>
        <time>2024-05-29T19:22:02Z</time>
      </trkpt>
      <trkpt lat="46.72236" lon="-1.02899">
        <ele>82</ele>
        <time>2024-05-29T19:22:12Z</time>
      </trkpt>
      <trkpt lat="46.72341" lon="-1.02884">
        <ele>84</ele>
        <time>2024-05-29T19:22:31Z</time>
      </trkpt>
      <trkpt lat="46.72358" lon="-1.02885">
        <ele>84</ele>
        <time>2024-05-29T19:22:34Z</time>
      </trkpt>
      <trkpt lat="46.7236" lon="-1.02875">
        <ele>84</ele>
        <time>2024-05-29T19:22:35Z</time>
      </trkpt>
      <trkpt lat="46.72362" lon="-1.02871">
        <ele>84</ele>
        <time>2024-05-29T19:22:36Z</time>
      </trkpt>
      <trkpt lat="46.72368" lon="-1.02867">
        <ele>84</ele>
        <time>2024-05-29T19:22:37Z</time>
      </trkpt>
      <trkpt lat="46.72373" lon="-1.02867">
        <ele>84</ele>
        <time>2024-05-29T19:22:38Z</time>
      </trkpt>
      <trkpt lat="46.72378" lon="-1.02872">
        <ele>84</ele>
        <time>2024-05-29T19:22:39Z</time>
      </trkpt>
      <trkpt lat="46.72386" lon="-1.02873">
        <ele>84</ele>
        <time>2024-05-29T19:22:40Z</time>
      </trkpt>
      <trkpt lat="46.72393" lon="-1.02871">
        <ele>84</ele>
        <time>2024-05-29T19:22:42Z</time>
      </trkpt>
      <trkpt lat="46.72407" lon="-1.02858">
        <ele>84</ele>
        <time>2024-05-29T19:22:44Z</time>
      </trkpt>
      <trkpt lat="46.72422" lon="-1.02852">
        <ele>84</ele>
        <time>2024-05-29T19:22:47Z</time>
      </trkpt>
      <trkpt lat="46.72613" lon="-1.02824">
        <ele>86</ele>
        <time>2024-05-29T19:23:21Z</time>
      </trkpt>
      <trkpt lat="46.7267" lon="-1.02821">
        <ele>87</ele>
        <time>2024-05-29T19:23:32Z</time>
      </trkpt>
      <trkpt lat="46.7271" lon="-1.02824">
        <ele>88</ele>
        <time>2024-05-29T19:23:39Z</time>
      </trkpt>
      <trkpt lat="46.72758" lon="-1.02826">
        <ele>88</ele>
        <time>2024-05-29T19:23:47Z</time>
      </trkpt>
      <trkpt lat="46.72787" lon="-1.02832">
        <ele>88</ele>
        <time>2024-05-29T19:23:52Z</time>
      </trkpt>
      <trkpt lat="46.72814" lon="-1.02844">
        <ele>89</ele>
        <time>2024-05-29T19:23:57Z</time>
      </trkpt>
      <trkpt lat="46.73002" lon="-1.02942">
        <ele>88</ele>
        <time>2024-05-29T19:24:33Z</time>
      </trkpt>
      <trkpt lat="46.73018" lon="-1.02948">
        <ele>88</ele>
        <time>2024-05-29T19:24:36Z</time>
      </trkpt>
      <trkpt lat="46.73036" lon="-1.02945">
        <ele>88</ele>
        <time>2024-05-29T19:24:39Z</time>
      </trkpt>
      <trkpt lat="46.73075" lon="-1.02921">
        <ele>88</ele>
        <time>2024-05-29T19:24:47Z</time>
      </trkpt>
      <trkpt lat="46.73095" lon="-1.02918">
        <ele>88</ele>
        <time>2024-05-29T19:24:50Z</time>
      </trkpt>
      <trkpt lat="46.73221" lon="-1.02933">
        <ele>84</ele>
        <time>2024-05-29T19:25:13Z</time>
      </trkpt>
      <trkpt lat="46.73285" lon="-1.02956">
        <ele>84</ele>
        <time>2024-05-29T19:25:24Z</time>
      </trkpt>
      <trkpt lat="46.73311" lon="-1.02959">
        <ele>83</ele>
        <time>2024-05-29T19:25:29Z</time>
      </trkpt>
      <trkpt lat="46.73405" lon="-1.02946">
        <ele>82</ele>
        <time>2024-05-29T19:25:46Z</time>
      </trkpt>
      <trkpt lat="46.73486" lon="-1.02945">
        <ele>83</ele>
        <time>2024-05-29T19:26:00Z</time>
      </trkpt>
      <trkpt lat="46.7364" lon="-1.02947">
        <ele>85</ele>
        <time>2024-05-29T19:26:28Z</time>
      </trkpt>
      <trkpt lat="46.73665" lon="-1.02944">
        <ele>85</ele>
        <time>2024-05-29T19:26:32Z</time>
      </trkpt>
      <trkpt lat="46.73733" lon="-1.02927">
        <ele>88</ele>
        <time>2024-05-29T19:26:44Z</time>
      </trkpt>
      <trkpt lat="46.73882" lon="-1.029">
        <ele>84</ele>
        <time>2024-05-29T19:27:11Z</time>
      </trkpt>
      <trkpt lat="46.73935" lon="-1.02876">
        <ele>83</ele>
        <time>2024-05-29T19:27:21Z</time>
      </trkpt>
      <trkpt lat="46.73958" lon="-1.0287">
        <ele>83</ele>
        <time>2024-05-29T19:27:25Z</time>
      </trkpt>
      <trkpt lat="46.74002" lon="-1.0287">
        <ele>82</ele>
        <time>2024-05-29T19:27:33Z</time>
      </trkpt>
      <trkpt lat="46.74027" lon="-1.02865">
        <ele>83</ele>
        <time>2024-05-29T19:27:38Z</time>
      </trkpt>
      <trkpt lat="46.74051" lon="-1.02855">
        <ele>83</ele>
        <time>2024-05-29T19:27:42Z</time>
      </trkpt>
      <trkpt lat="46.741" lon="-1.02821">
        <ele>84</ele>
        <time>2024-05-29T19:27:52Z</time>
      </trkpt>
      <trkpt lat="46.74113" lon="-1.02814">
        <ele>83</ele>
        <time>2024-05-29T19:27:54Z</time>
      </trkpt>
      <trkpt lat="46.74144" lon="-1.02801">
        <ele>82</ele>
        <time>2024-05-29T19:28:00Z</time>
      </trkpt>
      <trkpt lat="46.74317" lon="-1.02745">
        <ele>77</ele>
        <time>2024-05-29T19:28:31Z</time>
      </trkpt>
      <trkpt lat="46.74333" lon="-1.02735">
        <ele>78</ele>
        <time>2024-05-29T19:28:34Z</time>
      </trkpt>
      <trkpt lat="46.74352" lon="-1.02708">
        <ele>78</ele>
        <time>2024-05-29T19:28:39Z</time>
      </trkpt>
      <trkpt lat="46.74382" lon="-1.02643">
        <ele>78</ele>
        <time>2024-05-29T19:28:49Z</time>
      </trkpt>
      <trkpt lat="46.74411" lon="-1.02606">
        <ele>77</ele>
        <time>2024-05-29T19:28:56Z</time>
      </trkpt>
      <trkpt lat="46.74424" lon="-1.02577">
        <ele>77</ele>
        <time>2024-05-29T19:29:00Z</time>
      </trkpt>
      <trkpt lat="46.74463" lon="-1.02413">
        <ele>77</ele>
        <time>2024-05-29T19:29:21Z</time>
      </trkpt>
      <trkpt lat="46.74476" lon="-1.02385">
        <ele>77</ele>
        <time>2024-05-29T19:29:25Z</time>
      </trkpt>
      <trkpt lat="46.74502" lon="-1.02357">
        <ele>77</ele>
        <time>2024-05-29T19:29:31Z</time>
      </trkpt>
      <trkpt lat="46.74524" lon="-1.02327">
        <ele>78</ele>
        <time>2024-05-29T19:29:36Z</time>
      </trkpt>
      <trkpt lat="46.74539" lon="-1.02301">
        <ele>78</ele>
        <time>2024-05-29T19:29:40Z</time>
      </trkpt>
      <trkpt lat="46.74599" lon="-1.02154">
        <ele>81</ele>
        <time>2024-05-29T19:30:01Z</time>
      </trkpt>
      <trkpt lat="46.74673" lon="-1.01984">
        <ele>85</ele>
        <time>2024-05-29T19:30:26Z</time>
      </trkpt>
      <trkpt lat="46.74703" lon="-1.01909">
        <ele>85</ele>
        <time>2024-05-29T19:30:36Z</time>
      </trkpt>
      <trkpt lat="46.74718" lon="-1.01888">
        <ele>86</ele>
        <time>2024-05-29T19:30:40Z</time>
      </trkpt>
      <trkpt lat="46.74789" lon="-1.01843">
        <ele>88</ele>
        <time>2024-05-29T19:30:54Z</time>
      </trkpt>
      <trkpt lat="46.74865" lon="-1.01772">
        <ele>90</ele>
        <time>2024-05-29T19:31:10Z</time>
      </trkpt>
      <trkpt lat="46.74879" lon="-1.01762">
        <ele>90</ele>
        <time>2024-05-29T19:31:13Z</time>
      </trkpt>
      <trkpt lat="46.74894" lon="-1.01758">
        <ele>91</ele>
        <time>2024-05-29T19:31:15Z</time>
      </trkpt>
      <trkpt lat="46.7493" lon="-1.01762">
        <ele>91</ele>
        <time>2024-05-29T19:31:22Z</time>
      </trkpt>
      <trkpt lat="46.74952" lon="-1.0176">
        <ele>91</ele>
        <time>2024-05-29T19:31:26Z</time>
      </trkpt>
      <trkpt lat="46.74992" lon="-1.01752">
        <ele>92</ele>
        <time>2024-05-29T19:31:33Z</time>
      </trkpt>
      <trkpt lat="46.75029" lon="-1.01737">
        <ele>92</ele>
        <time>2024-05-29T19:31:40Z</time>
      </trkpt>
      <trkpt lat="46.75094" lon="-1.01706">
        <ele>93</ele>
        <time>2024-05-29T19:31:52Z</time>
      </trkpt>
      <trkpt lat="46.75202" lon="-1.01688">
        <ele>94</ele>
        <time>2024-05-29T19:32:11Z</time>
      </trkpt>
      <trkpt lat="46.75225" lon="-1.01681">
        <ele>95</ele>
        <time>2024-05-29T19:32:15Z</time>
      </trkpt>
      <trkpt lat="46.75387" lon="-1.01586">
        <ele>94</ele>
        <time>2024-05-29T19:32:46Z</time>
      </trkpt>
      <trkpt lat="46.75499" lon="-1.01536">
        <ele>92</ele>
        <time>2024-05-29T19:33:07Z</time>
      </trkpt>
      <trkpt lat="46.7558" lon="-1.01486">
        <ele>91</ele>
        <time>2024-05-29T19:33:23Z</time>
      </trkpt>
      <trkpt lat="46.75629" lon="-1.01475">
        <ele>89</ele>
        <time>2024-05-29T19:33:32Z</time>
      </trkpt>
      <trkpt lat="46.75698" lon="-1.01463">
        <ele>86</ele>
        <time>2024-05-29T19:33:44Z</time>
      </trkpt>
      <trkpt lat="46.75736" lon="-1.0146">
        <ele>85</ele>
        <time>2024-05-29T19:33:51Z</time>
      </trkpt>
      <trkpt lat="46.75756" lon="-1.01468">
        <ele>84</ele>
        <time>2024-05-29T19:33:55Z</time>
      </trkpt>
      <trkpt lat="46.75878" lon="-1.01547">
        <ele>82</ele>
        <time>2024-05-29T19:34:18Z</time>
      </trkpt>
      <trkpt lat="46.75934" lon="-1.01567">
        <ele>82</ele>
        <time>2024-05-29T19:34:29Z</time>
      </trkpt>
      <trkpt lat="46.75969" lon="-1.01586">
        <ele>82</ele>
        <time>2024-05-29T19:34:35Z</time>
      </trkpt>
      <trkpt lat="46.7604" lon="-1.01645">
        <ele>82</ele>
        <time>2024-05-29T19:34:50Z</time>
      </trkpt>
      <trkpt lat="46.76081" lon="-1.01666">
        <ele>82</ele>
        <time>2024-05-29T19:34:58Z</time>
      </trkpt>
      <trkpt lat="46.76152" lon="-1.01692">
        <ele>84</ele>
        <time>2024-05-29T19:35:11Z</time>
      </trkpt>
      <trkpt lat="46.76272" lon="-1.01693">
        <ele>88</ele>
        <time>2024-05-29T19:35:32Z</time>
      </trkpt>
      <trkpt lat="46.76301" lon="-1.01698">
        <ele>90</ele>
        <time>2024-05-29T19:35:37Z</time>
      </trkpt>
      <trkpt lat="46.76321" lon="-1.01709">
        <ele>91</ele>
        <time>2024-05-29T19:35:41Z</time>
      </trkpt>
      <trkpt lat="46.7635" lon="-1.01728">
        <ele>93</ele>
        <time>2024-05-29T19:35:47Z</time>
      </trkpt>
      <trkpt lat="46.76469" lon="-1.01784">
        <ele>99</ele>
        <time>2024-05-29T19:36:09Z</time>
      </trkpt>
      <trkpt lat="46.76582" lon="-1.01851">
        <ele>104</ele>
        <time>2024-05-29T19:36:31Z</time>
      </trkpt>
      <trkpt lat="46.76656" lon="-1.019">
        <ele>104</ele>
        <time>2024-05-29T19:36:45Z</time>
      </trkpt>
      <trkpt lat="46.76741" lon="-1.01932">
        <ele>106</ele>
        <time>2024-05-29T19:37:01Z</time>
      </trkpt>
      <trkpt lat="46.76786" lon="-1.01943">
        <ele>106</ele>
        <time>2024-05-29T19:37:09Z</time>
      </trkpt>
      <trkpt lat="46.76817" lon="-1.01942">
        <ele>106</ele>
        <time>2024-05-29T19:37:14Z</time>
      </trkpt>
      <trkpt lat="46.76878" lon="-1.01928">
        <ele>106</ele>
        <time>2024-05-29T19:37:25Z</time>
      </trkpt>
      <trkpt lat="46.76929" lon="-1.01914">
        <ele>107</ele>
        <time>2024-05-29T19:37:34Z</time>
      </trkpt>
      <trkpt lat="46.77005" lon="-1.01893">
        <ele>107</ele>
        <time>2024-05-29T19:37:48Z</time>
      </trkpt>
      <trkpt lat="46.77052" lon="-1.01864">
        <ele>106</ele>
        <time>2024-05-29T19:37:57Z</time>
      </trkpt>
      <trkpt lat="46.77098" lon="-1.01843">
        <ele>105</ele>
        <time>2024-05-29T19:38:06Z</time>
      </trkpt>
      <trkpt lat="46.77127" lon="-1.01836">
        <ele>103</ele>
        <time>2024-05-29T19:38:11Z</time>
      </trkpt>
      <trkpt lat="46.77184" lon="-1.01836">
        <ele>102</ele>
        <time>2024-05-29T19:38:21Z</time>
      </trkpt>
      <trkpt lat="46.7735" lon="-1.01775">
        <ele>94</ele>
        <time>2024-05-29T19:38:52Z</time>
      </trkpt>
      <trkpt lat="46.77527" lon="-1.01646">
        <ele>89</ele>
        <time>2024-05-29T19:39:27Z</time>
      </trkpt>
      <trkpt lat="46.77628" lon="-1.01545">
        <ele>88</ele>
        <time>2024-05-29T19:39:49Z</time>
      </trkpt>
      <trkpt lat="46.77667" lon="-1.01489">
        <ele>89</ele>
        <time>2024-05-29T19:39:58Z</time>
      </trkpt>
      <trkpt lat="46.77702" lon="-1.01416">
        <ele>92</ele>
        <time>2024-05-29T19:40:09Z</time>
      </trkpt>
      <trkpt lat="46.77728" lon="-1.01345">
        <ele>95</ele>
        <time>2024-05-29T19:40:19Z</time>
      </trkpt>
      <trkpt lat="46.77729" lon="-1.01311">
        <ele>96</ele>
        <time>2024-05-29T19:40:23Z</time>
      </trkpt>
      <trkpt lat="46.77725" lon="-1.01223">
        <ele>99</ele>
        <time>2024-05-29T19:40:34Z</time>
      </trkpt>
      <trkpt lat="46.77713" lon="-1.01109">
        <ele>100</ele>
        <time>2024-05-29T19:40:48Z</time>
      </trkpt>
      <trkpt lat="46.77698" lon="-1.01014">
        <ele>100</ele>
        <time>2024-05-29T19:41:00Z</time>
      </trkpt>
      <trkpt lat="46.77702" lon="-1.00992">
        <ele>100</ele>
        <time>2024-05-29T19:41:03Z</time>
      </trkpt>
      <trkpt lat="46.77709" lon="-1.00975">
        <ele>101</ele>
        <time>2024-05-29T19:41:05Z</time>
      </trkpt>
      <trkpt lat="46.77729" lon="-1.0096">
        <ele>103</ele>
        <time>2024-05-29T19:41:09Z</time>
      </trkpt>
      <trkpt lat="46.7778" lon="-1.00938">
        <ele>107</ele>
        <time>2024-05-29T19:41:19Z</time>
      </trkpt>
      <trkpt lat="46.77815" lon="-1.00918">
        <ele>108</ele>
        <time>2024-05-29T19:41:25Z</time>
      </trkpt>
      <trkpt lat="46.77851" lon="-1.00908">
        <ele>109</ele>
        <time>2024-05-29T19:41:32Z</time>
      </trkpt>
      <trkpt lat="46.77874" lon="-1.00894">
        <ele>109</ele>
        <time>2024-05-29T19:41:36Z</time>
      </trkpt>
      <trkpt lat="46.77896" lon="-1.0087">
        <ele>108</ele>
        <time>2024-05-29T19:41:41Z</time>
      </trkpt>
      <trkpt lat="46.77929" lon="-1.00799">
        <ele>108</ele>
        <time>2024-05-29T19:41:52Z</time>
      </trkpt>
      <trkpt lat="46.78006" lon="-1.00685">
        <ele>103</ele>
        <time>2024-05-29T19:42:11Z</time>
      </trkpt>
      <trkpt lat="46.78018" lon="-1.00661">
        <ele>102</ele>
        <time>2024-05-29T19:42:15Z</time>
      </trkpt>
      <trkpt lat="46.78049" lon="-1.00538">
        <ele>97</ele>
        <time>2024-05-29T19:42:31Z</time>
      </trkpt>
      <trkpt lat="46.78072" lon="-1.00491">
        <ele>93</ele>
        <time>2024-05-29T19:42:38Z</time>
      </trkpt>
      <trkpt lat="46.7809" lon="-1.00474">
        <ele>92</ele>
        <time>2024-05-29T19:42:42Z</time>
      </trkpt>
      <trkpt lat="46.78102" lon="-1.00467">
        <ele>92</ele>
        <time>2024-05-29T19:42:44Z</time>
      </trkpt>
      <trkpt lat="46.78116" lon="-1.00464">
        <ele>92</ele>
        <time>2024-05-29T19:42:46Z</time>
      </trkpt>
      <trkpt lat="46.78161" lon="-1.00461">
        <ele>93</ele>
        <time>2024-05-29T19:42:54Z</time>
      </trkpt>
      <trkpt lat="46.78174" lon="-1.00456">
        <ele>94</ele>
        <time>2024-05-29T19:42:57Z</time>
      </trkpt>
      <trkpt lat="46.78235" lon="-1.00412">
        <ele>99</ele>
        <time>2024-05-29T19:43:09Z</time>
      </trkpt>
      <trkpt lat="46.78247" lon="-1.00401">
        <ele>100</ele>
        <time>2024-05-29T19:43:11Z</time>
      </trkpt>
      <trkpt lat="46.78257" lon="-1.00387">
        <ele>101</ele>
        <time>2024-05-29T19:43:14Z</time>
      </trkpt>
      <trkpt lat="46.78267" lon="-1.00368">
        <ele>102</ele>
        <time>2024-05-29T19:43:17Z</time>
      </trkpt>
      <trkpt lat="46.783" lon="-1.00289">
        <ele>105</ele>
        <time>2024-05-29T19:43:28Z</time>
      </trkpt>
      <trkpt lat="46.78311" lon="-1.00267">
        <ele>106</ele>
        <time>2024-05-29T19:43:31Z</time>
      </trkpt>
      <trkpt lat="46.78319" lon="-1.00254">
        <ele>107</ele>
        <time>2024-05-29T19:43:33Z</time>
      </trkpt>
      <trkpt lat="46.78338" lon="-1.00232">
        <ele>107</ele>
        <time>2024-05-29T19:43:38Z</time>
      </trkpt>
      <trkpt lat="46.78366" lon="-1.0021">
        <ele>107</ele>
        <time>2024-05-29T19:43:43Z</time>
      </trkpt>
      <trkpt lat="46.78401" lon="-1.00188">
        <ele>108</ele>
        <time>2024-05-29T19:43:50Z</time>
      </trkpt>
      <trkpt lat="46.78455" lon="-1.00158">
        <ele>106</ele>
        <time>2024-05-29T19:44:00Z</time>
      </trkpt>
      <trkpt lat="46.78482" lon="-1.00134">
        <ele>105</ele>
        <time>2024-05-29T19:44:06Z</time>
      </trkpt>
      <trkpt lat="46.78514" lon="-1.00093">
        <ele>103</ele>
        <time>2024-05-29T19:44:14Z</time>
      </trkpt>
      <trkpt lat="46.78591" lon="-1.00002">
        <ele>100</ele>
        <time>2024-05-29T19:44:31Z</time>
      </trkpt>
      <trkpt lat="46.78696" lon="-0.99946">
        <ele>95</ele>
        <time>2024-05-29T19:44:51Z</time>
      </trkpt>
      <trkpt lat="46.78824" lon="-0.99842">
        <ele>97</ele>
        <time>2024-05-29T19:45:17Z</time>
      </trkpt>
      <trkpt lat="46.78853" lon="-0.99833">
        <ele>98</ele>
        <time>2024-05-29T19:45:23Z</time>
      </trkpt>
      <trkpt lat="46.78945" lon="-0.99818">
        <ele>101</ele>
        <time>2024-05-29T19:45:39Z</time>
      </trkpt>
      <trkpt lat="46.78945" lon="-0.99813">
        <ele>101</ele>
        <time>2024-05-29T19:45:40Z</time>
      </trkpt>
      <trkpt lat="46.78988" lon="-0.99832">
        <ele>101</ele>
        <time>2024-05-29T19:45:48Z</time>
      </trkpt>
      <trkpt lat="46.79019" lon="-0.99855">
        <ele>101</ele>
        <time>2024-05-29T19:45:54Z</time>
      </trkpt>
      <trkpt lat="46.7904" lon="-0.99878">
        <ele>100</ele>
        <time>2024-05-29T19:45:58Z</time>
      </trkpt>
      <trkpt lat="46.79096" lon="-0.99957">
        <ele>99</ele>
        <time>2024-05-29T19:46:12Z</time>
      </trkpt>
      <trkpt lat="46.79166" lon="-1.00037">
        <ele>98</ele>
        <time>2024-05-29T19:46:28Z</time>
      </trkpt>
      <trkpt lat="46.79221" lon="-1.00069">
        <ele>98</ele>
        <time>2024-05-29T19:46:39Z</time>
      </trkpt>
      <trkpt lat="46.7924" lon="-1.00089">
        <ele>97</ele>
        <time>2024-05-29T19:46:43Z</time>
      </trkpt>
      <trkpt lat="46.79287" lon="-1.00166">
        <ele>97</ele>
        <time>2024-05-29T19:46:55Z</time>
      </trkpt>
      <trkpt lat="46.79323" lon="-1.00215">
        <ele>96</ele>
        <time>2024-05-29T19:47:04Z</time>
      </trkpt>
      <trkpt lat="46.79365" lon="-1.0026">
        <ele>92</ele>
        <time>2024-05-29T19:47:13Z</time>
      </trkpt>
      <trkpt lat="46.79426" lon="-1.00315">
        <ele>86</ele>
        <time>2024-05-29T19:47:26Z</time>
      </trkpt>
      <trkpt lat="46.79462" lon="-1.00352">
        <ele>86</ele>
        <time>2024-05-29T19:47:34Z</time>
      </trkpt>
      <trkpt lat="46.7948" lon="-1.00371">
        <ele>86</ele>
        <time>2024-05-29T19:47:38Z</time>
      </trkpt>
      <trkpt lat="46.79494" lon="-1.0039">
        <ele>86</ele>
        <time>2024-05-29T19:47:41Z</time>
      </trkpt>
      <trkpt lat="46.79538" lon="-1.00471">
        <ele>88</ele>
        <time>2024-05-29T19:47:54Z</time>
      </trkpt>
      <trkpt lat="46.79612" lon="-1.00573">
        <ele>89</ele>
        <time>2024-05-29T19:48:12Z</time>
      </trkpt>
      <trkpt lat="46.79626" lon="-1.00599">
        <ele>89</ele>
        <time>2024-05-29T19:48:16Z</time>
      </trkpt>
      <trkpt lat="46.7966" lon="-1.00712">
        <ele>86</ele>
        <time>2024-05-29T19:48:31Z</time>
      </trkpt>
      <trkpt lat="46.79713" lon="-1.00809">
        <ele>80</ele>
        <time>2024-05-29T19:48:46Z</time>
      </trkpt>
      <trkpt lat="46.79719" lon="-1.0082">
        <ele>80</ele>
        <time>2024-05-29T19:48:48Z</time>
      </trkpt>
      <trkpt lat="46.79826" lon="-1.01008">
        <ele>90</ele>
        <time>2024-05-29T19:49:18Z</time>
      </trkpt>
      <trkpt lat="46.79841" lon="-1.01032">
        <ele>90</ele>
        <time>2024-05-29T19:49:22Z</time>
      </trkpt>
      <trkpt lat="46.79856" lon="-1.0105">
        <ele>91</ele>
        <time>2024-05-29T19:49:25Z</time>
      </trkpt>
      <trkpt lat="46.79956" lon="-1.01127">
        <ele>94</ele>
        <time>2024-05-29T19:49:45Z</time>
      </trkpt>
      <trkpt lat="46.7998" lon="-1.01135">
        <ele>95</ele>
        <time>2024-05-29T19:49:50Z</time>
      </trkpt>
      <trkpt lat="46.80032" lon="-1.01137">
        <ele>97</ele>
        <time>2024-05-29T19:49:59Z</time>
      </trkpt>
      <trkpt lat="46.80064" lon="-1.0115">
        <ele>98</ele>
        <time>2024-05-29T19:50:05Z</time>
      </trkpt>
      <trkpt lat="46.801" lon="-1.01177">
        <ele>98</ele>
        <time>2024-05-29T19:50:12Z</time>
      </trkpt>
      <trkpt lat="46.80112" lon="-1.01143">
        <ele>98</ele>
        <time>2024-05-29T19:50:17Z</time>
      </trkpt>
      <trkpt lat="46.80127" lon="-1.01067">
        <ele>98</ele>
        <time>2024-05-29T19:50:26Z</time>
      </trkpt>
      <trkpt lat="46.8014" lon="-1.01033">
        <ele>97</ele>
        <time>2024-05-29T19:50:31Z</time>
      </trkpt>
      <trkpt lat="46.80168" lon="-1.00986">
        <ele>98</ele>
        <time>2024-05-29T19:50:39Z</time>
      </trkpt>
      <trkpt lat="46.80353" lon="-1.00796">
        <ele>103</ele>
        <time>2024-05-29T19:51:19Z</time>
      </trkpt>
      <trkpt lat="46.80387" lon="-1.00742">
        <ele>104</ele>
        <time>2024-05-29T19:51:28Z</time>
      </trkpt>
      <trkpt lat="46.80409" lon="-1.00716">
        <ele>104</ele>
        <time>2024-05-29T19:51:33Z</time>
      </trkpt>
      <trkpt lat="46.80538" lon="-1.00617">
        <ele>101</ele>
        <time>2024-05-29T19:51:59Z</time>
      </trkpt>
      <trkpt lat="46.80558" lon="-1.00612">
        <ele>101</ele>
        <time>2024-05-29T19:52:02Z</time>
      </trkpt>
      <trkpt lat="46.8073" lon="-1.00609">
        <ele>100</ele>
        <time>2024-05-29T19:52:33Z</time>
      </trkpt>
      <trkpt lat="46.80793" lon="-1.00576">
        <ele>100</ele>
        <time>2024-05-29T19:52:45Z</time>
      </trkpt>
      <trkpt lat="46.80824" lon="-1.0056">
        <ele>101</ele>
        <time>2024-05-29T19:52:51Z</time>
      </trkpt>
      <trkpt lat="46.80834" lon="-1.00565">
        <ele>102</ele>
        <time>2024-05-29T19:52:53Z</time>
      </trkpt>
      <trkpt lat="46.80845" lon="-1.00587">
        <ele>102</ele>
        <time>2024-05-29T19:52:56Z</time>
      </trkpt>
      <trkpt lat="46.80863" lon="-1.00609">
        <ele>103</ele>
        <time>2024-05-29T19:53:00Z</time>
      </trkpt>
      <trkpt lat="46.80907" lon="-1.00602">
        <ele>105</ele>
        <time>2024-05-29T19:53:08Z</time>
      </trkpt>
      <trkpt lat="46.80949" lon="-1.00613">
        <ele>105</ele>
        <time>2024-05-29T19:53:16Z</time>
      </trkpt>
      <trkpt lat="46.81049" lon="-1.00621">
        <ele>103</ele>
        <time>2024-05-29T19:53:33Z</time>
      </trkpt>
      <trkpt lat="46.81055" lon="-1.00523">
        <ele>102</ele>
        <time>2024-05-29T19:53:45Z</time>
      </trkpt>
      <trkpt lat="46.81033" lon="-1.00304">
        <ele>101</ele>
        <time>2024-05-29T19:54:12Z</time>
      </trkpt>
      <trkpt lat="46.81023" lon="-1.00182">
        <ele>96</ele>
        <time>2024-05-29T19:54:27Z</time>
      </trkpt>
      <trkpt lat="46.8101" lon="-1.00098">
        <ele>93</ele>
        <time>2024-05-29T19:54:38Z</time>
      </trkpt>
      <trkpt lat="46.8103" lon="-1.00087">
        <ele>93</ele>
        <time>2024-05-29T19:54:42Z</time>
      </trkpt>
      <trkpt lat="46.81058" lon="-1.00084">
        <ele>92</ele>
        <time>2024-05-29T19:54:47Z</time>
      </trkpt>
      <trkpt lat="46.81082" lon="-1.00092">
        <ele>92</ele>
        <time>2024-05-29T19:54:51Z</time>
      </trkpt>
      <trkpt lat="46.81204" lon="-1.00163">
        <ele>93</ele>
        <time>2024-05-29T19:55:14Z</time>
      </trkpt>
      <trkpt lat="46.81216" lon="-1.00166">
        <ele>94</ele>
        <time>2024-05-29T19:55:17Z</time>
      </trkpt>
      <trkpt lat="46.81234" lon="-1.00159">
        <ele>94</ele>
        <time>2024-05-29T19:55:20Z</time>
      </trkpt>
      <trkpt lat="46.81378" lon="-1.00139">
        <ele>91</ele>
        <time>2024-05-29T19:55:46Z</time>
      </trkpt>
      <trkpt lat="46.81397" lon="-1.00151">
        <ele>90</ele>
        <time>2024-05-29T19:55:49Z</time>
      </trkpt>
      <trkpt lat="46.81438" lon="-1.00172">
        <ele>89</ele>
        <time>2024-05-29T19:55:57Z</time>
      </trkpt>
      <trkpt lat="46.81478" lon="-1.00178">
        <ele>89</ele>
        <time>2024-05-29T19:56:04Z</time>
      </trkpt>
      <trkpt lat="46.81549" lon="-1.0021">
        <ele>91</ele>
        <time>2024-05-29T19:56:17Z</time>
      </trkpt>
      <trkpt lat="46.81611" lon="-1.00219">
        <ele>91</ele>
        <time>2024-05-29T19:56:28Z</time>
      </trkpt>
      <trkpt lat="46.81652" lon="-1.00241">
        <ele>93</ele>
        <time>2024-05-29T19:56:36Z</time>
      </trkpt>
      <trkpt lat="46.81684" lon="-1.00248">
        <ele>93</ele>
        <time>2024-05-29T19:56:42Z</time>
      </trkpt>
      <trkpt lat="46.81722" lon="-1.00242">
        <ele>92</ele>
        <time>2024-05-29T19:56:49Z</time>
      </trkpt>
      <trkpt lat="46.81735" lon="-1.00245">
        <ele>92</ele>
        <time>2024-05-29T19:56:51Z</time>
      </trkpt>
      <trkpt lat="46.81749" lon="-1.00261">
        <ele>93</ele>
        <time>2024-05-29T19:56:54Z</time>
      </trkpt>
      <trkpt lat="46.81782" lon="-1.00318">
        <ele>97</ele>
        <time>2024-05-29T19:57:03Z</time>
      </trkpt>
      <trkpt lat="46.81806" lon="-1.00318">
        <ele>97</ele>
        <time>2024-05-29T19:57:08Z</time>
      </trkpt>
      <trkpt lat="46.81823" lon="-1.00314">
        <ele>97</ele>
        <time>2024-05-29T19:57:11Z</time>
      </trkpt>
      <trkpt lat="46.8185" lon="-1.00302">
        <ele>97</ele>
        <time>2024-05-29T19:57:16Z</time>
      </trkpt>
      <trkpt lat="46.81868" lon="-1.00298">
        <ele>98</ele>
        <time>2024-05-29T19:57:19Z</time>
      </trkpt>
      <trkpt lat="46.81961" lon="-1.00151">
        <ele>94</ele>
        <time>2024-05-29T19:57:43Z</time>
      </trkpt>
      <trkpt lat="46.8199" lon="-1.00126">
        <ele>93</ele>
        <time>2024-05-29T19:57:49Z</time>
      </trkpt>
      <trkpt lat="46.82035" lon="-1.00099">
        <ele>93</ele>
        <time>2024-05-29T19:57:58Z</time>
      </trkpt>
      <trkpt lat="46.82092" lon="-1.00066">
        <ele>94</ele>
        <time>2024-05-29T19:58:09Z</time>
      </trkpt>
      <trkpt lat="46.82108" lon="-1.00061">
        <ele>94</ele>
        <time>2024-05-29T19:58:12Z</time>
      </trkpt>
      <trkpt lat="46.82126" lon="-1.00017">
        <ele>92</ele>
        <time>2024-05-29T19:58:18Z</time>
      </trkpt>
      <trkpt lat="46.82139" lon="-0.99997">
        <ele>92</ele>
        <time>2024-05-29T19:58:21Z</time>
      </trkpt>
      <trkpt lat="46.82157" lon="-0.99975">
        <ele>92</ele>
        <time>2024-05-29T19:58:26Z</time>
      </trkpt>
      <trkpt lat="46.82255" lon="-0.99874">
        <ele>89</ele>
        <time>2024-05-29T19:58:47Z</time>
      </trkpt>
      <trkpt lat="46.82262" lon="-0.9987">
        <ele>89</ele>
        <time>2024-05-29T19:58:48Z</time>
      </trkpt>
      <trkpt lat="46.82267" lon="-0.99873">
        <ele>90</ele>
        <time>2024-05-29T19:58:49Z</time>
      </trkpt>
      <trkpt lat="46.82316" lon="-0.99917">
        <ele>96</ele>
        <time>2024-05-29T19:58:59Z</time>
      </trkpt>
      <trkpt lat="46.82355" lon="-0.99958">
        <ele>100</ele>
        <time>2024-05-29T19:59:08Z</time>
      </trkpt>
      <trkpt lat="46.82372" lon="-0.9999">
        <ele>102</ele>
        <time>2024-05-29T19:59:13Z</time>
      </trkpt>
      <trkpt lat="46.82453" lon="-1.0018">
        <ele>108</ele>
        <time>2024-05-29T19:59:40Z</time>
      </trkpt>
      <trkpt lat="46.82474" lon="-1.00222">
        <ele>109</ele>
        <time>2024-05-29T19:59:47Z</time>
      </trkpt>
      <trkpt lat="46.82491" lon="-1.00245">
        <ele>110</ele>
        <time>2024-05-29T19:59:51Z</time>
      </trkpt>
      <trkpt lat="46.8251" lon="-1.00263">
        <ele>111</ele>
        <time>2024-05-29T19:59:55Z</time>
      </trkpt>
      <trkpt lat="46.82549" lon="-1.00282">
        <ele>113</ele>
        <time>2024-05-29T20:00:02Z</time>
      </trkpt>
      <trkpt lat="46.82654" lon="-1.00303">
        <ele>115</ele>
        <time>2024-05-29T20:00:21Z</time>
      </trkpt>
      <trkpt lat="46.82671" lon="-1.00305">
        <ele>115</ele>
        <time>2024-05-29T20:00:24Z</time>
      </trkpt>
      <trkpt lat="46.82681" lon="-1.00303">
        <ele>114</ele>
        <time>2024-05-29T20:00:26Z</time>
      </trkpt>
      <trkpt lat="46.82698" lon="-1.00297">
        <ele>114</ele>
        <time>2024-05-29T20:00:29Z</time>
      </trkpt>
      <trkpt lat="46.82752" lon="-1.0027">
        <ele>112</ele>
        <time>2024-05-29T20:00:39Z</time>
      </trkpt>
      <trkpt lat="46.82779" lon="-1.00263">
        <ele>111</ele>
        <time>2024-05-29T20:00:44Z</time>
      </trkpt>
      <trkpt lat="46.82822" lon="-1.00257">
        <ele>110</ele>
        <time>2024-05-29T20:00:51Z</time>
      </trkpt>
      <trkpt lat="46.82826" lon="-1.00254">
        <ele>110</ele>
        <time>2024-05-29T20:00:52Z</time>
      </trkpt>
      <trkpt lat="46.82843" lon="-1.00277">
        <ele>111</ele>
        <time>2024-05-29T20:00:56Z</time>
      </trkpt>
      <trkpt lat="46.8288" lon="-1.00315">
        <ele>112</ele>
        <time>2024-05-29T20:01:04Z</time>
      </trkpt>
      <trkpt lat="46.82896" lon="-1.00326">
        <ele>112</ele>
        <time>2024-05-29T20:01:08Z</time>
      </trkpt>
      <trkpt lat="46.82918" lon="-1.00337">
        <ele>112</ele>
        <time>2024-05-29T20:01:12Z</time>
      </trkpt>
      <trkpt lat="46.82942" lon="-1.00346">
        <ele>113</ele>
        <time>2024-05-29T20:01:16Z</time>
      </trkpt>
      <trkpt lat="46.82971" lon="-1.00352">
        <ele>114</ele>
        <time>2024-05-29T20:01:21Z</time>
      </trkpt>
      <trkpt lat="46.83167" lon="-1.00368">
        <ele>121</ele>
        <time>2024-05-29T20:01:56Z</time>
      </trkpt>
      <trkpt lat="46.83326" lon="-1.00377">
        <ele>126</ele>
        <time>2024-05-29T20:02:25Z</time>
      </trkpt>
      <trkpt lat="46.83506" lon="-1.00398">
        <ele>127</ele>
        <time>2024-05-29T20:02:57Z</time>
      </trkpt>
      <trkpt lat="46.83613" lon="-1.00403">
        <ele>129</ele>
        <time>2024-05-29T20:03:16Z</time>
      </trkpt>
      <trkpt lat="46.83677" lon="-1.00402">
        <ele>130</ele>
        <time>2024-05-29T20:03:27Z</time>
      </trkpt>
      <trkpt lat="46.8384" lon="-1.00414">
        <ele>127</ele>
        <time>2024-05-29T20:03:56Z</time>
      </trkpt>
      <trkpt lat="46.83855" lon="-1.00414">
        <ele>126</ele>
        <time>2024-05-29T20:03:59Z</time>
      </trkpt>
      <trkpt lat="46.83864" lon="-1.00409">
        <ele>126</ele>
        <time>2024-05-29T20:04:01Z</time>
      </trkpt>
      <trkpt lat="46.83868" lon="-1.0041">
        <ele>126</ele>
        <time>2024-05-29T20:04:01Z</time>
      </trkpt>
      <trkpt lat="46.83871" lon="-1.00413">
        <ele>126</ele>
        <time>2024-05-29T20:04:02Z</time>
      </trkpt>
      <trkpt lat="46.83871" lon="-1.00422">
        <ele>126</ele>
        <time>2024-05-29T20:04:03Z</time>
      </trkpt>
      <trkpt lat="46.84446" lon="-1.00468">
        <ele>113</ele>
        <time>2024-05-29T20:05:46Z</time>
      </trkpt>
      <trkpt lat="46.84473" lon="-1.0046">
        <ele>112</ele>
        <time>2024-05-29T20:05:50Z</time>
      </trkpt>
      <trkpt lat="46.84477" lon="-1.00454">
        <ele>112</ele>
        <time>2024-05-29T20:05:51Z</time>
      </trkpt>
      <trkpt lat="46.84486" lon="-1.0045">
        <ele>111</ele>
        <time>2024-05-29T20:05:53Z</time>
      </trkpt>
      <trkpt lat="46.84496" lon="-1.00454">
        <ele>111</ele>
        <time>2024-05-29T20:05:55Z</time>
      </trkpt>
      <trkpt lat="46.84501" lon="-1.00463">
        <ele>111</ele>
        <time>2024-05-29T20:05:56Z</time>
      </trkpt>
      <trkpt lat="46.84532" lon="-1.00471">
        <ele>111</ele>
        <time>2024-05-29T20:06:02Z</time>
      </trkpt>
      <trkpt lat="46.84571" lon="-1.00469">
        <ele>111</ele>
        <time>2024-05-29T20:06:09Z</time>
      </trkpt>
      <trkpt lat="46.84625" lon="-1.00458">
        <ele>112</ele>
        <time>2024-05-29T20:06:19Z</time>
      </trkpt>
      <trkpt lat="46.84738" lon="-1.0042">
        <ele>116</ele>
        <time>2024-05-29T20:06:39Z</time>
      </trkpt>
      <trkpt lat="46.8476" lon="-1.00409">
        <ele>116</ele>
        <time>2024-05-29T20:06:43Z</time>
      </trkpt>
      <trkpt lat="46.8476" lon="-1.00401">
        <ele>116</ele>
        <time>2024-05-29T20:06:44Z</time>
      </trkpt>
      <trkpt lat="46.84765" lon="-1.00394">
        <ele>116</ele>
        <time>2024-05-29T20:06:46Z</time>
      </trkpt>
      <trkpt lat="46.84772" lon="-1.00397">
        <ele>116</ele>
        <time>2024-05-29T20:06:47Z</time>
      </trkpt>
      <trkpt lat="46.84774" lon="-1.00404">
        <ele>116</ele>
        <time>2024-05-29T20:06:48Z</time>
      </trkpt>
      <trkpt lat="46.84828" lon="-1.0039">
        <ele>115</ele>
        <time>2024-05-29T20:06:58Z</time>
      </trkpt>
      <trkpt lat="46.84873" lon="-1.0038">
        <ele>114</ele>
        <time>2024-05-29T20:07:06Z</time>
      </trkpt>
      <trkpt lat="46.84956" lon="-1.00381">
        <ele>113</ele>
        <time>2024-05-29T20:07:20Z</time>
      </trkpt>
      <trkpt lat="46.84987" lon="-1.00387">
        <ele>113</ele>
        <time>2024-05-29T20:07:26Z</time>
      </trkpt>
      <trkpt lat="46.85025" lon="-1.00397">
        <ele>112</ele>
        <time>2024-05-29T20:07:33Z</time>
      </trkpt>
      <trkpt lat="46.85054" lon="-1.0041">
        <ele>111</ele>
        <time>2024-05-29T20:07:38Z</time>
      </trkpt>
      <trkpt lat="46.85102" lon="-1.00439">
        <ele>110</ele>
        <time>2024-05-29T20:07:47Z</time>
      </trkpt>
      <trkpt lat="46.85261" lon="-1.00556">
        <ele>110</ele>
        <time>2024-05-29T20:08:19Z</time>
      </trkpt>
      <trkpt lat="46.85285" lon="-1.00572">
        <ele>110</ele>
        <time>2024-05-29T20:08:24Z</time>
      </trkpt>
      <trkpt lat="46.8534" lon="-1.00587">
        <ele>109</ele>
        <time>2024-05-29T20:08:34Z</time>
      </trkpt>
      <trkpt lat="46.8546" lon="-1.00641">
        <ele>108</ele>
        <time>2024-05-29T20:08:56Z</time>
      </trkpt>
      <trkpt lat="46.85483" lon="-1.00655">
        <ele>108</ele>
        <time>2024-05-29T20:09:01Z</time>
      </trkpt>
      <trkpt lat="46.85509" lon="-1.00674">
        <ele>108</ele>
        <time>2024-05-29T20:09:06Z</time>
      </trkpt>
      <trkpt lat="46.85539" lon="-1.00693">
        <ele>108</ele>
        <time>2024-05-29T20:09:12Z</time>
      </trkpt>
      <trkpt lat="46.85562" lon="-1.00711">
        <ele>108</ele>
        <time>2024-05-29T20:09:16Z</time>
      </trkpt>
      <trkpt lat="46.8569" lon="-1.00829">
        <ele>112</ele>
        <time>2024-05-29T20:09:43Z</time>
      </trkpt>
      <trkpt lat="46.85838" lon="-1.00917">
        <ele>113</ele>
        <time>2024-05-29T20:10:12Z</time>
      </trkpt>
      <trkpt lat="46.8584" lon="-1.00911">
        <ele>113</ele>
        <time>2024-05-29T20:10:12Z</time>
      </trkpt>
      <trkpt lat="46.85848" lon="-1.00905">
        <ele>113</ele>
        <time>2024-05-29T20:10:14Z</time>
      </trkpt>
      <trkpt lat="46.85852" lon="-1.00904">
        <ele>113</ele>
        <time>2024-05-29T20:10:15Z</time>
      </trkpt>
      <trkpt lat="46.85859" lon="-1.00908">
        <ele>113</ele>
        <time>2024-05-29T20:10:16Z</time>
      </trkpt>
      <trkpt lat="46.85864" lon="-1.00916">
        <ele>113</ele>
        <time>2024-05-29T20:10:17Z</time>
      </trkpt>
      <trkpt lat="46.85864" lon="-1.00927">
        <ele>113</ele>
        <time>2024-05-29T20:10:19Z</time>
      </trkpt>
      <trkpt lat="46.85869" lon="-1.00937">
        <ele>113</ele>
        <time>2024-05-29T20:10:20Z</time>
      </trkpt>
      <trkpt lat="46.85879" lon="-1.00946">
        <ele>113</ele>
        <time>2024-05-29T20:10:22Z</time>
      </trkpt>
      <trkpt lat="46.85951" lon="-1.00979">
        <ele>113</ele>
        <time>2024-05-29T20:10:36Z</time>
      </trkpt>
      <trkpt lat="46.85956" lon="-1.00964">
        <ele>113</ele>
        <time>2024-05-29T20:10:38Z</time>
      </trkpt>
      <trkpt lat="46.85999" lon="-1.00892">
        <ele>112</ele>
        <time>2024-05-29T20:10:49Z</time>
      </trkpt>
      <trkpt lat="46.86071" lon="-1.00794">
        <ele>114</ele>
        <time>2024-05-29T20:11:07Z</time>
      </trkpt>
      <trkpt lat="46.86095" lon="-1.00768">
        <ele>115</ele>
        <time>2024-05-29T20:11:12Z</time>
      </trkpt>
      <trkpt lat="46.86141" lon="-1.00728">
        <ele>116</ele>
        <time>2024-05-29T20:11:22Z</time>
      </trkpt>
      <trkpt lat="46.86183" lon="-1.00705">
        <ele>116</ele>
        <time>2024-05-29T20:11:30Z</time>
      </trkpt>
      <trkpt lat="46.86271" lon="-1.00663">
        <ele>118</ele>
        <time>2024-05-29T20:11:46Z</time>
      </trkpt>
      <trkpt lat="46.86324" lon="-1.00626">
        <ele>119</ele>
        <time>2024-05-29T20:11:57Z</time>
      </trkpt>
      <trkpt lat="46.86338" lon="-1.00611">
        <ele>119</ele>
        <time>2024-05-29T20:12:00Z</time>
      </trkpt>
    </trkseg>
  </trk>
</gpx>